PWSweather.com
Personal Weather Stations
Station Observations
KMNHANSK2
Andys Live Weather Stations, Hanska, MN 56041

Andys Live Weather StationsHanska, MN 56041

Lat: 44.170119, Lon: -94.381619

Elevation: 1004

Station Type: Davis Instruments Vantage Pro2 Plus

http://www.madeliasliveweather.com/thompsonfarms/

High Low Average
Temperature 64.5°F18.1°C 36.5°F2.5°C 50.3°F10.2°C
Dew Point 40.8°F4.9°C 28.2°F-2.1°C 33.3°F0.7°C
Winds 26.0 mph 41.8 kmh 7.0 mph 11.3 kmh 16.0 mph SW25.7 kmh SW
Wind Gusts 32.0 mph51.5 kmh 12.0 mph19.3 kmh 24.0 mph38.6 kmh
Humidity 74% 36% 53%
Pressure 30.13 in1020.3 mb 29.92 in1013.2 mb -
Precipitation 0.00 in0.0 mm - -
Hour Temp Dew Point Humidity Winds Wind Gusts Pressure Precip Precip Rate Daily Precip Total
12:01 AM 36.5°F2.5°C 28.4°F-2.0°C 72% 13.0 mph S20.9 kmh S 18.0 mph29.0 kmh 30.13 in1020.3 mb 0.00 in0.0 mm 0.00 in/hr0.0 mm/hr 0.00 in0.0 mm
12:03 AM 36.6°F2.6°C 28.4°F-2.0°C 72% 13.0 mph S20.9 kmh S 18.0 mph29.0 kmh 30.13 in1020.3 mb 0.00 in0.0 mm 0.00 in/hr0.0 mm/hr 0.00 in0.0 mm
12:05 AM 36.7°F2.6°C 28.5°F-1.9°C 72% 14.0 mph S22.5 kmh S 19.0 mph30.6 kmh 30.13 in1020.3 mb 0.00 in0.0 mm 0.00 in/hr0.0 mm/hr 0.00 in0.0 mm
12:06 AM 36.7°F2.6°C 28.5°F-1.9°C 72% 17.0 mph SSW27.4 kmh SSW 19.0 mph30.6 kmh 30.13 in1020.3 mb 0.00 in0.0 mm 0.00 in/hr0.0 mm/hr 0.00 in0.0 mm
12:08 AM 36.8°F2.7°C 28.6°F-1.9°C 72% 13.0 mph S20.9 kmh S 20.0 mph32.2 kmh 30.12 in1020.0 mb 0.00 in0.0 mm 0.00 in/hr0.0 mm/hr 0.00 in0.0 mm
12:10 AM 36.9°F2.7°C 28.7°F-1.8°C 72% 16.0 mph S25.7 kmh S 20.0 mph32.2 kmh 30.13 in1020.3 mb 0.00 in0.0 mm 0.00 in/hr0.0 mm/hr 0.00 in0.0 mm
12:11 AM 36.9°F2.7°C 28.7°F-1.8°C 72% 15.0 mph S24.1 kmh S 21.0 mph33.8 kmh 30.12 in1020.0 mb 0.00 in0.0 mm 0.00 in/hr0.0 mm/hr 0.00 in0.0 mm
12:13 AM 36.9°F2.7°C 28.7°F-1.8°C 72% 16.0 mph S25.7 kmh S 21.0 mph33.8 kmh 30.12 in1020.0 mb 0.00 in0.0 mm 0.00 in/hr0.0 mm/hr 0.00 in0.0 mm
12:14 AM 37.0°F2.8°C 28.8°F-1.8°C 72% 15.0 mph S24.1 kmh S 21.0 mph33.8 kmh 30.12 in1020.0 mb 0.00 in0.0 mm 0.00 in/hr0.0 mm/hr 0.00 in0.0 mm
12:15 AM 37.0°F2.8°C 28.8°F-1.8°C 72% 13.0 mph S20.9 kmh S 21.0 mph33.8 kmh 30.12 in1020.0 mb 0.00 in0.0 mm 0.00 in/hr0.0 mm/hr 0.00 in0.0 mm
12:17 AM 37.0°F2.8°C 28.8°F-1.8°C 72% 14.0 mph S22.5 kmh S 21.0 mph33.8 kmh 30.12 in1020.0 mb 0.00 in0.0 mm 0.00 in/hr0.0 mm/hr 0.00 in0.0 mm
12:18 AM 37.0°F2.8°C 28.8°F-1.8°C 72% 13.0 mph S20.9 kmh S 21.0 mph33.8 kmh 30.12 in1020.0 mb 0.00 in0.0 mm 0.00 in/hr0.0 mm/hr 0.00 in0.0 mm
12:20 AM 37.0°F2.8°C 28.8°F-1.8°C 72% 12.0 mph S19.3 kmh S 21.0 mph33.8 kmh 30.12 in1020.0 mb 0.00 in0.0 mm 0.00 in/hr0.0 mm/hr 0.00 in0.0 mm
12:21 AM 37.0°F2.8°C 28.8°F-1.8°C 72% 13.0 mph S20.9 kmh S 21.0 mph33.8 kmh 30.11 in1019.6 mb 0.00 in0.0 mm 0.00 in/hr0.0 mm/hr 0.00 in0.0 mm
12:22 AM 37.1°F2.8°C 28.9°F-1.7°C 72% 11.0 mph S17.7 kmh S 21.0 mph33.8 kmh 30.12 in1020.0 mb 0.00 in0.0 mm 0.00 in/hr0.0 mm/hr 0.00 in0.0 mm
12:24 AM 37.1°F2.8°C 28.9°F-1.7°C 72% 14.0 mph S22.5 kmh S 21.0 mph33.8 kmh 30.11 in1019.6 mb 0.00 in0.0 mm 0.00 in/hr0.0 mm/hr 0.00 in0.0 mm
12:25 AM 37.2°F2.9°C 29.4°F-1.4°C 73% 12.0 mph S19.3 kmh S 21.0 mph33.8 kmh 30.11 in1019.6 mb 0.00 in0.0 mm 0.00 in/hr0.0 mm/hr 0.00 in0.0 mm
12:27 AM 37.2°F2.9°C 29.0°F-1.7°C 72% 17.0 mph S27.4 kmh S 21.0 mph33.8 kmh 30.11 in1019.6 mb 0.00 in0.0 mm 0.00 in/hr0.0 mm/hr 0.00 in0.0 mm
12:28 AM 37.3°F2.9°C 29.1°F-1.6°C 72% 16.0 mph S25.7 kmh S 21.0 mph33.8 kmh 30.11 in1019.6 mb 0.00 in0.0 mm 0.00 in/hr0.0 mm/hr 0.00 in0.0 mm
12:30 AM 37.5°F3.1°C 29.3°F-1.5°C 72% 18.0 mph S29.0 kmh S 18.0 mph29.0 kmh 30.11 in1019.6 mb 0.00 in0.0 mm 0.00 in/hr0.0 mm/hr 0.00 in0.0 mm
12:32 AM 37.6°F3.1°C 29.4°F-1.4°C 72% 19.0 mph S30.6 kmh S 23.0 mph37.0 kmh 30.11 in1019.6 mb 0.00 in0.0 mm 0.00 in/hr0.0 mm/hr 0.00 in0.0 mm
12:33 AM 37.8°F3.2°C 29.3°F-1.5°C 71% 17.0 mph SSW27.4 kmh SSW 23.0 mph37.0 kmh 30.11 in1019.6 mb 0.00 in0.0 mm 0.00 in/hr0.0 mm/hr 0.00 in0.0 mm
12:35 AM 38.3°F3.5°C 29.4°F-1.4°C 70% 26.0 mph S41.8 kmh S 27.0 mph43.5 kmh 30.10 in1019.3 mb 0.00 in0.0 mm 0.00 in/hr0.0 mm/hr 0.00 in0.0 mm
12:36 AM 38.5°F3.6°C 29.2°F-1.6°C 69% 16.0 mph SSW25.7 kmh SSW 27.0 mph43.5 kmh 30.11 in1019.6 mb 0.00 in0.0 mm 0.00 in/hr0.0 mm/hr 0.00 in0.0 mm
12:38 AM 38.8°F3.8°C 29.5°F-1.4°C 69% 17.0 mph S27.4 kmh S 27.0 mph43.5 kmh 30.10 in1019.3 mb 0.00 in0.0 mm 0.00 in/hr0.0 mm/hr 0.00 in0.0 mm
12:39 AM 38.9°F3.8°C 29.6°F-1.3°C 69% 20.0 mph S32.2 kmh S 27.0 mph43.5 kmh 30.10 in1019.3 mb 0.00 in0.0 mm 0.00 in/hr0.0 mm/hr 0.00 in0.0 mm
12:40 AM 38.9°F3.8°C 29.6°F-1.3°C 69% 14.0 mph SSW22.5 kmh SSW 27.0 mph43.5 kmh 30.10 in1019.3 mb 0.00 in0.0 mm 0.00 in/hr0.0 mm/hr 0.00 in0.0 mm
12:42 AM 38.9°F3.8°C 29.6°F-1.3°C 69% 16.0 mph S25.7 kmh S 27.0 mph43.5 kmh 30.10 in1019.3 mb 0.00 in0.0 mm 0.00 in/hr0.0 mm/hr 0.00 in0.0 mm
12:44 AM 38.8°F3.8°C 29.5°F-1.4°C 69% 17.0 mph S27.4 kmh S 27.0 mph43.5 kmh 30.10 in1019.3 mb 0.00 in0.0 mm 0.00 in/hr0.0 mm/hr 0.00 in0.0 mm
12:45 AM 38.8°F3.8°C 29.9°F-1.2°C 70% 12.0 mph S19.3 kmh S 27.0 mph43.5 kmh 30.10 in1019.3 mb 0.00 in0.0 mm 0.00 in/hr0.0 mm/hr 0.00 in0.0 mm
12:46 AM 38.7°F3.7°C 29.8°F-1.2°C 70% 18.0 mph S29.0 kmh S 27.0 mph43.5 kmh 30.10 in1019.3 mb 0.00 in0.0 mm 0.00 in/hr0.0 mm/hr 0.00 in0.0 mm
12:47 AM 38.7°F3.7°C 29.8°F-1.2°C 70% 16.0 mph SSW25.7 kmh SSW 27.0 mph43.5 kmh 30.10 in1019.3 mb 0.00 in0.0 mm 0.00 in/hr0.0 mm/hr 0.00 in0.0 mm
12:48 AM 38.6°F3.7°C 29.7°F-1.3°C 70% 19.0 mph S30.6 kmh S 27.0 mph43.5 kmh 30.10 in1019.3 mb 0.00 in0.0 mm 0.00 in/hr0.0 mm/hr 0.00 in0.0 mm
12:50 AM 38.6°F3.7°C 29.7°F-1.3°C 70% 17.0 mph S27.4 kmh S 27.0 mph43.5 kmh 30.10 in1019.3 mb 0.00 in0.0 mm 0.00 in/hr0.0 mm/hr 0.00 in0.0 mm
12:51 AM 38.6°F3.7°C 29.7°F-1.3°C 70% 22.0 mph S35.4 kmh S 27.0 mph43.5 kmh 30.10 in1019.3 mb 0.00 in0.0 mm 0.00 in/hr0.0 mm/hr 0.00 in0.0 mm
12:53 AM 38.8°F3.8°C 29.5°F-1.4°C 69% 16.0 mph S25.7 kmh S 27.0 mph43.5 kmh 30.09 in1019.0 mb 0.00 in0.0 mm 0.00 in/hr0.0 mm/hr 0.00 in0.0 mm
12:55 AM 39.1°F3.9°C 29.8°F-1.2°C 69% 26.0 mph S41.8 kmh S 28.0 mph45.1 kmh 30.09 in1019.0 mb 0.00 in0.0 mm 0.00 in/hr0.0 mm/hr 0.00 in0.0 mm
12:56 AM 39.2°F4.0°C 29.9°F-1.2°C 69% 23.0 mph SSW37.0 kmh SSW 28.0 mph45.1 kmh 30.10 in1019.3 mb 0.00 in0.0 mm 0.00 in/hr0.0 mm/hr 0.00 in0.0 mm
12:58 AM 39.3°F4.1°C 29.6°F-1.3°C 68% 19.0 mph S30.6 kmh S 28.0 mph45.1 kmh 30.09 in1019.0 mb 0.00 in0.0 mm 0.00 in/hr0.0 mm/hr 0.00 in0.0 mm
12:59 AM 39.5°F4.2°C 29.8°F-1.2°C 68% 22.0 mph S35.4 kmh S 28.0 mph45.1 kmh 30.09 in1019.0 mb 0.00 in0.0 mm 0.00 in/hr0.0 mm/hr 0.00 in0.0 mm
01:00 AM 39.6°F4.2°C 29.9°F-1.2°C 68% 15.0 mph S24.1 kmh S 28.0 mph45.1 kmh 30.09 in1019.0 mb 0.00 in0.0 mm 0.00 in/hr0.0 mm/hr 0.00 in0.0 mm
01:01 AM 39.7°F4.3°C 30.0°F-1.1°C 68% 20.0 mph S32.2 kmh S 21.0 mph33.8 kmh 30.09 in1019.0 mb 0.00 in0.0 mm 0.00 in/hr0.0 mm/hr 0.00 in0.0 mm
01:03 AM 39.7°F4.3°C 30.0°F-1.1°C 68% 14.0 mph SSW22.5 kmh SSW 23.0 mph37.0 kmh 30.09 in1019.0 mb 0.00 in0.0 mm 0.00 in/hr0.0 mm/hr 0.00 in0.0 mm
01:04 AM 39.7°F4.3°C 30.0°F-1.1°C 68% 18.0 mph S29.0 kmh S 23.0 mph37.0 kmh 30.09 in1019.0 mb 0.00 in0.0 mm 0.00 in/hr0.0 mm/hr 0.00 in0.0 mm
01:05 AM 39.7°F4.3°C 30.0°F-1.1°C 68% 18.0 mph S29.0 kmh S 23.0 mph37.0 kmh 30.09 in1019.0 mb 0.00 in0.0 mm 0.00 in/hr0.0 mm/hr 0.00 in0.0 mm
01:06 AM 39.7°F4.3°C 30.0°F-1.1°C 68% 21.0 mph S33.8 kmh S 32.0 mph51.5 kmh 30.09 in1019.0 mb 0.00 in0.0 mm 0.00 in/hr0.0 mm/hr 0.00 in0.0 mm
01:07 AM 39.8°F4.3°C 29.8°F-1.2°C 67% 17.0 mph S27.4 kmh S 32.0 mph51.5 kmh 30.09 in1019.0 mb 0.00 in0.0 mm 0.00 in/hr0.0 mm/hr 0.00 in0.0 mm
01:08 AM 39.8°F4.3°C 30.1°F-1.1°C 68% 17.0 mph S27.4 kmh S 32.0 mph51.5 kmh 30.08 in1018.6 mb 0.00 in0.0 mm 0.00 in/hr0.0 mm/hr 0.00 in0.0 mm
01:09 AM 39.8°F4.3°C 30.1°F-1.1°C 68% 24.0 mph SSW38.6 kmh SSW 32.0 mph51.5 kmh 30.09 in1019.0 mb 0.00 in0.0 mm 0.00 in/hr0.0 mm/hr 0.00 in0.0 mm
01:10 AM 39.8°F4.3°C 30.1°F-1.1°C 68% 23.0 mph S37.0 kmh S 32.0 mph51.5 kmh 30.08 in1018.6 mb 0.00 in0.0 mm 0.00 in/hr0.0 mm/hr 0.00 in0.0 mm
01:12 AM 39.7°F4.3°C 30.0°F-1.1°C 68% 19.0 mph SSW30.6 kmh SSW 32.0 mph51.5 kmh 30.09 in1019.0 mb 0.00 in0.0 mm 0.00 in/hr0.0 mm/hr 0.00 in0.0 mm
01:14 AM 39.7°F4.3°C 30.0°F-1.1°C 68% 21.0 mph SW33.8 kmh SW 32.0 mph51.5 kmh 30.08 in1018.6 mb 0.00 in0.0 mm 0.00 in/hr0.0 mm/hr 0.00 in0.0 mm
01:15 AM 39.7°F4.3°C 30.0°F-1.1°C 68% 19.0 mph SSW30.6 kmh SSW 32.0 mph51.5 kmh 30.08 in1018.6 mb 0.00 in0.0 mm 0.00 in/hr0.0 mm/hr 0.00 in0.0 mm
01:17 AM 39.7°F4.3°C 30.0°F-1.1°C 68% 19.0 mph SSW30.6 kmh SSW 32.0 mph51.5 kmh 30.08 in1018.6 mb 0.00 in0.0 mm 0.00 in/hr0.0 mm/hr 0.00 in0.0 mm
01:19 AM 39.6°F4.2°C 30.3°F-0.9°C 69% 18.0 mph S29.0 kmh S 32.0 mph51.5 kmh 30.08 in1018.6 mb 0.00 in0.0 mm 0.00 in/hr0.0 mm/hr 0.00 in0.0 mm
01:20 AM 39.5°F4.2°C 30.2°F-1.0°C 69% 17.0 mph S27.4 kmh S 32.0 mph51.5 kmh 30.08 in1018.6 mb 0.00 in0.0 mm 0.00 in/hr0.0 mm/hr 0.00 in0.0 mm
01:22 AM 39.5°F4.2°C 30.2°F-1.0°C 69% 21.0 mph S33.8 kmh S 32.0 mph51.5 kmh 30.08 in1018.6 mb 0.00 in0.0 mm 0.00 in/hr0.0 mm/hr 0.00 in0.0 mm
01:24 AM 39.3°F4.1°C 30.4°F-0.9°C 70% 18.0 mph S29.0 kmh S 32.0 mph51.5 kmh 30.08 in1018.6 mb 0.00 in0.0 mm 0.00 in/hr0.0 mm/hr 0.00 in0.0 mm
01:25 AM 39.2°F4.0°C 30.3°F-0.9°C 70% 22.0 mph S35.4 kmh S 32.0 mph51.5 kmh 30.08 in1018.6 mb 0.00 in0.0 mm 0.00 in/hr0.0 mm/hr 0.00 in0.0 mm
01:27 AM 39.2°F4.0°C 30.3°F-0.9°C 70% 18.0 mph S29.0 kmh S 32.0 mph51.5 kmh 30.08 in1018.6 mb 0.00 in0.0 mm 0.00 in/hr0.0 mm/hr 0.00 in0.0 mm
01:28 AM 39.1°F3.9°C 30.2°F-1.0°C 70% 20.0 mph SSW32.2 kmh SSW 32.0 mph51.5 kmh 30.08 in1018.6 mb 0.00 in0.0 mm 0.00 in/hr0.0 mm/hr 0.00 in0.0 mm
01:30 AM 39.1°F3.9°C 30.2°F-1.0°C 70% 17.0 mph S27.4 kmh S 20.0 mph32.2 kmh 30.08 in1018.6 mb 0.00 in0.0 mm 0.00 in/hr0.0 mm/hr 0.00 in0.0 mm
01:32 AM 39.1°F3.9°C 30.2°F-1.0°C 70% 21.0 mph S33.8 kmh S 23.0 mph37.0 kmh 30.08 in1018.6 mb 0.00 in0.0 mm 0.00 in/hr0.0 mm/hr 0.00 in0.0 mm
01:34 AM 39.1°F3.9°C 30.2°F-1.0°C 70% 15.0 mph SSW24.1 kmh SSW 23.0 mph37.0 kmh 30.08 in1018.6 mb 0.00 in0.0 mm 0.00 in/hr0.0 mm/hr 0.00 in0.0 mm
01:35 AM 39.1°F3.9°C 30.2°F-1.0°C 70% 22.0 mph S35.4 kmh S 24.0 mph38.6 kmh 30.08 in1018.6 mb 0.00 in0.0 mm 0.00 in/hr0.0 mm/hr 0.00 in0.0 mm
01:36 AM 39.1°F3.9°C 30.2°F-1.0°C 70% 18.0 mph S29.0 kmh S 24.0 mph38.6 kmh 30.07 in1018.3 mb 0.00 in0.0 mm 0.00 in/hr0.0 mm/hr 0.00 in0.0 mm
01:38 AM 39.1°F3.9°C 30.2°F-1.0°C 70% 16.0 mph S25.7 kmh S 24.0 mph38.6 kmh 30.07 in1018.3 mb 0.00 in0.0 mm 0.00 in/hr0.0 mm/hr 0.00 in0.0 mm
01:40 AM 39.1°F3.9°C 30.2°F-1.0°C 70% 21.0 mph S33.8 kmh S 25.0 mph40.2 kmh 30.07 in1018.3 mb 0.00 in0.0 mm 0.00 in/hr0.0 mm/hr 0.00 in0.0 mm
01:41 AM 39.1°F3.9°C 30.2°F-1.0°C 70% 17.0 mph S27.4 kmh S 25.0 mph40.2 kmh 30.07 in1018.3 mb 0.00 in0.0 mm 0.00 in/hr0.0 mm/hr 0.00 in0.0 mm
01:42 AM 39.1°F3.9°C 30.5°F-0.8°C 71% 22.0 mph SSW35.4 kmh SSW 25.0 mph40.2 kmh 30.08 in1018.6 mb 0.00 in0.0 mm 0.00 in/hr0.0 mm/hr 0.00 in0.0 mm
01:43 AM 39.1°F3.9°C 30.5°F-0.8°C 71% 20.0 mph S32.2 kmh S 25.0 mph40.2 kmh 30.07 in1018.3 mb 0.00 in0.0 mm 0.00 in/hr0.0 mm/hr 0.00 in0.0 mm
01:44 AM 39.0°F3.9°C 30.4°F-0.9°C 71% 22.0 mph S35.4 kmh S 25.0 mph40.2 kmh 30.07 in1018.3 mb 0.00 in0.0 mm 0.00 in/hr0.0 mm/hr 0.00 in0.0 mm
01:45 AM 39.0°F3.9°C 30.4°F-0.9°C 71% 17.0 mph SSW27.4 kmh SSW 25.0 mph40.2 kmh 30.07 in1018.3 mb 0.00 in0.0 mm 0.00 in/hr0.0 mm/hr 0.00 in0.0 mm
01:46 AM 39.0°F3.9°C 30.4°F-0.9°C 71% 19.0 mph S30.6 kmh S 26.0 mph41.8 kmh 30.07 in1018.3 mb 0.00 in0.0 mm 0.00 in/hr0.0 mm/hr 0.00 in0.0 mm
01:48 AM 39.0°F3.9°C 30.4°F-0.9°C 71% 20.0 mph S32.2 kmh S 26.0 mph41.8 kmh 30.07 in1018.3 mb 0.00 in0.0 mm 0.00 in/hr0.0 mm/hr 0.00 in0.0 mm
01:49 AM 39.0°F3.9°C 30.4°F-0.9°C 71% 23.0 mph S37.0 kmh S 26.0 mph41.8 kmh 30.07 in1018.3 mb 0.00 in0.0 mm 0.00 in/hr0.0 mm/hr 0.00 in0.0 mm
01:50 AM 39.0°F3.9°C 30.4°F-0.9°C 71% 18.0 mph S29.0 kmh S 26.0 mph41.8 kmh 30.07 in1018.3 mb 0.00 in0.0 mm 0.00 in/hr0.0 mm/hr 0.00 in0.0 mm
01:51 AM 39.0°F3.9°C 30.4°F-0.9°C 71% 20.0 mph S32.2 kmh S 26.0 mph41.8 kmh 30.07 in1018.3 mb 0.00 in0.0 mm 0.00 in/hr0.0 mm/hr 0.00 in0.0 mm
01:53 AM 38.9°F3.8°C 30.3°F-0.9°C 71% 18.0 mph S29.0 kmh S 27.0 mph43.5 kmh 30.07 in1018.3 mb 0.00 in0.0 mm 0.00 in/hr0.0 mm/hr 0.00 in0.0 mm
01:55 AM 38.9°F3.8°C 30.7°F-0.7°C 72% 20.0 mph SSW32.2 kmh SSW 27.0 mph43.5 kmh 30.07 in1018.3 mb 0.00 in0.0 mm 0.00 in/hr0.0 mm/hr 0.00 in0.0 mm
01:56 AM 38.9°F3.8°C 30.7°F-0.7°C 72% 18.0 mph S29.0 kmh S 27.0 mph43.5 kmh 30.07 in1018.3 mb 0.00 in0.0 mm 0.00 in/hr0.0 mm/hr 0.00 in0.0 mm
01:58 AM 38.8°F3.8°C 30.6°F-0.8°C 72% 21.0 mph S33.8 kmh S 27.0 mph43.5 kmh 30.07 in1018.3 mb 0.00 in0.0 mm 0.00 in/hr0.0 mm/hr 0.00 in0.0 mm
01:59 AM 38.8°F3.8°C 30.6°F-0.8°C 72% 21.0 mph S33.8 kmh S 27.0 mph43.5 kmh 30.06 in1017.9 mb 0.00 in0.0 mm 0.00 in/hr0.0 mm/hr 0.00 in0.0 mm
02:00 AM 38.7°F3.7°C 30.5°F-0.8°C 72% 17.0 mph SSW27.4 kmh SSW 27.0 mph43.5 kmh 30.06 in1017.9 mb 0.00 in0.0 mm 0.00 in/hr0.0 mm/hr 0.00 in0.0 mm
02:01 AM 38.7°F3.7°C 30.5°F-0.8°C 72% 18.0 mph S29.0 kmh S 22.0 mph35.4 kmh 30.06 in1017.9 mb 0.00 in0.0 mm 0.00 in/hr0.0 mm/hr 0.00 in0.0 mm
02:02 AM 38.7°F3.7°C 30.8°F-0.7°C 73% 18.0 mph S29.0 kmh S 23.0 mph37.0 kmh 30.06 in1017.9 mb 0.00 in0.0 mm 0.00 in/hr0.0 mm/hr 0.00 in0.0 mm
02:04 AM 38.6°F3.7°C 30.7°F-0.7°C 73% 17.0 mph SSW27.4 kmh SSW 23.0 mph37.0 kmh 30.06 in1017.9 mb 0.00 in0.0 mm 0.00 in/hr0.0 mm/hr 0.00 in0.0 mm
02:05 AM 38.6°F3.7°C 30.7°F-0.7°C 73% 18.0 mph S29.0 kmh S 23.0 mph37.0 kmh 30.06 in1017.9 mb 0.00 in0.0 mm 0.00 in/hr0.0 mm/hr 0.00 in0.0 mm
02:06 AM 38.6°F3.7°C 30.7°F-0.7°C 73% 16.0 mph S25.7 kmh S 24.0 mph38.6 kmh 30.06 in1017.9 mb 0.00 in0.0 mm 0.00 in/hr0.0 mm/hr 0.00 in0.0 mm
02:08 AM 38.6°F3.7°C 30.7°F-0.7°C 73% 21.0 mph S33.8 kmh S 24.0 mph38.6 kmh 30.06 in1017.9 mb 0.00 in0.0 mm 0.00 in/hr0.0 mm/hr 0.00 in0.0 mm
02:09 AM 38.6°F3.7°C 30.7°F-0.7°C 73% 18.0 mph S29.0 kmh S 24.0 mph38.6 kmh 30.06 in1017.9 mb 0.00 in0.0 mm 0.00 in/hr0.0 mm/hr 0.00 in0.0 mm
02:10 AM 38.6°F3.7°C 30.7°F-0.7°C 73% 17.0 mph SSW27.4 kmh SSW 24.0 mph38.6 kmh 30.06 in1017.9 mb 0.00 in0.0 mm 0.00 in/hr0.0 mm/hr 0.00 in0.0 mm
02:11 AM 38.6°F3.7°C 30.7°F-0.7°C 73% 17.0 mph SSW27.4 kmh SSW 24.0 mph38.6 kmh 30.06 in1017.9 mb 0.00 in0.0 mm 0.00 in/hr0.0 mm/hr 0.00 in0.0 mm
02:12 AM 38.5°F3.6°C 30.6°F-0.8°C 73% 15.0 mph SSW24.1 kmh SSW 24.0 mph38.6 kmh 30.06 in1017.9 mb 0.00 in0.0 mm 0.00 in/hr0.0 mm/hr 0.00 in0.0 mm
02:14 AM 38.5°F3.6°C 30.6°F-0.8°C 73% 18.0 mph S29.0 kmh S 24.0 mph38.6 kmh 30.06 in1017.9 mb 0.00 in0.0 mm 0.00 in/hr0.0 mm/hr 0.00 in0.0 mm
02:16 AM 38.5°F3.6°C 30.6°F-0.8°C 73% 16.0 mph SSW25.7 kmh SSW 24.0 mph38.6 kmh 30.06 in1017.9 mb 0.00 in0.0 mm 0.00 in/hr0.0 mm/hr 0.00 in0.0 mm
02:17 AM 38.4°F3.6°C 30.5°F-0.8°C 73% 18.0 mph S29.0 kmh S 24.0 mph38.6 kmh 30.06 in1017.9 mb 0.00 in0.0 mm 0.00 in/hr0.0 mm/hr 0.00 in0.0 mm
02:19 AM 38.5°F3.6°C 30.6°F-0.8°C 73% 14.0 mph S22.5 kmh S 24.0 mph38.6 kmh 30.06 in1017.9 mb 0.00 in0.0 mm 0.00 in/hr0.0 mm/hr 0.00 in0.0 mm
02:20 AM 38.4°F3.6°C 30.9°F-0.6°C 74% 17.0 mph SSW27.4 kmh SSW 24.0 mph38.6 kmh 30.06 in1017.9 mb 0.00 in0.0 mm 0.00 in/hr0.0 mm/hr 0.00 in0.0 mm
02:21 AM 38.4°F3.6°C 30.9°F-0.6°C 74% 18.0 mph SSW29.0 kmh SSW 24.0 mph38.6 kmh 30.06 in1017.9 mb 0.00 in0.0 mm 0.00 in/hr0.0 mm/hr 0.00 in0.0 mm
02:22 AM 38.4°F3.6°C 30.5°F-0.8°C 73% 14.0 mph SSW22.5 kmh SSW 24.0 mph38.6 kmh 30.06 in1017.9 mb 0.00 in0.0 mm 0.00 in/hr0.0 mm/hr 0.00 in0.0 mm
02:23 AM 38.4°F3.6°C 30.5°F-0.8°C 73% 17.0 mph S27.4 kmh S 24.0 mph38.6 kmh 30.05 in1017.6 mb 0.00 in0.0 mm 0.00 in/hr0.0 mm/hr 0.00 in0.0 mm
02:24 AM 38.4°F3.6°C 30.5°F-0.8°C 73% 17.0 mph S27.4 kmh S 24.0 mph38.6 kmh 30.05 in1017.6 mb 0.00 in0.0 mm 0.00 in/hr0.0 mm/hr 0.00 in0.0 mm
02:26 AM 38.5°F3.6°C 30.6°F-0.8°C 73% 19.0 mph S30.6 kmh S 24.0 mph38.6 kmh 30.05 in1017.6 mb 0.00 in0.0 mm 0.00 in/hr0.0 mm/hr 0.00 in0.0 mm
02:27 AM 38.5°F3.6°C 30.6°F-0.8°C 73% 21.0 mph S33.8 kmh S 24.0 mph38.6 kmh 30.05 in1017.6 mb 0.00 in0.0 mm 0.00 in/hr0.0 mm/hr 0.00 in0.0 mm
02:29 AM 38.5°F3.6°C 30.6°F-0.8°C 73% 14.0 mph SW22.5 kmh SW 24.0 mph38.6 kmh 30.05 in1017.6 mb 0.00 in0.0 mm 0.00 in/hr0.0 mm/hr 0.00 in0.0 mm
02:30 AM 38.5°F3.6°C 30.6°F-0.8°C 73% 16.0 mph S25.7 kmh S 24.0 mph38.6 kmh 30.05 in1017.6 mb 0.00 in0.0 mm 0.00 in/hr0.0 mm/hr 0.00 in0.0 mm
02:31 AM 38.6°F3.7°C 30.7°F-0.7°C 73% 16.0 mph SSW25.7 kmh SSW 18.0 mph29.0 kmh 30.05 in1017.6 mb 0.00 in0.0 mm 0.00 in/hr0.0 mm/hr 0.00 in0.0 mm
02:33 AM 38.6°F3.7°C 30.7°F-0.7°C 73% 15.0 mph S24.1 kmh S 20.0 mph32.2 kmh 30.05 in1017.6 mb 0.00 in0.0 mm 0.00 in/hr0.0 mm/hr 0.00 in0.0 mm
02:34 AM 38.6°F3.7°C 30.7°F-0.7°C 73% 15.0 mph S24.1 kmh S 21.0 mph33.8 kmh 30.05 in1017.6 mb 0.00 in0.0 mm 0.00 in/hr0.0 mm/hr 0.00 in0.0 mm
02:35 AM 38.6°F3.7°C 30.7°F-0.7°C 73% 18.0 mph S29.0 kmh S 21.0 mph33.8 kmh 30.05 in1017.6 mb 0.00 in0.0 mm 0.00 in/hr0.0 mm/hr 0.00 in0.0 mm
02:36 AM 38.6°F3.7°C 30.7°F-0.7°C 73% 17.0 mph SSW27.4 kmh SSW 21.0 mph33.8 kmh 30.05 in1017.6 mb 0.00 in0.0 mm 0.00 in/hr0.0 mm/hr 0.00 in0.0 mm
02:38 AM 38.6°F3.7°C 30.7°F-0.7°C 73% 18.0 mph S29.0 kmh S 21.0 mph33.8 kmh 30.05 in1017.6 mb 0.00 in0.0 mm 0.00 in/hr0.0 mm/hr 0.00 in0.0 mm
02:39 AM 38.6°F3.7°C 30.7°F-0.7°C 73% 16.0 mph S25.7 kmh S 21.0 mph33.8 kmh 30.05 in1017.6 mb 0.00 in0.0 mm 0.00 in/hr0.0 mm/hr 0.00 in0.0 mm
02:40 AM 38.6°F3.7°C 30.7°F-0.7°C 73% 16.0 mph S25.7 kmh S 21.0 mph33.8 kmh 30.05 in1017.6 mb 0.00 in0.0 mm 0.00 in/hr0.0 mm/hr 0.00 in0.0 mm
02:41 AM 38.6°F3.7°C 30.7°F-0.7°C 73% 20.0 mph S32.2 kmh S 21.0 mph33.8 kmh 30.04 in1017.3 mb 0.00 in0.0 mm 0.00 in/hr0.0 mm/hr 0.00 in0.0 mm
02:43 AM 38.6°F3.7°C 30.7°F-0.7°C 73% 14.0 mph SSW22.5 kmh SSW 21.0 mph33.8 kmh 30.04 in1017.3 mb 0.00 in0.0 mm 0.00 in/hr0.0 mm/hr 0.00 in0.0 mm
02:44 AM 38.6°F3.7°C 30.7°F-0.7°C 73% 16.0 mph SSW25.7 kmh SSW 22.0 mph35.4 kmh 30.04 in1017.3 mb 0.00 in0.0 mm 0.00 in/hr0.0 mm/hr 0.00 in0.0 mm
02:46 AM 38.6°F3.7°C 30.7°F-0.7°C 73% 17.0 mph SSW27.4 kmh SSW 22.0 mph35.4 kmh 30.04 in1017.3 mb 0.00 in0.0 mm 0.00 in/hr0.0 mm/hr 0.00 in0.0 mm
02:47 AM 38.6°F3.7°C 30.7°F-0.7°C 73% 19.0 mph SSW30.6 kmh SSW 22.0 mph35.4 kmh 30.04 in1017.3 mb 0.00 in0.0 mm 0.00 in/hr0.0 mm/hr 0.00 in0.0 mm
02:49 AM 38.7°F3.7°C 30.5°F-0.8°C 72% 13.0 mph SSW20.9 kmh SSW 22.0 mph35.4 kmh 30.04 in1017.3 mb 0.00 in0.0 mm 0.00 in/hr0.0 mm/hr 0.00 in0.0 mm
02:50 AM 38.7°F3.7°C 30.5°F-0.8°C 72% 14.0 mph SSW22.5 kmh SSW 22.0 mph35.4 kmh 30.04 in1017.3 mb 0.00 in0.0 mm 0.00 in/hr0.0 mm/hr 0.00 in0.0 mm
02:51 AM 38.8°F3.8°C 30.6°F-0.8°C 72% 15.0 mph SSW24.1 kmh SSW 22.0 mph35.4 kmh 30.04 in1017.3 mb 0.00 in0.0 mm 0.00 in/hr0.0 mm/hr 0.00 in0.0 mm
02:53 AM 38.8°F3.8°C 30.6°F-0.8°C 72% 18.0 mph S29.0 kmh S 22.0 mph35.4 kmh 30.04 in1017.3 mb 0.00 in0.0 mm 0.00 in/hr0.0 mm/hr 0.00 in0.0 mm
02:55 AM 38.8°F3.8°C 30.6°F-0.8°C 72% 14.0 mph SSW22.5 kmh SSW 22.0 mph35.4 kmh 30.04 in1017.3 mb 0.00 in0.0 mm 0.00 in/hr0.0 mm/hr 0.00 in0.0 mm
02:56 AM 38.8°F3.8°C 30.6°F-0.8°C 72% 15.0 mph SSW24.1 kmh SSW 22.0 mph35.4 kmh 30.04 in1017.3 mb 0.00 in0.0 mm 0.00 in/hr0.0 mm/hr 0.00 in0.0 mm
02:58 AM 38.9°F3.8°C 30.3°F-0.9°C 71% 11.0 mph SSW17.7 kmh SSW 22.0 mph35.4 kmh 30.04 in1017.3 mb 0.00 in0.0 mm 0.00 in/hr0.0 mm/hr 0.00 in0.0 mm
02:59 AM 38.9°F3.8°C 30.7°F-0.7°C 72% 20.0 mph S32.2 kmh S 22.0 mph35.4 kmh 30.03 in1016.9 mb 0.00 in0.0 mm 0.00 in/hr0.0 mm/hr 0.00 in0.0 mm
03:00 AM 38.9°F3.8°C 30.3°F-0.9°C 71% 15.0 mph S24.1 kmh S 16.0 mph25.7 kmh 30.03 in1016.9 mb 0.00 in0.0 mm 0.00 in/hr0.0 mm/hr 0.00 in0.0 mm
03:01 AM 39.0°F3.9°C 30.4°F-0.9°C 71% 15.0 mph SSW24.1 kmh SSW 16.0 mph25.7 kmh 30.03 in1016.9 mb 0.00 in0.0 mm 0.00 in/hr0.0 mm/hr 0.00 in0.0 mm
03:03 AM 39.2°F4.0°C 30.3°F-0.9°C 70% 11.0 mph S17.7 kmh S 17.0 mph27.4 kmh 30.03 in1016.9 mb 0.00 in0.0 mm 0.00 in/hr0.0 mm/hr 0.00 in0.0 mm
03:04 AM 39.2°F4.0°C 30.3°F-0.9°C 70% 11.0 mph SSW17.7 kmh SSW 21.0 mph33.8 kmh 30.03 in1016.9 mb 0.00 in0.0 mm 0.00 in/hr0.0 mm/hr 0.00 in0.0 mm
03:05 AM 39.3°F4.1°C 30.4°F-0.9°C 70% 14.0 mph SW22.5 kmh SW 21.0 mph33.8 kmh 30.03 in1016.9 mb 0.00 in0.0 mm 0.00 in/hr0.0 mm/hr 0.00 in0.0 mm
03:06 AM 39.4°F4.1°C 30.1°F-1.1°C 69% 13.0 mph SSW20.9 kmh SSW 21.0 mph33.8 kmh 30.03 in1016.9 mb 0.00 in0.0 mm 0.00 in/hr0.0 mm/hr 0.00 in0.0 mm
03:08 AM 39.5°F4.2°C 30.2°F-1.0°C 69% 13.0 mph SSW20.9 kmh SSW 21.0 mph33.8 kmh 30.03 in1016.9 mb 0.00 in0.0 mm 0.00 in/hr0.0 mm/hr 0.00 in0.0 mm
03:10 AM 39.7°F4.3°C 30.4°F-0.9°C 69% 11.0 mph S17.7 kmh S 21.0 mph33.8 kmh 30.03 in1016.9 mb 0.00 in0.0 mm 0.00 in/hr0.0 mm/hr 0.00 in0.0 mm
03:11 AM 39.8°F4.3°C 30.1°F-1.1°C 68% 13.0 mph SW20.9 kmh SW 21.0 mph33.8 kmh 30.03 in1016.9 mb 0.00 in0.0 mm 0.00 in/hr0.0 mm/hr 0.00 in0.0 mm
03:13 AM 39.9°F4.4°C 30.2°F-1.0°C 68% 12.0 mph SSW19.3 kmh SSW 21.0 mph33.8 kmh 30.03 in1016.9 mb 0.00 in0.0 mm 0.00 in/hr0.0 mm/hr 0.00 in0.0 mm
03:15 AM 40.0°F4.4°C 29.9°F-1.2°C 67% 15.0 mph SSW24.1 kmh SSW 21.0 mph33.8 kmh 30.03 in1016.9 mb 0.00 in0.0 mm 0.00 in/hr0.0 mm/hr 0.00 in0.0 mm
03:16 AM 40.0°F4.4°C 29.9°F-1.2°C 67% 13.0 mph SSW20.9 kmh SSW 21.0 mph33.8 kmh 30.03 in1016.9 mb 0.00 in0.0 mm 0.00 in/hr0.0 mm/hr 0.00 in0.0 mm
03:18 AM 40.2°F4.6°C 29.8°F-1.2°C 66% 14.0 mph SSW22.5 kmh SSW 21.0 mph33.8 kmh 30.03 in1016.9 mb 0.00 in0.0 mm 0.00 in/hr0.0 mm/hr 0.00 in0.0 mm
03:19 AM 40.3°F4.6°C 29.9°F-1.2°C 66% 13.0 mph S20.9 kmh S 21.0 mph33.8 kmh 30.03 in1016.9 mb 0.00 in0.0 mm 0.00 in/hr0.0 mm/hr 0.00 in0.0 mm
03:20 AM 40.4°F4.7°C 30.0°F-1.1°C 66% 13.0 mph SSW20.9 kmh SSW 21.0 mph33.8 kmh 30.03 in1016.9 mb 0.00 in0.0 mm 0.00 in/hr0.0 mm/hr 0.00 in0.0 mm
03:21 AM 40.4°F4.7°C 30.0°F-1.1°C 66% 13.0 mph SSW20.9 kmh SSW 21.0 mph33.8 kmh 30.02 in1016.6 mb 0.00 in0.0 mm 0.00 in/hr0.0 mm/hr 0.00 in0.0 mm
03:22 AM 40.5°F4.7°C 30.1°F-1.1°C 66% 15.0 mph S24.1 kmh S 21.0 mph33.8 kmh 30.02 in1016.6 mb 0.00 in0.0 mm 0.00 in/hr0.0 mm/hr 0.00 in0.0 mm
03:23 AM 40.5°F4.7°C 29.7°F-1.3°C 65% 15.0 mph SW24.1 kmh SW 21.0 mph33.8 kmh 30.03 in1016.9 mb 0.00 in0.0 mm 0.00 in/hr0.0 mm/hr 0.00 in0.0 mm
03:24 AM 40.6°F4.8°C 29.8°F-1.2°C 65% 14.0 mph SSW22.5 kmh SSW 21.0 mph33.8 kmh 30.02 in1016.6 mb 0.00 in0.0 mm 0.00 in/hr0.0 mm/hr 0.00 in0.0 mm
03:25 AM 40.6°F4.8°C 29.8°F-1.2°C 65% 17.0 mph SSW27.4 kmh SSW 21.0 mph33.8 kmh 30.02 in1016.6 mb 0.00 in0.0 mm 0.00 in/hr0.0 mm/hr 0.00 in0.0 mm
03:27 AM 40.7°F4.8°C 29.9°F-1.2°C 65% 14.0 mph SSW22.5 kmh SSW 21.0 mph33.8 kmh 30.02 in1016.6 mb 0.00 in0.0 mm 0.00 in/hr0.0 mm/hr 0.00 in0.0 mm
03:28 AM 40.7°F4.8°C 29.9°F-1.2°C 65% 19.0 mph S30.6 kmh S 21.0 mph33.8 kmh 30.02 in1016.6 mb 0.00 in0.0 mm 0.00 in/hr0.0 mm/hr 0.00 in0.0 mm
03:30 AM 40.8°F4.9°C 30.0°F-1.1°C 65% 18.0 mph SSW29.0 kmh SSW 21.0 mph33.8 kmh 30.02 in1016.6 mb 0.00 in0.0 mm 0.00 in/hr0.0 mm/hr 0.00 in0.0 mm
03:31 AM 40.9°F4.9°C 29.7°F-1.3°C 64% 21.0 mph SSW33.8 kmh SSW 21.0 mph33.8 kmh 30.02 in1016.6 mb 0.00 in0.0 mm 0.00 in/hr0.0 mm/hr 0.00 in0.0 mm
03:33 AM 41.0°F5.0°C 29.8°F-1.2°C 64% 19.0 mph SSW30.6 kmh SSW 24.0 mph38.6 kmh 30.02 in1016.6 mb 0.00 in0.0 mm 0.00 in/hr0.0 mm/hr 0.00 in0.0 mm
03:34 AM 41.1°F5.1°C 29.9°F-1.2°C 64% 16.0 mph SSW25.7 kmh SSW 24.0 mph38.6 kmh 30.02 in1016.6 mb 0.00 in0.0 mm 0.00 in/hr0.0 mm/hr 0.00 in0.0 mm
03:36 AM 41.3°F5.2°C 29.7°F-1.3°C 63% 17.0 mph SW27.4 kmh SW 24.0 mph38.6 kmh 30.02 in1016.6 mb 0.00 in0.0 mm 0.00 in/hr0.0 mm/hr 0.00 in0.0 mm
03:37 AM 41.3°F5.2°C 29.7°F-1.3°C 63% 17.0 mph SW27.4 kmh SW 24.0 mph38.6 kmh 30.02 in1016.6 mb 0.00 in0.0 mm 0.00 in/hr0.0 mm/hr 0.00 in0.0 mm
03:39 AM 41.4°F5.2°C 29.8°F-1.2°C 63% 18.0 mph SSW29.0 kmh SSW 25.0 mph40.2 kmh 30.02 in1016.6 mb 0.00 in0.0 mm 0.00 in/hr0.0 mm/hr 0.00 in0.0 mm
03:40 AM 41.4°F5.2°C 29.8°F-1.2°C 63% 16.0 mph S25.7 kmh S 25.0 mph40.2 kmh 30.02 in1016.6 mb 0.00 in0.0 mm 0.00 in/hr0.0 mm/hr 0.00 in0.0 mm
03:41 AM 41.5°F5.3°C 29.5°F-1.4°C 62% 17.0 mph SSW27.4 kmh SSW 25.0 mph40.2 kmh 30.02 in1016.6 mb 0.00 in0.0 mm 0.00 in/hr0.0 mm/hr 0.00 in0.0 mm
03:43 AM 41.6°F5.3°C 30.0°F-1.1°C 63% 17.0 mph SSW27.4 kmh SSW 25.0 mph40.2 kmh 30.02 in1016.6 mb 0.00 in0.0 mm 0.00 in/hr0.0 mm/hr 0.00 in0.0 mm
03:44 AM 41.6°F5.3°C 29.6°F-1.3°C 62% 14.0 mph SSW22.5 kmh SSW 25.0 mph40.2 kmh 30.02 in1016.6 mb 0.00 in0.0 mm 0.00 in/hr0.0 mm/hr 0.00 in0.0 mm
03:45 AM 41.6°F5.3°C 29.6°F-1.3°C 62% 21.0 mph SW33.8 kmh SW 27.0 mph43.5 kmh 30.01 in1016.3 mb 0.00 in0.0 mm 0.00 in/hr0.0 mm/hr 0.00 in0.0 mm
03:46 AM 41.7°F5.4°C 29.3°F-1.5°C 61% 16.0 mph SSW25.7 kmh SSW 27.0 mph43.5 kmh 30.02 in1016.6 mb 0.00 in0.0 mm 0.00 in/hr0.0 mm/hr 0.00 in0.0 mm
03:47 AM 41.7°F5.4°C 29.7°F-1.3°C 62% 14.0 mph SSW22.5 kmh SSW 27.0 mph43.5 kmh 30.02 in1016.6 mb 0.00 in0.0 mm 0.00 in/hr0.0 mm/hr 0.00 in0.0 mm
03:49 AM 41.8°F5.4°C 29.8°F-1.2°C 62% 17.0 mph SW27.4 kmh SW 27.0 mph43.5 kmh 30.01 in1016.3 mb 0.00 in0.0 mm 0.00 in/hr0.0 mm/hr 0.00 in0.0 mm
03:50 AM 41.8°F5.4°C 29.8°F-1.2°C 62% 19.0 mph SSW30.6 kmh SSW 27.0 mph43.5 kmh 30.01 in1016.3 mb 0.00 in0.0 mm 0.00 in/hr0.0 mm/hr 0.00 in0.0 mm
03:51 AM 41.8°F5.4°C 29.8°F-1.2°C 62% 18.0 mph SSW29.0 kmh SSW 27.0 mph43.5 kmh 30.01 in1016.3 mb 0.00 in0.0 mm 0.00 in/hr0.0 mm/hr 0.00 in0.0 mm
03:53 AM 41.8°F5.4°C 29.8°F-1.2°C 62% 18.0 mph SSW29.0 kmh SSW 27.0 mph43.5 kmh 30.01 in1016.3 mb 0.00 in0.0 mm 0.00 in/hr0.0 mm/hr 0.00 in0.0 mm
03:55 AM 41.7°F5.4°C 29.7°F-1.3°C 62% 20.0 mph SSW32.2 kmh SSW 27.0 mph43.5 kmh 30.01 in1016.3 mb 0.00 in0.0 mm 0.00 in/hr0.0 mm/hr 0.00 in0.0 mm
03:56 AM 41.7°F5.4°C 29.7°F-1.3°C 62% 23.0 mph SW37.0 kmh SW 27.0 mph43.5 kmh 30.01 in1016.3 mb 0.00 in0.0 mm 0.00 in/hr0.0 mm/hr 0.00 in0.0 mm
03:58 AM 41.8°F5.4°C 29.8°F-1.2°C 62% 21.0 mph SW33.8 kmh SW 27.0 mph43.5 kmh 30.01 in1016.3 mb 0.00 in0.0 mm 0.00 in/hr0.0 mm/hr 0.00 in0.0 mm
03:59 AM 41.8°F5.4°C 29.4°F-1.4°C 61% 21.0 mph SW33.8 kmh SW 27.0 mph43.5 kmh 30.01 in1016.3 mb 0.00 in0.0 mm 0.00 in/hr0.0 mm/hr 0.00 in0.0 mm
04:00 AM 41.9°F5.5°C 29.5°F-1.4°C 61% 16.0 mph SSW25.7 kmh SSW 17.0 mph27.4 kmh 30.01 in1016.3 mb 0.00 in0.0 mm 0.00 in/hr0.0 mm/hr 0.00 in0.0 mm
04:01 AM 41.9°F5.5°C 29.5°F-1.4°C 61% 20.0 mph SW32.2 kmh SW 20.0 mph32.2 kmh 30.01 in1016.3 mb 0.00 in0.0 mm 0.00 in/hr0.0 mm/hr 0.00 in0.0 mm
04:03 AM 42.1°F5.6°C 29.6°F-1.3°C 61% 16.0 mph SW25.7 kmh SW 22.0 mph35.4 kmh 30.01 in1016.3 mb 0.00 in0.0 mm 0.00 in/hr0.0 mm/hr 0.00 in0.0 mm
04:05 AM 42.2°F5.7°C 29.3°F-1.5°C 60% 16.0 mph SSW25.7 kmh SSW 25.0 mph40.2 kmh 30.01 in1016.3 mb 0.00 in0.0 mm 0.00 in/hr0.0 mm/hr 0.00 in0.0 mm
04:07 AM 42.2°F5.7°C 29.3°F-1.5°C 60% 16.0 mph SSW25.7 kmh SSW 25.0 mph40.2 kmh 30.01 in1016.3 mb 0.00 in0.0 mm 0.00 in/hr0.0 mm/hr 0.00 in0.0 mm
04:08 AM 42.3°F5.7°C 29.4°F-1.4°C 60% 21.0 mph SSW33.8 kmh SSW 25.0 mph40.2 kmh 30.00 in1015.9 mb 0.00 in0.0 mm 0.00 in/hr0.0 mm/hr 0.00 in0.0 mm
04:10 AM 42.4°F5.8°C 29.1°F-1.6°C 59% 20.0 mph SSW32.2 kmh SSW 25.0 mph40.2 kmh 30.00 in1015.9 mb 0.00 in0.0 mm 0.00 in/hr0.0 mm/hr 0.00 in0.0 mm
04:11 AM 42.4°F5.8°C 29.5°F-1.4°C 60% 17.0 mph SSW27.4 kmh SSW 25.0 mph40.2 kmh 30.00 in1015.9 mb 0.00 in0.0 mm 0.00 in/hr0.0 mm/hr 0.00 in0.0 mm
04:13 AM 42.4°F5.8°C 29.5°F-1.4°C 60% 18.0 mph SSW29.0 kmh SSW 25.0 mph40.2 kmh 30.00 in1015.9 mb 0.00 in0.0 mm 0.00 in/hr0.0 mm/hr 0.00 in0.0 mm
04:14 AM 42.3°F5.7°C 29.4°F-1.4°C 60% 17.0 mph SSW27.4 kmh SSW 25.0 mph40.2 kmh 30.01 in1016.3 mb 0.00 in0.0 mm 0.00 in/hr0.0 mm/hr 0.00 in0.0 mm
04:15 AM 42.3°F5.7°C 29.4°F-1.4°C 60% 22.0 mph SW35.4 kmh SW 25.0 mph40.2 kmh 30.01 in1016.3 mb 0.00 in0.0 mm 0.00 in/hr0.0 mm/hr 0.00 in0.0 mm
04:16 AM 42.3°F5.7°C 29.0°F-1.7°C 59% 17.0 mph SSW27.4 kmh SSW 25.0 mph40.2 kmh 30.00 in1015.9 mb 0.00 in0.0 mm 0.00 in/hr0.0 mm/hr 0.00 in0.0 mm
04:18 AM 42.3°F5.7°C 29.4°F-1.4°C 60% 16.0 mph S25.7 kmh S 25.0 mph40.2 kmh 30.00 in1015.9 mb 0.00 in0.0 mm 0.00 in/hr0.0 mm/hr 0.00 in0.0 mm
04:19 AM 42.3°F5.7°C 29.4°F-1.4°C 60% 18.0 mph SW29.0 kmh SW 25.0 mph40.2 kmh 30.00 in1015.9 mb 0.00 in0.0 mm 0.00 in/hr0.0 mm/hr 0.00 in0.0 mm
04:20 AM 42.4°F5.8°C 29.1°F-1.6°C 59% 18.0 mph SSW29.0 kmh SSW 25.0 mph40.2 kmh 30.00 in1015.9 mb 0.00 in0.0 mm 0.00 in/hr0.0 mm/hr 0.00 in0.0 mm
04:21 AM 42.4°F5.8°C 29.1°F-1.6°C 59% 24.0 mph S38.6 kmh S 26.0 mph41.8 kmh 30.00 in1015.9 mb 0.00 in0.0 mm 0.00 in/hr0.0 mm/hr 0.00 in0.0 mm
04:22 AM 42.5°F5.8°C 29.2°F-1.6°C 59% 16.0 mph SSW25.7 kmh SSW 26.0 mph41.8 kmh 30.00 in1015.9 mb 0.00 in0.0 mm 0.00 in/hr0.0 mm/hr 0.00 in0.0 mm
04:24 AM 42.6°F5.9°C 28.9°F-1.7°C 58% 16.0 mph SW25.7 kmh SW 26.0 mph41.8 kmh 30.00 in1015.9 mb 0.00 in0.0 mm 0.00 in/hr0.0 mm/hr 0.00 in0.0 mm
04:25 AM 42.7°F5.9°C 29.0°F-1.7°C 58% 18.0 mph SW29.0 kmh SW 26.0 mph41.8 kmh 30.00 in1015.9 mb 0.00 in0.0 mm 0.00 in/hr0.0 mm/hr 0.00 in0.0 mm
04:27 AM 42.7°F5.9°C 29.0°F-1.7°C 58% 15.0 mph SW24.1 kmh SW 26.0 mph41.8 kmh 30.00 in1015.9 mb 0.00 in0.0 mm 0.00 in/hr0.0 mm/hr 0.00 in0.0 mm
04:29 AM 42.6°F5.9°C 29.3°F-1.5°C 59% 17.0 mph SSW27.4 kmh SSW 26.0 mph41.8 kmh 30.00 in1015.9 mb 0.00 in0.0 mm 0.00 in/hr0.0 mm/hr 0.00 in0.0 mm
04:30 AM 42.6°F5.9°C 29.3°F-1.5°C 59% 15.0 mph SSW24.1 kmh SSW 16.0 mph25.7 kmh 30.00 in1015.9 mb 0.00 in0.0 mm 0.00 in/hr0.0 mm/hr 0.00 in0.0 mm
04:31 AM 42.6°F5.9°C 29.3°F-1.5°C 59% 16.0 mph SSW25.7 kmh SSW 21.0 mph33.8 kmh 30.00 in1015.9 mb 0.00 in0.0 mm 0.00 in/hr0.0 mm/hr 0.00 in0.0 mm
04:32 AM 42.5°F5.8°C 29.2°F-1.6°C 59% 16.0 mph SSW25.7 kmh SSW 21.0 mph33.8 kmh 30.00 in1015.9 mb 0.00 in0.0 mm 0.00 in/hr0.0 mm/hr 0.00 in0.0 mm
04:34 AM 42.5°F5.8°C 29.2°F-1.6°C 59% 15.0 mph SSW24.1 kmh SSW 21.0 mph33.8 kmh 30.00 in1015.9 mb 0.00 in0.0 mm 0.00 in/hr0.0 mm/hr 0.00 in0.0 mm
04:35 AM 42.5°F5.8°C 28.8°F-1.8°C 58% 19.0 mph SSW30.6 kmh SSW 21.0 mph33.8 kmh 30.00 in1015.9 mb 0.00 in0.0 mm 0.00 in/hr0.0 mm/hr 0.00 in0.0 mm
04:37 AM 42.6°F5.9°C 28.9°F-1.7°C 58% 17.0 mph SSW27.4 kmh SSW 22.0 mph35.4 kmh 30.00 in1015.9 mb 0.00 in0.0 mm 0.00 in/hr0.0 mm/hr 0.00 in0.0 mm
04:38 AM 42.7°F5.9°C 29.0°F-1.7°C 58% 19.0 mph SSW30.6 kmh SSW 25.0 mph40.2 kmh 30.00 in1015.9 mb 0.00 in0.0 mm 0.00 in/hr0.0 mm/hr 0.00 in0.0 mm
04:40 AM 42.8°F6.0°C 29.1°F-1.6°C 58% 15.0 mph S24.1 kmh S 25.0 mph40.2 kmh 30.00 in1015.9 mb 0.00 in0.0 mm 0.00 in/hr0.0 mm/hr 0.00 in0.0 mm
04:41 AM 42.8°F6.0°C 29.5°F-1.4°C 59% 15.0 mph SW24.1 kmh SW 25.0 mph40.2 kmh 30.00 in1015.9 mb 0.00 in0.0 mm 0.00 in/hr0.0 mm/hr 0.00 in0.0 mm
04:43 AM 42.7°F5.9°C 29.0°F-1.7°C 58% 17.0 mph SW27.4 kmh SW 25.0 mph40.2 kmh 30.00 in1015.9 mb 0.00 in0.0 mm 0.00 in/hr0.0 mm/hr 0.00 in0.0 mm
04:45 AM 42.7°F5.9°C 29.0°F-1.7°C 58% 18.0 mph SW29.0 kmh SW 25.0 mph40.2 kmh 30.00 in1015.9 mb 0.00 in0.0 mm 0.00 in/hr0.0 mm/hr 0.00 in0.0 mm
04:46 AM 42.7°F5.9°C 29.0°F-1.7°C 58% 13.0 mph SW20.9 kmh SW 25.0 mph40.2 kmh 30.00 in1015.9 mb 0.00 in0.0 mm 0.00 in/hr0.0 mm/hr 0.00 in0.0 mm
04:48 AM 42.8°F6.0°C 29.1°F-1.6°C 58% 13.0 mph SW20.9 kmh SW 25.0 mph40.2 kmh 30.00 in1015.9 mb 0.00 in0.0 mm 0.00 in/hr0.0 mm/hr 0.00 in0.0 mm
04:49 AM 42.8°F6.0°C 29.1°F-1.6°C 58% 17.0 mph SSW27.4 kmh SSW 25.0 mph40.2 kmh 30.00 in1015.9 mb 0.00 in0.0 mm 0.00 in/hr0.0 mm/hr 0.00 in0.0 mm
04:50 AM 42.8°F6.0°C 29.1°F-1.6°C 58% 20.0 mph SW32.2 kmh SW 25.0 mph40.2 kmh 30.00 in1015.9 mb 0.00 in0.0 mm 0.00 in/hr0.0 mm/hr 0.00 in0.0 mm
04:51 AM 42.8°F6.0°C 28.6°F-1.9°C 57% 18.0 mph SW29.0 kmh SW 25.0 mph40.2 kmh 30.00 in1015.9 mb 0.00 in0.0 mm 0.00 in/hr0.0 mm/hr 0.00 in0.0 mm
04:52 AM 42.9°F6.1°C 28.7°F-1.8°C 57% 17.0 mph SW27.4 kmh SW 25.0 mph40.2 kmh 30.00 in1015.9 mb 0.00 in0.0 mm 0.00 in/hr0.0 mm/hr 0.00 in0.0 mm
04:54 AM 42.9°F6.1°C 28.7°F-1.8°C 57% 17.0 mph SSW27.4 kmh SSW 25.0 mph40.2 kmh 30.00 in1015.9 mb 0.00 in0.0 mm 0.00 in/hr0.0 mm/hr 0.00 in0.0 mm
04:55 AM 43.0°F6.1°C 28.8°F-1.8°C 57% 16.0 mph SSW25.7 kmh SSW 25.0 mph40.2 kmh 30.00 in1015.9 mb 0.00 in0.0 mm 0.00 in/hr0.0 mm/hr 0.00 in0.0 mm
04:57 AM 43.1°F6.2°C 28.9°F-1.7°C 57% 15.0 mph SW24.1 kmh SW 25.0 mph40.2 kmh 30.00 in1015.9 mb 0.00 in0.0 mm 0.00 in/hr0.0 mm/hr 0.00 in0.0 mm
04:58 AM 43.1°F6.2°C 28.5°F-1.9°C 56% 21.0 mph SW33.8 kmh SW 25.0 mph40.2 kmh 30.00 in1015.9 mb 0.00 in0.0 mm 0.00 in/hr0.0 mm/hr 0.00 in0.0 mm
04:59 AM 43.2°F6.2°C 28.6°F-1.9°C 56% 22.0 mph SW35.4 kmh SW 25.0 mph40.2 kmh 30.00 in1015.9 mb 0.00 in0.0 mm 0.00 in/hr0.0 mm/hr 0.00 in0.0 mm
05:00 AM 43.3°F6.3°C 28.7°F-1.8°C 56% 17.0 mph SW27.4 kmh SW 17.0 mph27.4 kmh 30.00 in1015.9 mb 0.00 in0.0 mm 0.00 in/hr0.0 mm/hr 0.00 in0.0 mm
05:01 AM 43.3°F6.3°C 28.7°F-1.8°C 56% 17.0 mph SSW27.4 kmh SSW 20.0 mph32.2 kmh 30.00 in1015.9 mb 0.00 in0.0 mm 0.00 in/hr0.0 mm/hr 0.00 in0.0 mm
05:03 AM 43.3°F6.3°C 28.7°F-1.8°C 56% 14.0 mph SW22.5 kmh SW 21.0 mph33.8 kmh 30.00 in1015.9 mb 0.00 in0.0 mm 0.00 in/hr0.0 mm/hr 0.00 in0.0 mm
05:05 AM 43.3°F6.3°C 28.7°F-1.8°C 56% 23.0 mph SW37.0 kmh SW 23.0 mph37.0 kmh 30.00 in1015.9 mb 0.00 in0.0 mm 0.00 in/hr0.0 mm/hr 0.00 in0.0 mm
05:06 AM 43.2°F6.2°C 28.6°F-1.9°C 56% 18.0 mph SW29.0 kmh SW 24.0 mph38.6 kmh 30.00 in1015.9 mb 0.00 in0.0 mm 0.00 in/hr0.0 mm/hr 0.00 in0.0 mm
05:08 AM 43.3°F6.3°C 28.2°F-2.1°C 55% 14.0 mph SW22.5 kmh SW 24.0 mph38.6 kmh 30.00 in1015.9 mb 0.00 in0.0 mm 0.00 in/hr0.0 mm/hr 0.00 in0.0 mm
05:10 AM 43.4°F6.3°C 28.8°F-1.8°C 56% 17.0 mph SSW27.4 kmh SSW 26.0 mph41.8 kmh 30.00 in1015.9 mb 0.00 in0.0 mm 0.00 in/hr0.0 mm/hr 0.00 in0.0 mm
05:11 AM 43.4°F6.3°C 28.8°F-1.8°C 56% 20.0 mph SW32.2 kmh SW 26.0 mph41.8 kmh 30.00 in1015.9 mb 0.00 in0.0 mm 0.00 in/hr0.0 mm/hr 0.00 in0.0 mm
05:13 AM 43.4°F6.3°C 28.3°F-2.1°C 55% 13.0 mph SW20.9 kmh SW 26.0 mph41.8 kmh 30.00 in1015.9 mb 0.00 in0.0 mm 0.00 in/hr0.0 mm/hr 0.00 in0.0 mm
05:14 AM 43.4°F6.3°C 28.8°F-1.8°C 56% 21.0 mph SW33.8 kmh SW 26.0 mph41.8 kmh 30.00 in1015.9 mb 0.00 in0.0 mm 0.00 in/hr0.0 mm/hr 0.00 in0.0 mm
05:15 AM 43.3°F6.3°C 28.7°F-1.8°C 56% 17.0 mph SW27.4 kmh SW 26.0 mph41.8 kmh 30.00 in1015.9 mb 0.00 in0.0 mm 0.00 in/hr0.0 mm/hr 0.00 in0.0 mm
05:17 AM 43.3°F6.3°C 28.7°F-1.8°C 56% 24.0 mph SW38.6 kmh SW 26.0 mph41.8 kmh 30.00 in1015.9 mb 0.00 in0.0 mm 0.00 in/hr0.0 mm/hr 0.00 in0.0 mm
05:18 AM 43.3°F6.3°C 28.7°F-1.8°C 56% 22.0 mph SSW35.4 kmh SSW 27.0 mph43.5 kmh 29.99 in1015.6 mb 0.00 in0.0 mm 0.00 in/hr0.0 mm/hr 0.00 in0.0 mm
05:20 AM 43.3°F6.3°C 28.7°F-1.8°C 56% 19.0 mph SW30.6 kmh SW 27.0 mph43.5 kmh 29.99 in1015.6 mb 0.00 in0.0 mm 0.00 in/hr0.0 mm/hr 0.00 in0.0 mm
05:22 AM 43.2°F6.2°C 28.6°F-1.9°C 56% 20.0 mph SW32.2 kmh SW 27.0 mph43.5 kmh 29.99 in1015.6 mb 0.00 in0.0 mm 0.00 in/hr0.0 mm/hr 0.00 in0.0 mm
05:24 AM 43.2°F6.2°C 28.6°F-1.9°C 56% 15.0 mph SSW24.1 kmh SSW 27.0 mph43.5 kmh 29.99 in1015.6 mb 0.00 in0.0 mm 0.00 in/hr0.0 mm/hr 0.00 in0.0 mm
05:25 AM 43.2°F6.2°C 28.6°F-1.9°C 56% 20.0 mph SW32.2 kmh SW 27.0 mph43.5 kmh 29.99 in1015.6 mb 0.00 in0.0 mm 0.00 in/hr0.0 mm/hr 0.00 in0.0 mm
05:27 AM 43.2°F6.2°C 28.6°F-1.9°C 56% 17.0 mph SW27.4 kmh SW 27.0 mph43.5 kmh 29.99 in1015.6 mb 0.00 in0.0 mm 0.00 in/hr0.0 mm/hr 0.00 in0.0 mm
05:28 AM 43.2°F6.2°C 28.6°F-1.9°C 56% 21.0 mph S33.8 kmh S 27.0 mph43.5 kmh 29.99 in1015.6 mb 0.00 in0.0 mm 0.00 in/hr0.0 mm/hr 0.00 in0.0 mm
05:29 AM 43.2°F6.2°C 28.6°F-1.9°C 56% 16.0 mph SW25.7 kmh SW 27.0 mph43.5 kmh 29.99 in1015.6 mb 0.00 in0.0 mm 0.00 in/hr0.0 mm/hr 0.00 in0.0 mm
05:30 AM 43.2°F6.2°C 28.6°F-1.9°C 56% 18.0 mph SW29.0 kmh SW 27.0 mph43.5 kmh 29.99 in1015.6 mb 0.00 in0.0 mm 0.00 in/hr0.0 mm/hr 0.00 in0.0 mm
05:32 AM 43.2°F6.2°C 28.6°F-1.9°C 56% 18.0 mph SSW29.0 kmh SSW 24.0 mph38.6 kmh 29.99 in1015.6 mb 0.00 in0.0 mm 0.00 in/hr0.0 mm/hr 0.00 in0.0 mm
05:33 AM 43.2°F6.2°C 29.0°F-1.7°C 57% 17.0 mph SW27.4 kmh SW 24.0 mph38.6 kmh 29.99 in1015.6 mb 0.00 in0.0 mm 0.00 in/hr0.0 mm/hr 0.00 in0.0 mm
05:35 AM 43.1°F6.2°C 28.9°F-1.7°C 57% 22.0 mph SW35.4 kmh SW 24.0 mph38.6 kmh 29.99 in1015.6 mb 0.00 in0.0 mm 0.00 in/hr0.0 mm/hr 0.00 in0.0 mm
05:37 AM 43.1°F6.2°C 28.5°F-1.9°C 56% 17.0 mph SW27.4 kmh SW 24.0 mph38.6 kmh 29.99 in1015.6 mb 0.00 in0.0 mm 0.00 in/hr0.0 mm/hr 0.00 in0.0 mm
05:38 AM 43.0°F6.1°C 28.4°F-2.0°C 56% 18.0 mph SSW29.0 kmh SSW 24.0 mph38.6 kmh 29.99 in1015.6 mb 0.00 in0.0 mm 0.00 in/hr0.0 mm/hr 0.00 in0.0 mm
05:40 AM 43.0°F6.1°C 28.4°F-2.0°C 56% 16.0 mph SW25.7 kmh SW 24.0 mph38.6 kmh 29.99 in1015.6 mb 0.00 in0.0 mm 0.00 in/hr0.0 mm/hr 0.00 in0.0 mm
05:42 AM 43.0°F6.1°C 28.4°F-2.0°C 56% 14.0 mph SW22.5 kmh SW 24.0 mph38.6 kmh 29.99 in1015.6 mb 0.00 in0.0 mm 0.00 in/hr0.0 mm/hr 0.00 in0.0 mm
05:43 AM 43.0°F6.1°C 28.8°F-1.8°C 57% 15.0 mph SSW24.1 kmh SSW 24.0 mph38.6 kmh 29.99 in1015.6 mb 0.00 in0.0 mm 0.00 in/hr0.0 mm/hr 0.00 in0.0 mm
05:44 AM 43.0°F6.1°C 28.4°F-2.0°C 56% 16.0 mph SW25.7 kmh SW 24.0 mph38.6 kmh 29.99 in1015.6 mb 0.00 in0.0 mm 0.00 in/hr0.0 mm/hr 0.00 in0.0 mm
05:45 AM 43.0°F6.1°C 28.8°F-1.8°C 57% 13.0 mph SW20.9 kmh SW 24.0 mph38.6 kmh 29.99 in1015.6 mb 0.00 in0.0 mm 0.00 in/hr0.0 mm/hr 0.00 in0.0 mm
05:47 AM 42.9°F6.1°C 28.7°F-1.8°C 57% 22.0 mph SW35.4 kmh SW 24.0 mph38.6 kmh 29.99 in1015.6 mb 0.00 in0.0 mm 0.00 in/hr0.0 mm/hr 0.00 in0.0 mm
05:48 AM 42.9°F6.1°C 28.3°F-2.1°C 56% 15.0 mph SW24.1 kmh SW 24.0 mph38.6 kmh 29.99 in1015.6 mb 0.00 in0.0 mm 0.00 in/hr0.0 mm/hr 0.00 in0.0 mm
05:50 AM 42.9°F6.1°C 28.3°F-2.1°C 56% 19.0 mph SW30.6 kmh SW 24.0 mph38.6 kmh 29.99 in1015.6 mb 0.00 in0.0 mm 0.00 in/hr0.0 mm/hr 0.00 in0.0 mm
05:52 AM 42.9°F6.1°C 28.3°F-2.1°C 56% 18.0 mph S29.0 kmh S 25.0 mph40.2 kmh 29.99 in1015.6 mb 0.00 in0.0 mm 0.00 in/hr0.0 mm/hr 0.00 in0.0 mm
05:53 AM 42.9°F6.1°C 28.7°F-1.8°C 57% 15.0 mph SW24.1 kmh SW 25.0 mph40.2 kmh 29.99 in1015.6 mb 0.00 in0.0 mm 0.00 in/hr0.0 mm/hr 0.00 in0.0 mm
05:55 AM 42.9°F6.1°C 28.7°F-1.8°C 57% 13.0 mph SW20.9 kmh SW 25.0 mph40.2 kmh 29.99 in1015.6 mb 0.00 in0.0 mm 0.00 in/hr0.0 mm/hr 0.00 in0.0 mm
05:56 AM 42.9°F6.1°C 28.3°F-2.1°C 56% 17.0 mph SW27.4 kmh SW 25.0 mph40.2 kmh 29.99 in1015.6 mb 0.00 in0.0 mm 0.00 in/hr0.0 mm/hr 0.00 in0.0 mm
05:58 AM 42.8°F6.0°C 28.6°F-1.9°C 57% 17.0 mph SSW27.4 kmh SSW 25.0 mph40.2 kmh 29.99 in1015.6 mb 0.00 in0.0 mm 0.00 in/hr0.0 mm/hr 0.00 in0.0 mm
05:59 AM 42.8°F6.0°C 28.6°F-1.9°C 57% 20.0 mph SW32.2 kmh SW 25.0 mph40.2 kmh 29.99 in1015.6 mb 0.00 in0.0 mm 0.00 in/hr0.0 mm/hr 0.00 in0.0 mm
06:00 AM 42.8°F6.0°C 28.6°F-1.9°C 57% 15.0 mph SW24.1 kmh SW 18.0 mph29.0 kmh 29.99 in1015.6 mb 0.00 in0.0 mm 0.00 in/hr0.0 mm/hr 0.00 in0.0 mm
06:01 AM 42.8°F6.0°C 28.6°F-1.9°C 57% 17.0 mph SSW27.4 kmh SSW 19.0 mph30.6 kmh 29.99 in1015.6 mb 0.00 in0.0 mm 0.00 in/hr0.0 mm/hr 0.00 in0.0 mm
06:02 AM 42.7°F5.9°C 28.5°F-1.9°C 57% 14.0 mph SSW22.5 kmh SSW 20.0 mph32.2 kmh 29.99 in1015.6 mb 0.00 in0.0 mm 0.00 in/hr0.0 mm/hr 0.00 in0.0 mm
06:04 AM 42.6°F5.9°C 28.9°F-1.7°C 58% 19.0 mph SW30.6 kmh SW 20.0 mph32.2 kmh 29.99 in1015.6 mb 0.00 in0.0 mm 0.00 in/hr0.0 mm/hr 0.00 in0.0 mm
06:06 AM 42.5°F5.8°C 28.4°F-2.0°C 57% 14.0 mph SW22.5 kmh SW 22.0 mph35.4 kmh 29.99 in1015.6 mb 0.00 in0.0 mm 0.00 in/hr0.0 mm/hr 0.00 in0.0 mm
06:07 AM 42.5°F5.8°C 28.4°F-2.0°C 57% 15.0 mph SSW24.1 kmh SSW 24.0 mph38.6 kmh 29.99 in1015.6 mb 0.00 in0.0 mm 0.00 in/hr0.0 mm/hr 0.00 in0.0 mm
06:09 AM 42.5°F5.8°C 28.8°F-1.8°C 58% 18.0 mph SW29.0 kmh SW 24.0 mph38.6 kmh 29.99 in1015.6 mb 0.00 in0.0 mm 0.00 in/hr0.0 mm/hr 0.00 in0.0 mm
06:10 AM 42.5°F5.8°C 28.4°F-2.0°C 57% 18.0 mph SW29.0 kmh SW 25.0 mph40.2 kmh 29.99 in1015.6 mb 0.00 in0.0 mm 0.00 in/hr0.0 mm/hr 0.00 in0.0 mm
06:12 AM 42.6°F5.9°C 28.9°F-1.7°C 58% 17.0 mph SW27.4 kmh SW 25.0 mph40.2 kmh 29.99 in1015.6 mb 0.00 in0.0 mm 0.00 in/hr0.0 mm/hr 0.00 in0.0 mm
06:13 AM 42.6°F5.9°C 28.5°F-1.9°C 57% 15.0 mph SW24.1 kmh SW 25.0 mph40.2 kmh 29.99 in1015.6 mb 0.00 in0.0 mm 0.00 in/hr0.0 mm/hr 0.00 in0.0 mm
06:14 AM 42.6°F5.9°C 28.9°F-1.7°C 58% 15.0 mph SW24.1 kmh SW 25.0 mph40.2 kmh 29.99 in1015.6 mb 0.00 in0.0 mm 0.00 in/hr0.0 mm/hr 0.00 in0.0 mm
06:15 AM 42.6°F5.9°C 28.9°F-1.7°C 58% 12.0 mph SW19.3 kmh SW 25.0 mph40.2 kmh 29.99 in1015.6 mb 0.00 in0.0 mm 0.00 in/hr0.0 mm/hr 0.00 in0.0 mm
06:16 AM 42.6°F5.9°C 28.9°F-1.7°C 58% 16.0 mph SSW25.7 kmh SSW 25.0 mph40.2 kmh 29.99 in1015.6 mb 0.00 in0.0 mm 0.00 in/hr0.0 mm/hr 0.00 in0.0 mm
06:18 AM 42.5°F5.8°C 28.8°F-1.8°C 58% 15.0 mph SW24.1 kmh SW 25.0 mph40.2 kmh 29.99 in1015.6 mb 0.00 in0.0 mm 0.00 in/hr0.0 mm/hr 0.00 in0.0 mm
06:20 AM 42.4°F5.8°C 28.7°F-1.8°C 58% 16.0 mph SSW25.7 kmh SSW 25.0 mph40.2 kmh 29.99 in1015.6 mb 0.00 in0.0 mm 0.00 in/hr0.0 mm/hr 0.00 in0.0 mm
06:21 AM 42.4°F5.8°C 28.7°F-1.8°C 58% 15.0 mph SSW24.1 kmh SSW 25.0 mph40.2 kmh 29.99 in1015.6 mb 0.00 in0.0 mm 0.00 in/hr0.0 mm/hr 0.00 in0.0 mm
06:23 AM 42.3°F5.7°C 28.6°F-1.9°C 58% 11.0 mph SSW17.7 kmh SSW 25.0 mph40.2 kmh 29.99 in1015.6 mb 0.00 in0.0 mm 0.00 in/hr0.0 mm/hr 0.00 in0.0 mm
06:25 AM 42.2°F5.7°C 28.5°F-1.9°C 58% 17.0 mph SW27.4 kmh SW 25.0 mph40.2 kmh 29.99 in1015.6 mb 0.00 in0.0 mm 0.00 in/hr0.0 mm/hr 0.00 in0.0 mm
06:26 AM 42.2°F5.7°C 28.9°F-1.7°C 59% 15.0 mph SSW24.1 kmh SSW 25.0 mph40.2 kmh 29.99 in1015.6 mb 0.00 in0.0 mm 0.00 in/hr0.0 mm/hr 0.00 in0.0 mm
06:28 AM 42.1°F5.6°C 28.8°F-1.8°C 59% 13.0 mph SSW20.9 kmh SSW 25.0 mph40.2 kmh 29.99 in1015.6 mb 0.00 in0.0 mm 0.00 in/hr0.0 mm/hr 0.00 in0.0 mm
06:29 AM 42.1°F5.6°C 28.8°F-1.8°C 59% 14.0 mph SW22.5 kmh SW 25.0 mph40.2 kmh 29.99 in1015.6 mb 0.00 in0.0 mm 0.00 in/hr0.0 mm/hr 0.00 in0.0 mm
06:30 AM 42.0°F5.6°C 28.7°F-1.8°C 59% 21.0 mph SW33.8 kmh SW 21.0 mph33.8 kmh 29.99 in1015.6 mb 0.00 in0.0 mm 0.00 in/hr0.0 mm/hr 0.00 in0.0 mm
06:31 AM 42.0°F5.6°C 28.7°F-1.8°C 59% 15.0 mph SW24.1 kmh SW 21.0 mph33.8 kmh 29.99 in1015.6 mb 0.00 in0.0 mm 0.00 in/hr0.0 mm/hr 0.00 in0.0 mm
06:32 AM 41.9°F5.5°C 28.6°F-1.9°C 59% 20.0 mph SW32.2 kmh SW 21.0 mph33.8 kmh 29.99 in1015.6 mb 0.00 in0.0 mm 0.00 in/hr0.0 mm/hr 0.00 in0.0 mm
06:34 AM 41.9°F5.5°C 28.6°F-1.9°C 59% 16.0 mph SSW25.7 kmh SSW 22.0 mph35.4 kmh 29.99 in1015.6 mb 0.00 in0.0 mm 0.00 in/hr0.0 mm/hr 0.00 in0.0 mm
06:35 AM 41.9°F5.5°C 28.6°F-1.9°C 59% 19.0 mph SW30.6 kmh SW 22.0 mph35.4 kmh 29.99 in1015.6 mb 0.00 in0.0 mm 0.00 in/hr0.0 mm/hr 0.00 in0.0 mm
06:37 AM 41.9°F5.5°C 28.6°F-1.9°C 59% 17.0 mph SSW27.4 kmh SSW 22.0 mph35.4 kmh 29.99 in1015.6 mb 0.00 in0.0 mm 0.00 in/hr0.0 mm/hr 0.00 in0.0 mm
06:38 AM 41.9°F5.5°C 28.6°F-1.9°C 59% 16.0 mph SW25.7 kmh SW 22.0 mph35.4 kmh 29.99 in1015.6 mb 0.00 in0.0 mm 0.00 in/hr0.0 mm/hr 0.00 in0.0 mm
06:40 AM 41.9°F5.5°C 28.6°F-1.9°C 59% 20.0 mph SSW32.2 kmh SSW 22.0 mph35.4 kmh 29.99 in1015.6 mb 0.00 in0.0 mm 0.00 in/hr0.0 mm/hr 0.00 in0.0 mm
06:41 AM 41.9°F5.5°C 28.6°F-1.9°C 59% 18.0 mph S29.0 kmh S 22.0 mph35.4 kmh 29.99 in1015.6 mb 0.00 in0.0 mm 0.00 in/hr0.0 mm/hr 0.00 in0.0 mm
06:43 AM 41.9°F5.5°C 28.6°F-1.9°C 59% 14.0 mph SSW22.5 kmh SSW 22.0 mph35.4 kmh 29.99 in1015.6 mb 0.00 in0.0 mm 0.00 in/hr0.0 mm/hr 0.00 in0.0 mm
06:44 AM 41.8°F5.4°C 28.5°F-1.9°C 59% 19.0 mph SW30.6 kmh SW 22.0 mph35.4 kmh 29.99 in1015.6 mb 0.00 in0.0 mm 0.00 in/hr0.0 mm/hr 0.00 in0.0 mm
06:45 AM 41.9°F5.5°C 28.6°F-1.9°C 59% 15.0 mph SSW24.1 kmh SSW 22.0 mph35.4 kmh 29.99 in1015.6 mb 0.00 in0.0 mm 0.00 in/hr0.0 mm/hr 0.00 in0.0 mm
06:46 AM 41.8°F5.4°C 28.5°F-1.9°C 59% 15.0 mph SW24.1 kmh SW 22.0 mph35.4 kmh 29.99 in1015.6 mb 0.00 in0.0 mm 0.00 in/hr0.0 mm/hr 0.00 in0.0 mm
06:48 AM 41.8°F5.4°C 28.5°F-1.9°C 59% 16.0 mph SW25.7 kmh SW 22.0 mph35.4 kmh 29.98 in1015.2 mb 0.00 in0.0 mm 0.00 in/hr0.0 mm/hr 0.00 in0.0 mm
06:49 AM 41.8°F5.4°C 29.0°F-1.7°C 60% 17.0 mph SSW27.4 kmh SSW 22.0 mph35.4 kmh 29.99 in1015.6 mb 0.00 in0.0 mm 0.00 in/hr0.0 mm/hr 0.00 in0.0 mm
06:50 AM 41.7°F5.4°C 28.4°F-2.0°C 59% 17.0 mph SW27.4 kmh SW 22.0 mph35.4 kmh 29.99 in1015.6 mb 0.00 in0.0 mm 0.00 in/hr0.0 mm/hr 0.00 in0.0 mm
06:52 AM 41.8°F5.4°C 28.5°F-1.9°C 59% 15.0 mph SW24.1 kmh SW 29.0 mph46.7 kmh 29.99 in1015.6 mb 0.00 in0.0 mm 0.00 in/hr0.0 mm/hr 0.00 in0.0 mm
06:53 AM 41.8°F5.4°C 28.5°F-1.9°C 59% 16.0 mph SW25.7 kmh SW 29.0 mph46.7 kmh 29.99 in1015.6 mb 0.00 in0.0 mm 0.00 in/hr0.0 mm/hr 0.00 in0.0 mm
06:55 AM 41.9°F5.5°C 28.6°F-1.9°C 59% 14.0 mph SW22.5 kmh SW 29.0 mph46.7 kmh 29.99 in1015.6 mb 0.00 in0.0 mm 0.00 in/hr0.0 mm/hr 0.00 in0.0 mm
06:56 AM 41.9°F5.5°C 28.6°F-1.9°C 59% 15.0 mph SSW24.1 kmh SSW 29.0 mph46.7 kmh 29.98 in1015.2 mb 0.00 in0.0 mm 0.00 in/hr0.0 mm/hr 0.00 in0.0 mm
06:58 AM 41.9°F5.5°C 28.6°F-1.9°C 59% 18.0 mph SW29.0 kmh SW 29.0 mph46.7 kmh 29.99 in1015.6 mb 0.00 in0.0 mm 0.00 in/hr0.0 mm/hr 0.00 in0.0 mm
07:00 AM 42.0°F5.6°C 28.7°F-1.8°C 59% 13.0 mph SW20.9 kmh SW 14.0 mph22.5 kmh 29.99 in1015.6 mb 0.00 in0.0 mm 0.00 in/hr0.0 mm/hr 0.00 in0.0 mm
07:02 AM 42.0°F5.6°C 28.7°F-1.8°C 59% 16.0 mph SW25.7 kmh SW 21.0 mph33.8 kmh 29.99 in1015.6 mb 0.00 in0.0 mm 0.00 in/hr0.0 mm/hr 0.00 in0.0 mm
07:04 AM 42.0°F5.6°C 28.7°F-1.8°C 59% 14.0 mph SW22.5 kmh SW 27.0 mph43.5 kmh 29.99 in1015.6 mb 0.00 in0.0 mm 0.00 in/hr0.0 mm/hr 0.00 in0.0 mm
07:05 AM 42.0°F5.6°C 28.3°F-2.1°C 58% 15.0 mph SSW24.1 kmh SSW 27.0 mph43.5 kmh 29.99 in1015.6 mb 0.00 in0.0 mm 0.00 in/hr0.0 mm/hr 0.00 in0.0 mm
07:07 AM 42.2°F5.7°C 28.5°F-1.9°C 58% 18.0 mph SW29.0 kmh SW 27.0 mph43.5 kmh 29.99 in1015.6 mb 0.00 in0.0 mm 0.00 in/hr0.0 mm/hr 0.00 in0.0 mm
07:08 AM 42.3°F5.7°C 28.6°F-1.9°C 58% 18.0 mph SSW29.0 kmh SSW 27.0 mph43.5 kmh 29.99 in1015.6 mb 0.00 in0.0 mm 0.00 in/hr0.0 mm/hr 0.00 in0.0 mm
07:10 AM 42.3°F5.7°C 28.6°F-1.9°C 58% 18.0 mph SW29.0 kmh SW 27.0 mph43.5 kmh 29.99 in1015.6 mb 0.00 in0.0 mm 0.00 in/hr0.0 mm/hr 0.00 in0.0 mm
07:12 AM 42.3°F5.7°C 28.6°F-1.9°C 58% 16.0 mph SW25.7 kmh SW 27.0 mph43.5 kmh 29.99 in1015.6 mb 0.00 in0.0 mm 0.00 in/hr0.0 mm/hr 0.00 in0.0 mm
07:13 AM 42.4°F5.8°C 28.7°F-1.8°C 58% 20.0 mph SW32.2 kmh SW 27.0 mph43.5 kmh 29.99 in1015.6 mb 0.00 in0.0 mm 0.00 in/hr0.0 mm/hr 0.00 in0.0 mm
07:14 AM 42.4°F5.8°C 28.7°F-1.8°C 58% 21.0 mph WSW33.8 kmh WSW 27.0 mph43.5 kmh 29.99 in1015.6 mb 0.00 in0.0 mm 0.00 in/hr0.0 mm/hr 0.00 in0.0 mm
07:15 AM 42.4°F5.8°C 28.7°F-1.8°C 58% 14.0 mph SW22.5 kmh SW 27.0 mph43.5 kmh 29.99 in1015.6 mb 0.00 in0.0 mm 0.00 in/hr0.0 mm/hr 0.00 in0.0 mm
07:17 AM 42.5°F5.8°C 28.8°F-1.8°C 58% 17.0 mph SW27.4 kmh SW 27.0 mph43.5 kmh 29.99 in1015.6 mb 0.00 in0.0 mm 0.00 in/hr0.0 mm/hr 0.00 in0.0 mm
07:19 AM 42.6°F5.9°C 28.5°F-1.9°C 57% 12.0 mph SW19.3 kmh SW 29.0 mph46.7 kmh 29.99 in1015.6 mb 0.00 in0.0 mm 0.00 in/hr0.0 mm/hr 0.00 in0.0 mm
07:20 AM 42.6°F5.9°C 28.9°F-1.7°C 58% 18.0 mph SW29.0 kmh SW 29.0 mph46.7 kmh 29.99 in1015.6 mb 0.00 in0.0 mm 0.00 in/hr0.0 mm/hr 0.00 in0.0 mm
07:21 AM 42.6°F5.9°C 28.5°F-1.9°C 57% 21.0 mph SW33.8 kmh SW 29.0 mph46.7 kmh 29.98 in1015.2 mb 0.00 in0.0 mm 0.00 in/hr0.0 mm/hr 0.00 in0.0 mm
07:23 AM 42.6°F5.9°C 28.9°F-1.7°C 58% 18.0 mph SW29.0 kmh SW 29.0 mph46.7 kmh 29.98 in1015.2 mb 0.00 in0.0 mm 0.00 in/hr0.0 mm/hr 0.00 in0.0 mm
07:25 AM 42.7°F5.9°C 28.5°F-1.9°C 57% 17.0 mph SSW27.4 kmh SSW 29.0 mph46.7 kmh 29.98 in1015.2 mb 0.00 in0.0 mm 0.00 in/hr0.0 mm/hr 0.00 in0.0 mm
07:27 AM 42.8°F6.0°C 28.6°F-1.9°C 57% 18.0 mph SW29.0 kmh SW 29.0 mph46.7 kmh 29.98 in1015.2 mb 0.00 in0.0 mm 0.00 in/hr0.0 mm/hr 0.00 in0.0 mm
07:28 AM 42.8°F6.0°C 28.6°F-1.9°C 57% 14.0 mph SW22.5 kmh SW 29.0 mph46.7 kmh 29.98 in1015.2 mb 0.00 in0.0 mm 0.00 in/hr0.0 mm/hr 0.00 in0.0 mm
07:30 AM 42.9°F6.1°C 28.7°F-1.8°C 57% 16.0 mph SW25.7 kmh SW 19.0 mph30.6 kmh 29.98 in1015.2 mb 0.00 in0.0 mm 0.00 in/hr0.0 mm/hr 0.00 in0.0 mm
07:31 AM 42.9°F6.1°C 28.7°F-1.8°C 57% 16.0 mph SSW25.7 kmh SSW 23.0 mph37.0 kmh 29.98 in1015.2 mb 0.00 in0.0 mm 0.00 in/hr0.0 mm/hr 0.00 in0.0 mm
07:32 AM 42.9°F6.1°C 28.7°F-1.8°C 57% 17.0 mph SSW27.4 kmh SSW 23.0 mph37.0 kmh 29.98 in1015.2 mb 0.00 in0.0 mm 0.00 in/hr0.0 mm/hr 0.00 in0.0 mm
07:33 AM 43.0°F6.1°C 28.8°F-1.8°C 57% 17.0 mph SW27.4 kmh SW 23.0 mph37.0 kmh 29.98 in1015.2 mb 0.00 in0.0 mm 0.00 in/hr0.0 mm/hr 0.00 in0.0 mm
07:35 AM 43.1°F6.2°C 28.9°F-1.7°C 57% 19.0 mph SW30.6 kmh SW 23.0 mph37.0 kmh 29.98 in1015.2 mb 0.00 in0.0 mm 0.00 in/hr0.0 mm/hr 0.00 in0.0 mm
07:36 AM 43.1°F6.2°C 28.9°F-1.7°C 57% 16.0 mph SW25.7 kmh SW 23.0 mph37.0 kmh 29.98 in1015.2 mb 0.00 in0.0 mm 0.00 in/hr0.0 mm/hr 0.00 in0.0 mm
07:38 AM 43.1°F6.2°C 28.5°F-1.9°C 56% 13.0 mph SW20.9 kmh SW 23.0 mph37.0 kmh 29.99 in1015.6 mb 0.00 in0.0 mm 0.00 in/hr0.0 mm/hr 0.00 in0.0 mm
07:39 AM 43.2°F6.2°C 28.6°F-1.9°C 56% 17.0 mph SW27.4 kmh SW 23.0 mph37.0 kmh 29.99 in1015.6 mb 0.00 in0.0 mm 0.00 in/hr0.0 mm/hr 0.00 in0.0 mm
07:40 AM 43.2°F6.2°C 29.0°F-1.7°C 57% 15.0 mph SW24.1 kmh SW 23.0 mph37.0 kmh 29.99 in1015.6 mb 0.00 in0.0 mm 0.00 in/hr0.0 mm/hr 0.00 in0.0 mm
07:41 AM 43.2°F6.2°C 29.0°F-1.7°C 57% 15.0 mph SW24.1 kmh SW 27.0 mph43.5 kmh 29.99 in1015.6 mb 0.00 in0.0 mm 0.00 in/hr0.0 mm/hr 0.00 in0.0 mm
07:42 AM 43.2°F6.2°C 28.6°F-1.9°C 56% 16.0 mph SW25.7 kmh SW 27.0 mph43.5 kmh 29.99 in1015.6 mb 0.00 in0.0 mm 0.00 in/hr0.0 mm/hr 0.00 in0.0 mm
07:44 AM 43.3°F6.3°C 29.1°F-1.6°C 57% 16.0 mph SSW25.7 kmh SSW 27.0 mph43.5 kmh 29.99 in1015.6 mb 0.00 in0.0 mm 0.00 in/hr0.0 mm/hr 0.00 in0.0 mm
07:46 AM 43.4°F6.3°C 28.8°F-1.8°C 56% 16.0 mph SW25.7 kmh SW 27.0 mph43.5 kmh 29.99 in1015.6 mb 0.00 in0.0 mm 0.00 in/hr0.0 mm/hr 0.00 in0.0 mm
07:47 AM 43.5°F6.4°C 28.9°F-1.7°C 56% 14.0 mph SSW22.5 kmh SSW 27.0 mph43.5 kmh 29.99 in1015.6 mb 0.00 in0.0 mm 0.00 in/hr0.0 mm/hr 0.00 in0.0 mm
07:49 AM 43.6°F6.4°C 29.0°F-1.7°C 56% 14.0 mph SW22.5 kmh SW 27.0 mph43.5 kmh 29.99 in1015.6 mb 0.00 in0.0 mm 0.00 in/hr0.0 mm/hr 0.00 in0.0 mm
07:50 AM 43.6°F6.4°C 29.0°F-1.7°C 56% 11.0 mph SW17.7 kmh SW 27.0 mph43.5 kmh 30.00 in1015.9 mb 0.00 in0.0 mm 0.00 in/hr0.0 mm/hr 0.00 in0.0 mm
07:52 AM 43.7°F6.5°C 29.1°F-1.6°C 56% 17.0 mph SW27.4 kmh SW 27.0 mph43.5 kmh 29.99 in1015.6 mb 0.00 in0.0 mm 0.00 in/hr0.0 mm/hr 0.00 in0.0 mm
07:53 AM 43.8°F6.6°C 28.7°F-1.8°C 55% 14.0 mph SW22.5 kmh SW 27.0 mph43.5 kmh 29.99 in1015.6 mb 0.00 in0.0 mm 0.00 in/hr0.0 mm/hr 0.00 in0.0 mm
07:55 AM 43.9°F6.6°C 29.2°F-1.6°C 56% 15.0 mph SW24.1 kmh SW 27.0 mph43.5 kmh 30.00 in1015.9 mb 0.00 in0.0 mm 0.00 in/hr0.0 mm/hr 0.00 in0.0 mm
07:56 AM 43.9°F6.6°C 29.2°F-1.6°C 56% 18.0 mph SW29.0 kmh SW 27.0 mph43.5 kmh 30.00 in1015.9 mb 0.00 in0.0 mm 0.00 in/hr0.0 mm/hr 0.00 in0.0 mm
07:58 AM 44.1°F6.7°C 29.0°F-1.7°C 55% 15.0 mph SW24.1 kmh SW 27.0 mph43.5 kmh 30.00 in1015.9 mb 0.00 in0.0 mm 0.00 in/hr0.0 mm/hr 0.00 in0.0 mm
08:00 AM 44.5°F6.9°C 28.5°F-1.9°C 53% 15.0 mph SW24.1 kmh SW 15.0 mph24.1 kmh 30.00 in1015.9 mb 0.00 in0.0 mm 0.00 in/hr0.0 mm/hr 0.00 in0.0 mm
08:01 AM 44.5°F6.9°C 28.9°F-1.7°C 54% 12.0 mph SW19.3 kmh SW 15.0 mph24.1 kmh 30.00 in1015.9 mb 0.00 in0.0 mm 0.00 in/hr0.0 mm/hr 0.00 in0.0 mm
08:03 AM 44.6°F7.0°C 29.0°F-1.7°C 54% 13.0 mph SW20.9 kmh SW 19.0 mph30.6 kmh 30.00 in1015.9 mb 0.00 in0.0 mm 0.00 in/hr0.0 mm/hr 0.00 in0.0 mm
08:04 AM 44.6°F7.0°C 29.0°F-1.7°C 54% 11.0 mph SW17.7 kmh SW 19.0 mph30.6 kmh 30.00 in1015.9 mb 0.00 in0.0 mm 0.00 in/hr0.0 mm/hr 0.00 in0.0 mm
08:05 AM 44.6°F7.0°C 29.5°F-1.4°C 55% 14.0 mph SW22.5 kmh SW 19.0 mph30.6 kmh 30.00 in1015.9 mb 0.00 in0.0 mm 0.00 in/hr0.0 mm/hr 0.00 in0.0 mm
08:06 AM 44.6°F7.0°C 29.5°F-1.4°C 55% 9.0 mph SW14.5 kmh SW 19.0 mph30.6 kmh 30.00 in1015.9 mb 0.00 in0.0 mm 0.00 in/hr0.0 mm/hr 0.00 in0.0 mm
08:08 AM 44.7°F7.1°C 29.1°F-1.6°C 54% 11.0 mph SW17.7 kmh SW 19.0 mph30.6 kmh 30.00 in1015.9 mb 0.00 in0.0 mm 0.00 in/hr0.0 mm/hr 0.00 in0.0 mm
08:10 AM 44.9°F7.2°C 29.7°F-1.3°C 55% 10.0 mph SW16.1 kmh SW 19.0 mph30.6 kmh 30.00 in1015.9 mb 0.00 in0.0 mm 0.00 in/hr0.0 mm/hr 0.00 in0.0 mm
08:11 AM 44.9°F7.2°C 29.3°F-1.5°C 54% 15.0 mph SW24.1 kmh SW 19.0 mph30.6 kmh 30.00 in1015.9 mb 0.00 in0.0 mm 0.00 in/hr0.0 mm/hr 0.00 in0.0 mm
08:13 AM 45.1°F7.3°C 29.0°F-1.7°C 53% 15.0 mph SW24.1 kmh SW 19.0 mph30.6 kmh 30.00 in1015.9 mb 0.00 in0.0 mm 0.00 in/hr0.0 mm/hr 0.00 in0.0 mm
08:14 AM 45.2°F7.3°C 29.1°F-1.6°C 53% 15.0 mph SW24.1 kmh SW 19.0 mph30.6 kmh 30.00 in1015.9 mb 0.00 in0.0 mm 0.00 in/hr0.0 mm/hr 0.00 in0.0 mm
08:16 AM 45.3°F7.4°C 29.2°F-1.6°C 53% 14.0 mph SW22.5 kmh SW 19.0 mph30.6 kmh 30.00 in1015.9 mb 0.00 in0.0 mm 0.00 in/hr0.0 mm/hr 0.00 in0.0 mm
08:17 AM 45.4°F7.4°C 28.8°F-1.8°C 52% 17.0 mph SSW27.4 kmh SSW 21.0 mph33.8 kmh 30.00 in1015.9 mb 0.00 in0.0 mm 0.00 in/hr0.0 mm/hr 0.00 in0.0 mm
08:19 AM 45.5°F7.5°C 29.4°F-1.4°C 53% 11.0 mph SW17.7 kmh SW 21.0 mph33.8 kmh 30.00 in1015.9 mb 0.00 in0.0 mm 0.00 in/hr0.0 mm/hr 0.00 in0.0 mm
08:20 AM 45.6°F7.6°C 29.5°F-1.4°C 53% 10.0 mph SSW16.1 kmh SSW 21.0 mph33.8 kmh 29.99 in1015.6 mb 0.00 in0.0 mm 0.00 in/hr0.0 mm/hr 0.00 in0.0 mm
08:21 AM 45.5°F7.5°C 29.4°F-1.4°C 53% 13.0 mph SW20.9 kmh SW 21.0 mph33.8 kmh 30.00 in1015.9 mb 0.00 in0.0 mm 0.00 in/hr0.0 mm/hr 0.00 in0.0 mm
08:22 AM 45.6°F7.6°C 29.5°F-1.4°C 53% 11.0 mph SSW17.7 kmh SSW 21.0 mph33.8 kmh 30.00 in1015.9 mb 0.00 in0.0 mm 0.00 in/hr0.0 mm/hr 0.00 in0.0 mm
08:23 AM 45.6°F7.6°C 29.5°F-1.4°C 53% 12.0 mph SW19.3 kmh SW 21.0 mph33.8 kmh 30.00 in1015.9 mb 0.00 in0.0 mm 0.00 in/hr0.0 mm/hr 0.00 in0.0 mm
08:24 AM 45.6°F7.6°C 29.5°F-1.4°C 53% 22.0 mph SW35.4 kmh SW 22.0 mph35.4 kmh 30.00 in1015.9 mb 0.00 in0.0 mm 0.00 in/hr0.0 mm/hr 0.00 in0.0 mm
08:26 AM 45.7°F7.6°C 29.6°F-1.3°C 53% 10.0 mph SW16.1 kmh SW 22.0 mph35.4 kmh 29.99 in1015.6 mb 0.00 in0.0 mm 0.00 in/hr0.0 mm/hr 0.00 in0.0 mm
08:27 AM 45.8°F7.7°C 30.1°F-1.1°C 54% 13.0 mph SW20.9 kmh SW 22.0 mph35.4 kmh 30.00 in1015.9 mb 0.00 in0.0 mm 0.00 in/hr0.0 mm/hr 0.00 in0.0 mm
08:29 AM 45.9°F7.7°C 29.3°F-1.5°C 52% 14.0 mph SW22.5 kmh SW 22.0 mph35.4 kmh 29.99 in1015.6 mb 0.00 in0.0 mm 0.00 in/hr0.0 mm/hr 0.00 in0.0 mm
08:30 AM 46.0°F7.8°C 29.8°F-1.2°C 53% 20.0 mph SW32.2 kmh SW 20.0 mph32.2 kmh 29.99 in1015.6 mb 0.00 in0.0 mm 0.00 in/hr0.0 mm/hr 0.00 in0.0 mm
08:31 AM 46.0°F7.8°C 29.4°F-1.4°C 52% 14.0 mph SW22.5 kmh SW 22.0 mph35.4 kmh 30.00 in1015.9 mb 0.00 in0.0 mm 0.00 in/hr0.0 mm/hr 0.00 in0.0 mm
08:32 AM 46.1°F7.8°C 29.5°F-1.4°C 52% 12.0 mph SW19.3 kmh SW 22.0 mph35.4 kmh 29.99 in1015.6 mb 0.00 in0.0 mm 0.00 in/hr0.0 mm/hr 0.00 in0.0 mm
08:34 AM 46.1°F7.8°C 29.9°F-1.2°C 53% 13.0 mph SW20.9 kmh SW 23.0 mph37.0 kmh 30.00 in1015.9 mb 0.00 in0.0 mm 0.00 in/hr0.0 mm/hr 0.00 in0.0 mm
08:35 AM 46.1°F7.8°C 29.9°F-1.2°C 53% 11.0 mph SSW17.7 kmh SSW 23.0 mph37.0 kmh 30.00 in1015.9 mb 0.00 in0.0 mm 0.00 in/hr0.0 mm/hr 0.00 in0.0 mm
08:37 AM 46.2°F7.9°C 29.6°F-1.3°C 52% 16.0 mph WSW25.7 kmh WSW 23.0 mph37.0 kmh 29.99 in1015.6 mb 0.00 in0.0 mm 0.00 in/hr0.0 mm/hr 0.00 in0.0 mm
08:39 AM 46.3°F7.9°C 29.7°F-1.3°C 52% 17.0 mph SW27.4 kmh SW 23.0 mph37.0 kmh 30.00 in1015.9 mb 0.00 in0.0 mm 0.00 in/hr0.0 mm/hr 0.00 in0.0 mm
08:40 AM 46.5°F8.1°C 29.4°F-1.4°C 51% 16.0 mph S25.7 kmh S 23.0 mph37.0 kmh 30.00 in1015.9 mb 0.00 in0.0 mm 0.00 in/hr0.0 mm/hr 0.00 in0.0 mm
08:41 AM 46.6°F8.1°C 29.5°F-1.4°C 51% 11.0 mph SW17.7 kmh SW 23.0 mph37.0 kmh 30.00 in1015.9 mb 0.00 in0.0 mm 0.00 in/hr0.0 mm/hr 0.00 in0.0 mm
08:43 AM 46.8°F8.2°C 30.1°F-1.1°C 52% 10.0 mph SW16.1 kmh SW 23.0 mph37.0 kmh 30.00 in1015.9 mb 0.00 in0.0 mm 0.00 in/hr0.0 mm/hr 0.00 in0.0 mm
08:45 AM 46.9°F8.3°C 30.2°F-1.0°C 52% 15.0 mph SW24.1 kmh SW 23.0 mph37.0 kmh 30.00 in1015.9 mb 0.00 in0.0 mm 0.00 in/hr0.0 mm/hr 0.00 in0.0 mm
08:46 AM 47.0°F8.3°C 29.3°F-1.5°C 50% 18.0 mph SW29.0 kmh SW 23.0 mph37.0 kmh 30.00 in1015.9 mb 0.00 in0.0 mm 0.00 in/hr0.0 mm/hr 0.00 in0.0 mm
08:47 AM 47.1°F8.4°C 29.9°F-1.2°C 51% 15.0 mph SW24.1 kmh SW 23.0 mph37.0 kmh 30.00 in1015.9 mb 0.00 in0.0 mm 0.00 in/hr0.0 mm/hr 0.00 in0.0 mm
08:48 AM 47.2°F8.4°C 29.5°F-1.4°C 50% 9.0 mph SSW14.5 kmh SSW 23.0 mph37.0 kmh 30.00 in1015.9 mb 0.00 in0.0 mm 0.00 in/hr0.0 mm/hr 0.00 in0.0 mm
08:50 AM 47.4°F8.6°C 30.7°F-0.7°C 52% 10.0 mph SW16.1 kmh SW 23.0 mph37.0 kmh 30.00 in1015.9 mb 0.00 in0.0 mm 0.00 in/hr0.0 mm/hr 0.00 in0.0 mm
08:51 AM 47.4°F8.6°C 29.7°F-1.3°C 50% 11.0 mph SW17.7 kmh SW 23.0 mph37.0 kmh 30.00 in1015.9 mb 0.00 in0.0 mm 0.00 in/hr0.0 mm/hr 0.00 in0.0 mm
08:53 AM 47.6°F8.7°C 30.4°F-0.9°C 51% 11.0 mph SW17.7 kmh SW 23.0 mph37.0 kmh 30.00 in1015.9 mb 0.00 in0.0 mm 0.00 in/hr0.0 mm/hr 0.00 in0.0 mm
08:54 AM 47.7°F8.7°C 30.5°F-0.8°C 51% 10.0 mph SW16.1 kmh SW 23.0 mph37.0 kmh 30.00 in1015.9 mb 0.00 in0.0 mm 0.00 in/hr0.0 mm/hr 0.00 in0.0 mm
08:55 AM 47.7°F8.7°C 30.5°F-0.8°C 51% 10.0 mph SW16.1 kmh SW 23.0 mph37.0 kmh 30.00 in1015.9 mb 0.00 in0.0 mm 0.00 in/hr0.0 mm/hr 0.00 in0.0 mm
08:56 AM 47.8°F8.8°C 30.6°F-0.8°C 51% 10.0 mph SW16.1 kmh SW 23.0 mph37.0 kmh 30.00 in1015.9 mb 0.00 in0.0 mm 0.00 in/hr0.0 mm/hr 0.00 in0.0 mm
08:57 AM 47.8°F8.8°C 31.1°F-0.5°C 52% 11.0 mph SW17.7 kmh SW 23.0 mph37.0 kmh 30.00 in1015.9 mb 0.00 in0.0 mm 0.00 in/hr0.0 mm/hr 0.00 in0.0 mm
08:59 AM 47.9°F8.8°C 30.7°F-0.7°C 51% 7.0 mph WSW11.3 kmh WSW 23.0 mph37.0 kmh 30.00 in1015.9 mb 0.00 in0.0 mm 0.00 in/hr0.0 mm/hr 0.00 in0.0 mm
09:00 AM 48.0°F8.9°C 30.3°F-0.9°C 50% 10.0 mph SW16.1 kmh SW 12.0 mph19.3 kmh 30.00 in1015.9 mb 0.00 in0.0 mm 0.00 in/hr0.0 mm/hr 0.00 in0.0 mm
09:01 AM 48.1°F8.9°C 30.4°F-0.9°C 50% 21.0 mph SW33.8 kmh SW 21.0 mph33.8 kmh 29.99 in1015.6 mb 0.00 in0.0 mm 0.00 in/hr0.0 mm/hr 0.00 in0.0 mm
09:03 AM 48.2°F9.0°C 30.5°F-0.8°C 50% 14.0 mph SW22.5 kmh SW 21.0 mph33.8 kmh 29.99 in1015.6 mb 0.00 in0.0 mm 0.00 in/hr0.0 mm/hr 0.00 in0.0 mm
09:04 AM 48.3°F9.1°C 31.0°F-0.6°C 51% 15.0 mph SW24.1 kmh SW 21.0 mph33.8 kmh 29.99 in1015.6 mb 0.00 in0.0 mm 0.00 in/hr0.0 mm/hr 0.00 in0.0 mm
09:05 AM 48.3°F9.1°C 31.0°F-0.6°C 51% 17.0 mph SW27.4 kmh SW 21.0 mph33.8 kmh 29.99 in1015.6 mb 0.00 in0.0 mm 0.00 in/hr0.0 mm/hr 0.00 in0.0 mm
09:06 AM 48.4°F9.1°C 30.6°F-0.8°C 50% 15.0 mph SW24.1 kmh SW 21.0 mph33.8 kmh 29.99 in1015.6 mb 0.00 in0.0 mm 0.00 in/hr0.0 mm/hr 0.00 in0.0 mm
09:07 AM 48.5°F9.2°C 31.2°F-0.4°C 51% 12.0 mph SW19.3 kmh SW 21.0 mph33.8 kmh 29.99 in1015.6 mb 0.00 in0.0 mm 0.00 in/hr0.0 mm/hr 0.00 in0.0 mm
09:09 AM 48.6°F9.2°C 30.8°F-0.7°C 50% 12.0 mph SW19.3 kmh SW 21.0 mph33.8 kmh 29.99 in1015.6 mb 0.00 in0.0 mm 0.00 in/hr0.0 mm/hr 0.00 in0.0 mm
09:10 AM 48.7°F9.3°C 30.9°F-0.6°C 50% 11.0 mph SW17.7 kmh SW 21.0 mph33.8 kmh 29.99 in1015.6 mb 0.00 in0.0 mm 0.00 in/hr0.0 mm/hr 0.00 in0.0 mm
09:12 AM 48.8°F9.3°C 31.5°F-0.3°C 51% 17.0 mph SW27.4 kmh SW 21.0 mph33.8 kmh 29.99 in1015.6 mb 0.00 in0.0 mm 0.00 in/hr0.0 mm/hr 0.00 in0.0 mm
09:14 AM 49.0°F9.4°C 31.2°F-0.4°C 50% 10.0 mph SW16.1 kmh SW 21.0 mph33.8 kmh 29.99 in1015.6 mb 0.00 in0.0 mm 0.00 in/hr0.0 mm/hr 0.00 in0.0 mm
09:15 AM 49.1°F9.5°C 31.3°F-0.4°C 50% 13.0 mph SW20.9 kmh SW 21.0 mph33.8 kmh 29.99 in1015.6 mb 0.00 in0.0 mm 0.00 in/hr0.0 mm/hr 0.00 in0.0 mm
09:17 AM 49.2°F9.6°C 31.9°F-0.1°C 51% 12.0 mph SW19.3 kmh SW 21.0 mph33.8 kmh 29.99 in1015.6 mb 0.00 in0.0 mm 0.00 in/hr0.0 mm/hr 0.00 in0.0 mm
09:18 AM 49.3°F9.6°C 32.0°F0.0°C 51% 15.0 mph WSW24.1 kmh WSW 21.0 mph33.8 kmh 29.99 in1015.6 mb 0.00 in0.0 mm 0.00 in/hr0.0 mm/hr 0.00 in0.0 mm
09:20 AM 49.4°F9.7°C 31.6°F-0.2°C 50% 12.0 mph SW19.3 kmh SW 21.0 mph33.8 kmh 29.99 in1015.6 mb 0.00 in0.0 mm 0.00 in/hr0.0 mm/hr 0.00 in0.0 mm
09:22 AM 49.5°F9.7°C 31.2°F-0.4°C 49% 15.0 mph SW24.1 kmh SW 22.0 mph35.4 kmh 29.99 in1015.6 mb 0.00 in0.0 mm 0.00 in/hr0.0 mm/hr 0.00 in0.0 mm
09:24 AM 49.7°F9.8°C 31.3°F-0.4°C 49% 11.0 mph SW17.7 kmh SW 24.0 mph38.6 kmh 29.99 in1015.6 mb 0.00 in0.0 mm 0.00 in/hr0.0 mm/hr 0.00 in0.0 mm
09:25 AM 49.7°F9.8°C 31.8°F-0.1°C 50% 13.0 mph SW20.9 kmh SW 24.0 mph38.6 kmh 29.99 in1015.6 mb 0.00 in0.0 mm 0.00 in/hr0.0 mm/hr 0.00 in0.0 mm
09:27 AM 49.9°F9.9°C 32.0°F0.0°C 50% 16.0 mph SW25.7 kmh SW 24.0 mph38.6 kmh 29.99 in1015.6 mb 0.00 in0.0 mm 0.00 in/hr0.0 mm/hr 0.00 in0.0 mm
09:28 AM 50.0°F10.0°C 31.1°F-0.5°C 48% 12.0 mph SW19.3 kmh SW 24.0 mph38.6 kmh 29.99 in1015.6 mb 0.00 in0.0 mm 0.00 in/hr0.0 mm/hr 0.00 in0.0 mm
09:29 AM 50.1°F10.1°C 32.2°F0.1°C 50% 12.0 mph SW19.3 kmh SW 24.0 mph38.6 kmh 29.99 in1015.6 mb 0.00 in0.0 mm 0.00 in/hr0.0 mm/hr 0.00 in0.0 mm
09:30 AM 50.2°F10.1°C 32.8°F0.4°C 51% 16.0 mph SW25.7 kmh SW 16.0 mph25.7 kmh 29.99 in1015.6 mb 0.00 in0.0 mm 0.00 in/hr0.0 mm/hr 0.00 in0.0 mm
09:32 AM 50.4°F10.2°C 32.5°F0.3°C 50% 16.0 mph SW25.7 kmh SW 21.0 mph33.8 kmh 29.99 in1015.6 mb 0.00 in0.0 mm 0.00 in/hr0.0 mm/hr 0.00 in0.0 mm
09:33 AM 50.4°F10.2°C 33.5°F0.8°C 52% 16.0 mph SW25.7 kmh SW 21.0 mph33.8 kmh 29.99 in1015.6 mb 0.00 in0.0 mm 0.00 in/hr0.0 mm/hr 0.00 in0.0 mm
09:35 AM 50.5°F10.3°C 32.6°F0.3°C 50% 15.0 mph SW24.1 kmh SW 21.0 mph33.8 kmh 29.99 in1015.6 mb 0.00 in0.0 mm 0.00 in/hr0.0 mm/hr 0.00 in0.0 mm
09:36 AM 50.6°F10.3°C 32.2°F0.1°C 49% 11.0 mph SW17.7 kmh SW 21.0 mph33.8 kmh 29.99 in1015.6 mb 0.00 in0.0 mm 0.00 in/hr0.0 mm/hr 0.00 in0.0 mm
09:38 AM 50.8°F10.4°C 32.4°F0.2°C 49% 15.0 mph SW24.1 kmh SW 21.0 mph33.8 kmh 29.99 in1015.6 mb 0.00 in0.0 mm 0.00 in/hr0.0 mm/hr 0.00 in0.0 mm
09:40 AM 51.0°F10.6°C 32.0°F0.0°C 48% 14.0 mph SW22.5 kmh SW 25.0 mph40.2 kmh 29.99 in1015.6 mb 0.00 in0.0 mm 0.00 in/hr0.0 mm/hr 0.00 in0.0 mm
09:41 AM 51.0°F10.6°C 31.5°F-0.3°C 47% 16.0 mph SW25.7 kmh SW 25.0 mph40.2 kmh 29.99 in1015.6 mb 0.00 in0.0 mm 0.00 in/hr0.0 mm/hr 0.00 in0.0 mm
09:42 AM 51.1°F10.6°C 31.6°F-0.2°C 47% 9.0 mph SW14.5 kmh SW 25.0 mph40.2 kmh 29.99 in1015.6 mb 0.00 in0.0 mm 0.00 in/hr0.0 mm/hr 0.00 in0.0 mm
09:44 AM 51.3°F10.7°C 32.3°F0.2°C 48% 14.0 mph SW22.5 kmh SW 25.0 mph40.2 kmh 29.99 in1015.6 mb 0.00 in0.0 mm 0.00 in/hr0.0 mm/hr 0.00 in0.0 mm
09:45 AM 51.4°F10.8°C 32.4°F0.2°C 48% 14.0 mph SW22.5 kmh SW 25.0 mph40.2 kmh 29.99 in1015.6 mb 0.00 in0.0 mm 0.00 in/hr0.0 mm/hr 0.00 in0.0 mm
09:46 AM 51.5°F10.8°C 33.5°F0.8°C 50% 13.0 mph WSW20.9 kmh WSW 25.0 mph40.2 kmh 29.99 in1015.6 mb 0.00 in0.0 mm 0.00 in/hr0.0 mm/hr 0.00 in0.0 mm
09:48 AM 51.5°F10.8°C 32.5°F0.3°C 48% 11.0 mph SW17.7 kmh SW 25.0 mph40.2 kmh 29.99 in1015.6 mb 0.00 in0.0 mm 0.00 in/hr0.0 mm/hr 0.00 in0.0 mm
09:49 AM 51.6°F10.9°C 33.1°F0.6°C 49% 13.0 mph SW20.9 kmh SW 25.0 mph40.2 kmh 29.99 in1015.6 mb 0.00 in0.0 mm 0.00 in/hr0.0 mm/hr 0.00 in0.0 mm
09:50 AM 51.8°F11.0°C 33.3°F0.7°C 49% 11.0 mph SW17.7 kmh SW 25.0 mph40.2 kmh 29.99 in1015.6 mb 0.00 in0.0 mm 0.00 in/hr0.0 mm/hr 0.00 in0.0 mm
09:51 AM 51.8°F11.0°C 33.8°F1.0°C 50% 11.0 mph SW17.7 kmh SW 25.0 mph40.2 kmh 29.99 in1015.6 mb 0.00 in0.0 mm 0.00 in/hr0.0 mm/hr 0.00 in0.0 mm
09:52 AM 51.9°F11.1°C 33.4°F0.8°C 49% 17.0 mph SW27.4 kmh SW 25.0 mph40.2 kmh 29.99 in1015.6 mb 0.00 in0.0 mm 0.00 in/hr0.0 mm/hr 0.00 in0.0 mm
09:54 AM 52.0°F11.1°C 32.9°F0.5°C 48% 14.0 mph SW22.5 kmh SW 25.0 mph40.2 kmh 29.99 in1015.6 mb 0.00 in0.0 mm 0.00 in/hr0.0 mm/hr 0.00 in0.0 mm
09:55 AM 52.0°F11.1°C 32.9°F0.5°C 48% 10.0 mph SW16.1 kmh SW 25.0 mph40.2 kmh 29.99 in1015.6 mb 0.00 in0.0 mm 0.00 in/hr0.0 mm/hr 0.00 in0.0 mm
09:56 AM 52.1°F11.2°C 33.5°F0.8°C 49% 13.0 mph SW20.9 kmh SW 25.0 mph40.2 kmh 29.99 in1015.6 mb 0.00 in0.0 mm 0.00 in/hr0.0 mm/hr 0.00 in0.0 mm
09:58 AM 52.3°F11.3°C 33.2°F0.7°C 48% 14.0 mph SW22.5 kmh SW 25.0 mph40.2 kmh 29.99 in1015.6 mb 0.00 in0.0 mm 0.00 in/hr0.0 mm/hr 0.00 in0.0 mm
09:59 AM 52.3°F11.3°C 33.7°F0.9°C 49% 13.0 mph SW20.9 kmh SW 25.0 mph40.2 kmh 29.99 in1015.6 mb 0.00 in0.0 mm 0.00 in/hr0.0 mm/hr 0.00 in0.0 mm
10:00 AM 52.4°F11.3°C 33.8°F1.0°C 49% 15.0 mph SW24.1 kmh SW 25.0 mph40.2 kmh 29.99 in1015.6 mb 0.00 in0.0 mm 0.00 in/hr0.0 mm/hr 0.00 in0.0 mm
10:01 AM 52.5°F11.4°C 34.9°F1.6°C 51% 14.0 mph SW22.5 kmh SW 19.0 mph30.6 kmh 29.99 in1015.6 mb 0.00 in0.0 mm 0.00 in/hr0.0 mm/hr 0.00 in0.0 mm
10:03 AM 52.7°F11.5°C 33.1°F0.6°C 47% 14.0 mph SW22.5 kmh SW 20.0 mph32.2 kmh 29.99 in1015.6 mb 0.00 in0.0 mm 0.00 in/hr0.0 mm/hr 0.00 in0.0 mm
10:04 AM 52.8°F11.6°C 33.7°F0.9°C 48% 17.0 mph SSW27.4 kmh SSW 20.0 mph32.2 kmh 29.99 in1015.6 mb 0.00 in0.0 mm 0.00 in/hr0.0 mm/hr 0.00 in0.0 mm
10:05 AM 52.8°F11.6°C 33.7°F0.9°C 48% 17.0 mph SW27.4 kmh SW 20.0 mph32.2 kmh 29.99 in1015.6 mb 0.00 in0.0 mm 0.00 in/hr0.0 mm/hr 0.00 in0.0 mm
10:06 AM 52.9°F11.6°C 33.2°F0.7°C 47% 15.0 mph SW24.1 kmh SW 20.0 mph32.2 kmh 29.98 in1015.2 mb 0.00 in0.0 mm 0.00 in/hr0.0 mm/hr 0.00 in0.0 mm
10:07 AM 52.9°F11.6°C 33.8°F1.0°C 48% 16.0 mph SW25.7 kmh SW 20.0 mph32.2 kmh 29.98 in1015.2 mb 0.00 in0.0 mm 0.00 in/hr0.0 mm/hr 0.00 in0.0 mm
10:09 AM 53.1°F11.7°C 33.4°F0.8°C 47% 19.0 mph SW30.6 kmh SW 22.0 mph35.4 kmh 29.99 in1015.6 mb 0.00 in0.0 mm 0.00 in/hr0.0 mm/hr 0.00 in0.0 mm
10:10 AM 53.2°F11.8°C 33.0°F0.6°C 46% 15.0 mph SW24.1 kmh SW 24.0 mph38.6 kmh 29.99 in1015.6 mb 0.00 in0.0 mm 0.00 in/hr0.0 mm/hr 0.00 in0.0 mm
10:12 AM 53.4°F11.9°C 34.7°F1.5°C 49% 21.0 mph SW33.8 kmh SW 24.0 mph38.6 kmh 29.99 in1015.6 mb 0.00 in0.0 mm 0.00 in/hr0.0 mm/hr 0.00 in0.0 mm
10:13 AM 53.5°F11.9°C 33.8°F1.0°C 47% 26.0 mph SW41.8 kmh SW 26.0 mph41.8 kmh 29.99 in1015.6 mb 0.00 in0.0 mm 0.00 in/hr0.0 mm/hr 0.00 in0.0 mm
10:15 AM 53.6°F12.0°C 33.9°F1.1°C 47% 14.0 mph SW22.5 kmh SW 26.0 mph41.8 kmh 29.99 in1015.6 mb 0.00 in0.0 mm 0.00 in/hr0.0 mm/hr 0.00 in0.0 mm
10:17 AM 53.7°F12.1°C 34.0°F1.1°C 47% 13.0 mph SW20.9 kmh SW 26.0 mph41.8 kmh 29.99 in1015.6 mb 0.00 in0.0 mm 0.00 in/hr0.0 mm/hr 0.00 in0.0 mm
10:18 AM 53.8°F12.1°C 34.1°F1.2°C 47% 12.0 mph WSW19.3 kmh WSW 26.0 mph41.8 kmh 29.99 in1015.6 mb 0.00 in0.0 mm 0.00 in/hr0.0 mm/hr 0.00 in0.0 mm
10:20 AM 54.0°F12.2°C 33.7°F0.9°C 46% 13.0 mph SW20.9 kmh SW 26.0 mph41.8 kmh 29.99 in1015.6 mb 0.00 in0.0 mm 0.00 in/hr0.0 mm/hr 0.00 in0.0 mm
10:21 AM 54.0°F12.2°C 34.2°F1.2°C 47% 14.0 mph SW22.5 kmh SW 26.0 mph41.8 kmh 29.99 in1015.6 mb 0.00 in0.0 mm 0.00 in/hr0.0 mm/hr 0.00 in0.0 mm
10:23 AM 54.2°F12.3°C 33.9°F1.1°C 46% 16.0 mph SW25.7 kmh SW 26.0 mph41.8 kmh 29.99 in1015.6 mb 0.00 in0.0 mm 0.00 in/hr0.0 mm/hr 0.00 in0.0 mm
10:25 AM 54.3°F12.4°C 34.0°F1.1°C 46% 15.0 mph SW24.1 kmh SW 26.0 mph41.8 kmh 29.99 in1015.6 mb 0.00 in0.0 mm 0.00 in/hr0.0 mm/hr 0.00 in0.0 mm
10:26 AM 54.3°F12.4°C 35.1°F1.7°C 48% 13.0 mph SW20.9 kmh SW 26.0 mph41.8 kmh 29.99 in1015.6 mb 0.00 in0.0 mm 0.00 in/hr0.0 mm/hr 0.00 in0.0 mm
10:27 AM 54.4°F12.4°C 34.6°F1.4°C 47% 15.0 mph SW24.1 kmh SW 26.0 mph41.8 kmh 29.99 in1015.6 mb 0.00 in0.0 mm 0.00 in/hr0.0 mm/hr 0.00 in0.0 mm
10:29 AM 54.6°F12.6°C 35.3°F1.8°C 48% 17.0 mph SW27.4 kmh SW 26.0 mph41.8 kmh 29.99 in1015.6 mb 0.00 in0.0 mm 0.00 in/hr0.0 mm/hr 0.00 in0.0 mm
10:30 AM 54.6°F12.6°C 34.3°F1.3°C 46% 21.0 mph SSW33.8 kmh SSW 21.0 mph33.8 kmh 29.98 in1015.2 mb 0.00 in0.0 mm 0.00 in/hr0.0 mm/hr 0.00 in0.0 mm
10:31 AM 54.7°F12.6°C 34.3°F1.3°C 46% 19.0 mph SW30.6 kmh SW 21.0 mph33.8 kmh 29.98 in1015.2 mb 0.00 in0.0 mm 0.00 in/hr0.0 mm/hr 0.00 in0.0 mm
10:33 AM 54.8°F12.7°C 34.4°F1.3°C 46% 16.0 mph SW25.7 kmh SW 21.0 mph33.8 kmh 29.98 in1015.2 mb 0.00 in0.0 mm 0.00 in/hr0.0 mm/hr 0.00 in0.0 mm
10:35 AM 54.8°F12.7°C 34.4°F1.3°C 46% 15.0 mph SW24.1 kmh SW 21.0 mph33.8 kmh 29.98 in1015.2 mb 0.00 in0.0 mm 0.00 in/hr0.0 mm/hr 0.00 in0.0 mm
10:37 AM 55.0°F12.8°C 35.7°F2.1°C 48% 12.0 mph SW19.3 kmh SW 21.0 mph33.8 kmh 29.98 in1015.2 mb 0.00 in0.0 mm 0.00 in/hr0.0 mm/hr 0.00 in0.0 mm
10:38 AM 55.1°F12.8°C 35.3°F1.8°C 47% 11.0 mph SW17.7 kmh SW 21.0 mph33.8 kmh 29.98 in1015.2 mb 0.00 in0.0 mm 0.00 in/hr0.0 mm/hr 0.00 in0.0 mm
10:39 AM 55.2°F12.9°C 35.3°F1.8°C 47% 14.0 mph SW22.5 kmh SW 21.0 mph33.8 kmh 29.99 in1015.6 mb 0.00 in0.0 mm 0.00 in/hr0.0 mm/hr 0.00 in0.0 mm
10:40 AM 55.4°F13.0°C 37.1°F2.8°C 50% 15.0 mph SW24.1 kmh SW 23.0 mph37.0 kmh 29.98 in1015.2 mb 0.00 in0.0 mm 0.00 in/hr0.0 mm/hr 0.00 in0.0 mm
10:42 AM 55.5°F13.1°C 35.1°F1.7°C 46% 12.0 mph SW19.3 kmh SW 23.0 mph37.0 kmh 29.98 in1015.2 mb 0.00 in0.0 mm 0.00 in/hr0.0 mm/hr 0.00 in0.0 mm
10:43 AM 55.5°F13.1°C 35.6°F2.0°C 47% 12.0 mph SW19.3 kmh SW 23.0 mph37.0 kmh 29.98 in1015.2 mb 0.00 in0.0 mm 0.00 in/hr0.0 mm/hr 0.00 in0.0 mm
10:44 AM 55.6°F13.1°C 35.7°F2.1°C 47% 13.0 mph SW20.9 kmh SW 23.0 mph37.0 kmh 29.98 in1015.2 mb 0.00 in0.0 mm 0.00 in/hr0.0 mm/hr 0.00 in0.0 mm
10:46 AM 55.7°F13.2°C 35.3°F1.8°C 46% 12.0 mph SSW19.3 kmh SSW 23.0 mph37.0 kmh 29.98 in1015.2 mb 0.00 in0.0 mm 0.00 in/hr0.0 mm/hr 0.00 in0.0 mm
10:47 AM 55.7°F13.2°C 35.3°F1.8°C 46% 13.0 mph SW20.9 kmh SW 23.0 mph37.0 kmh 29.98 in1015.2 mb 0.00 in0.0 mm 0.00 in/hr0.0 mm/hr 0.00 in0.0 mm
10:49 AM 55.8°F13.2°C 35.4°F1.9°C 46% 19.0 mph SW30.6 kmh SW 23.0 mph37.0 kmh 29.98 in1015.2 mb 0.00 in0.0 mm 0.00 in/hr0.0 mm/hr 0.00 in0.0 mm
10:50 AM 55.8°F13.2°C 34.8°F1.6°C 45% 20.0 mph SW32.2 kmh SW 23.0 mph37.0 kmh 29.98 in1015.2 mb 0.00 in0.0 mm 0.00 in/hr0.0 mm/hr 0.00 in0.0 mm
10:51 AM 55.8°F13.2°C 34.2°F1.2°C 44% 15.0 mph SW24.1 kmh SW 23.0 mph37.0 kmh 29.98 in1015.2 mb 0.00 in0.0 mm 0.00 in/hr0.0 mm/hr 0.00 in0.0 mm
10:53 AM 55.8°F13.2°C 34.8°F1.6°C 45% 18.0 mph SW29.0 kmh SW 23.0 mph37.0 kmh 29.98 in1015.2 mb 0.00 in0.0 mm 0.00 in/hr0.0 mm/hr 0.00 in0.0 mm
10:54 AM 55.8°F13.2°C 35.4°F1.9°C 46% 13.0 mph SW20.9 kmh SW 23.0 mph37.0 kmh 29.98 in1015.2 mb 0.00 in0.0 mm 0.00 in/hr0.0 mm/hr 0.00 in0.0 mm
10:55 AM 55.9°F13.3°C 36.0°F2.2°C 47% 10.0 mph SW16.1 kmh SW 23.0 mph37.0 kmh 29.99 in1015.6 mb 0.00 in0.0 mm 0.00 in/hr0.0 mm/hr 0.00 in0.0 mm
10:57 AM 56.1°F13.4°C 35.6°F2.0°C 46% 13.0 mph WSW20.9 kmh WSW 23.0 mph37.0 kmh 29.99 in1015.6 mb 0.00 in0.0 mm 0.00 in/hr0.0 mm/hr 0.00 in0.0 mm
10:59 AM 56.3°F13.5°C 36.4°F2.4°C 47% 13.0 mph SW20.9 kmh SW 23.0 mph37.0 kmh 29.99 in1015.6 mb 0.00 in0.0 mm 0.00 in/hr0.0 mm/hr 0.00 in0.0 mm
11:00 AM 56.5°F13.6°C 36.5°F2.5°C 47% 12.0 mph SW19.3 kmh SW 23.0 mph37.0 kmh 29.99 in1015.6 mb 0.00 in0.0 mm 0.00 in/hr0.0 mm/hr 0.00 in0.0 mm
11:02 AM 56.7°F13.7°C 36.7°F2.6°C 47% 17.0 mph SW27.4 kmh SW 17.0 mph27.4 kmh 29.98 in1015.2 mb 0.00 in0.0 mm 0.00 in/hr0.0 mm/hr 0.00 in0.0 mm
11:03 AM 56.8°F13.8°C 36.3°F2.4°C 46% 14.0 mph SW22.5 kmh SW 19.0 mph30.6 kmh 29.98 in1015.2 mb 0.00 in0.0 mm 0.00 in/hr0.0 mm/hr 0.00 in0.0 mm
11:04 AM 56.9°F13.8°C 38.0°F3.3°C 49% 13.0 mph SW20.9 kmh SW 19.0 mph30.6 kmh 29.98 in1015.2 mb 0.00 in0.0 mm 0.00 in/hr0.0 mm/hr 0.00 in0.0 mm
11:06 AM 57.1°F13.9°C 36.5°F2.5°C 46% 10.0 mph SW16.1 kmh SW 19.0 mph30.6 kmh 29.98 in1015.2 mb 0.00 in0.0 mm 0.00 in/hr0.0 mm/hr 0.00 in0.0 mm
11:07 AM 57.1°F13.9°C 37.6°F3.1°C 48% 14.0 mph SW22.5 kmh SW 19.0 mph30.6 kmh 29.98 in1015.2 mb 0.00 in0.0 mm 0.00 in/hr0.0 mm/hr 0.00 in0.0 mm
11:08 AM 57.1°F13.9°C 36.0°F2.2°C 45% 11.0 mph SW17.7 kmh SW 19.0 mph30.6 kmh 29.98 in1015.2 mb 0.00 in0.0 mm 0.00 in/hr0.0 mm/hr 0.00 in0.0 mm
11:10 AM 57.1°F13.9°C 36.5°F2.5°C 46% 12.0 mph SW19.3 kmh SW 19.0 mph30.6 kmh 29.98 in1015.2 mb 0.00 in0.0 mm 0.00 in/hr0.0 mm/hr 0.00 in0.0 mm
11:11 AM 57.2°F14.0°C 36.6°F2.6°C 46% 13.0 mph SW20.9 kmh SW 19.0 mph30.6 kmh 29.98 in1015.2 mb 0.00 in0.0 mm 0.00 in/hr0.0 mm/hr 0.00 in0.0 mm
11:13 AM 57.2°F14.0°C 36.1°F2.3°C 45% 15.0 mph WSW24.1 kmh WSW 22.0 mph35.4 kmh 29.98 in1015.2 mb 0.00 in0.0 mm 0.00 in/hr0.0 mm/hr 0.00 in0.0 mm
11:14 AM 57.2°F14.0°C 36.1°F2.3°C 45% 21.0 mph SW33.8 kmh SW 22.0 mph35.4 kmh 29.98 in1015.2 mb 0.00 in0.0 mm 0.00 in/hr0.0 mm/hr 0.00 in0.0 mm
11:16 AM 57.2°F14.0°C 34.9°F1.6°C 43% 12.0 mph SW19.3 kmh SW 24.0 mph38.6 kmh 29.98 in1015.2 mb 0.00 in0.0 mm 0.00 in/hr0.0 mm/hr 0.00 in0.0 mm
11:18 AM 57.4°F14.1°C 37.4°F3.0°C 47% 11.0 mph SW17.7 kmh SW 24.0 mph38.6 kmh 29.98 in1015.2 mb 0.00 in0.0 mm 0.00 in/hr0.0 mm/hr 0.00 in0.0 mm
11:19 AM 57.5°F14.2°C 37.5°F3.1°C 47% 11.0 mph SW17.7 kmh SW 24.0 mph38.6 kmh 29.98 in1015.2 mb 0.00 in0.0 mm 0.00 in/hr0.0 mm/hr 0.00 in0.0 mm
11:20 AM 57.7°F14.3°C 38.2°F3.4°C 48% 13.0 mph SW20.9 kmh SW 24.0 mph38.6 kmh 29.98 in1015.2 mb 0.00 in0.0 mm 0.00 in/hr0.0 mm/hr 0.00 in0.0 mm
11:21 AM 57.7°F14.3°C 38.2°F3.4°C 48% 17.0 mph SSW27.4 kmh SSW 24.0 mph38.6 kmh 29.98 in1015.2 mb 0.00 in0.0 mm 0.00 in/hr0.0 mm/hr 0.00 in0.0 mm
11:22 AM 57.7°F14.3°C 37.1°F2.8°C 46% 19.0 mph SW30.6 kmh SW 24.0 mph38.6 kmh 29.98 in1015.2 mb 0.00 in0.0 mm 0.00 in/hr0.0 mm/hr 0.00 in0.0 mm
11:23 AM 57.7°F14.3°C 37.6°F3.1°C 47% 13.0 mph SW20.9 kmh SW 24.0 mph38.6 kmh 29.98 in1015.2 mb 0.00 in0.0 mm 0.00 in/hr0.0 mm/hr 0.00 in0.0 mm
11:25 AM 57.8°F14.3°C 38.8°F3.8°C 49% 15.0 mph SW24.1 kmh SW 24.0 mph38.6 kmh 29.98 in1015.2 mb 0.00 in0.0 mm 0.00 in/hr0.0 mm/hr 0.00 in0.0 mm
11:26 AM 57.8°F14.3°C 37.2°F2.9°C 46% 20.0 mph SSW32.2 kmh SSW 25.0 mph40.2 kmh 29.97 in1014.9 mb 0.00 in0.0 mm 0.00 in/hr0.0 mm/hr 0.00 in0.0 mm
11:28 AM 57.8°F14.3°C 37.2°F2.9°C 46% 14.0 mph SW22.5 kmh SW 25.0 mph40.2 kmh 29.98 in1015.2 mb 0.00 in0.0 mm 0.00 in/hr0.0 mm/hr 0.00 in0.0 mm
11:29 AM 57.8°F14.3°C 38.3°F3.5°C 48% 20.0 mph SW32.2 kmh SW 25.0 mph40.2 kmh 29.98 in1015.2 mb 0.00 in0.0 mm 0.00 in/hr0.0 mm/hr 0.00 in0.0 mm
11:30 AM 57.7°F14.3°C 36.5°F2.5°C 45% 22.0 mph SSW35.4 kmh SSW 25.0 mph40.2 kmh 29.98 in1015.2 mb 0.00 in0.0 mm 0.00 in/hr0.0 mm/hr 0.00 in0.0 mm
11:32 AM 57.6°F14.2°C 36.4°F2.4°C 45% 22.0 mph SW35.4 kmh SW 27.0 mph43.5 kmh 29.98 in1015.2 mb 0.00 in0.0 mm 0.00 in/hr0.0 mm/hr 0.00 in0.0 mm
11:33 AM 57.6°F14.2°C 35.3°F1.8°C 43% 14.0 mph SW22.5 kmh SW 27.0 mph43.5 kmh 29.98 in1015.2 mb 0.00 in0.0 mm 0.00 in/hr0.0 mm/hr 0.00 in0.0 mm
11:34 AM 57.6°F14.2°C 37.0°F2.8°C 46% 17.0 mph SW27.4 kmh SW 27.0 mph43.5 kmh 29.98 in1015.2 mb 0.00 in0.0 mm 0.00 in/hr0.0 mm/hr 0.00 in0.0 mm
11:35 AM 57.6°F14.2°C 35.9°F2.2°C 44% 15.0 mph WSW24.1 kmh WSW 27.0 mph43.5 kmh 29.98 in1015.2 mb 0.00 in0.0 mm 0.00 in/hr0.0 mm/hr 0.00 in0.0 mm
11:37 AM 57.6°F14.2°C 37.0°F2.8°C 46% 12.0 mph SW19.3 kmh SW 27.0 mph43.5 kmh 29.98 in1015.2 mb 0.00 in0.0 mm 0.00 in/hr0.0 mm/hr 0.00 in0.0 mm
11:38 AM 57.6°F14.2°C 37.0°F2.8°C 46% 21.0 mph SSW33.8 kmh SSW 27.0 mph43.5 kmh 29.98 in1015.2 mb 0.00 in0.0 mm 0.00 in/hr0.0 mm/hr 0.00 in0.0 mm
11:39 AM 57.6°F14.2°C 36.4°F2.4°C 45% 21.0 mph SSW33.8 kmh SSW 27.0 mph43.5 kmh 29.98 in1015.2 mb 0.00 in0.0 mm 0.00 in/hr0.0 mm/hr 0.00 in0.0 mm
11:40 AM 57.6°F14.2°C 36.4°F2.4°C 45% 17.0 mph SSW27.4 kmh SSW 27.0 mph43.5 kmh 29.98 in1015.2 mb 0.00 in0.0 mm 0.00 in/hr0.0 mm/hr 0.00 in0.0 mm
11:42 AM 57.6°F14.2°C 37.5°F3.1°C 47% 18.0 mph SW29.0 kmh SW 27.0 mph43.5 kmh 29.98 in1015.2 mb 0.00 in0.0 mm 0.00 in/hr0.0 mm/hr 0.00 in0.0 mm
11:43 AM 57.7°F14.3°C 38.2°F3.4°C 48% 13.0 mph SW20.9 kmh SW 27.0 mph43.5 kmh 29.98 in1015.2 mb 0.00 in0.0 mm 0.00 in/hr0.0 mm/hr 0.00 in0.0 mm
11:44 AM 57.7°F14.3°C 36.5°F2.5°C 45% 20.0 mph SSW32.2 kmh SSW 27.0 mph43.5 kmh 29.98 in1015.2 mb 0.00 in0.0 mm 0.00 in/hr0.0 mm/hr 0.00 in0.0 mm
11:45 AM 57.8°F14.3°C 36.6°F2.6°C 45% 12.0 mph SW19.3 kmh SW 27.0 mph43.5 kmh 29.98 in1015.2 mb 0.00 in0.0 mm 0.00 in/hr0.0 mm/hr 0.00 in0.0 mm
11:46 AM 57.9°F14.4°C 37.8°F3.2°C 47% 19.0 mph SW30.6 kmh SW 27.0 mph43.5 kmh 29.98 in1015.2 mb 0.00 in0.0 mm 0.00 in/hr0.0 mm/hr 0.00 in0.0 mm
11:48 AM 58.0°F14.4°C 37.4°F3.0°C 46% 14.0 mph SW22.5 kmh SW 27.0 mph43.5 kmh 29.98 in1015.2 mb 0.00 in0.0 mm 0.00 in/hr0.0 mm/hr 0.00 in0.0 mm
11:49 AM 58.0°F14.4°C 36.8°F2.7°C 45% 19.0 mph SW30.6 kmh SW 27.0 mph43.5 kmh 29.97 in1014.9 mb 0.00 in0.0 mm 0.00 in/hr0.0 mm/hr 0.00 in0.0 mm
11:50 AM 58.0°F14.4°C 36.8°F2.7°C 45% 14.0 mph SW22.5 kmh SW 27.0 mph43.5 kmh 29.97 in1014.9 mb 0.00 in0.0 mm 0.00 in/hr0.0 mm/hr 0.00 in0.0 mm
11:51 AM 58.1°F14.5°C 38.0°F3.3°C 47% 16.0 mph SW25.7 kmh SW 27.0 mph43.5 kmh 29.97 in1014.9 mb 0.00 in0.0 mm 0.00 in/hr0.0 mm/hr 0.00 in0.0 mm
11:52 AM 58.1°F14.5°C 37.5°F3.1°C 46% 23.0 mph SW37.0 kmh SW 27.0 mph43.5 kmh 29.97 in1014.9 mb 0.00 in0.0 mm 0.00 in/hr0.0 mm/hr 0.00 in0.0 mm
11:53 AM 58.1°F14.5°C 36.3°F2.4°C 44% 17.0 mph SW27.4 kmh SW 27.0 mph43.5 kmh 29.97 in1014.9 mb 0.00 in0.0 mm 0.00 in/hr0.0 mm/hr 0.00 in0.0 mm
11:55 AM 58.2°F14.6°C 37.0°F2.8°C 45% 15.0 mph SW24.1 kmh SW 27.0 mph43.5 kmh 29.97 in1014.9 mb 0.00 in0.0 mm 0.00 in/hr0.0 mm/hr 0.00 in0.0 mm
11:57 AM 58.3°F14.6°C 37.6°F3.1°C 46% 18.0 mph SSW29.0 kmh SSW 27.0 mph43.5 kmh 29.97 in1014.9 mb 0.00 in0.0 mm 0.00 in/hr0.0 mm/hr 0.00 in0.0 mm
11:58 AM 58.3°F14.6°C 37.1°F2.8°C 45% 16.0 mph SW25.7 kmh SW 27.0 mph43.5 kmh 29.97 in1014.9 mb 0.00 in0.0 mm 0.00 in/hr0.0 mm/hr 0.00 in0.0 mm
12:00 PM 58.6°F14.8°C 36.8°F2.7°C 44% 13.0 mph SW20.9 kmh SW 27.0 mph43.5 kmh 29.97 in1014.9 mb 0.00 in0.0 mm 0.00 in/hr0.0 mm/hr 0.00 in0.0 mm
12:01 PM 58.8°F14.9°C 38.6°F3.7°C 47% 12.0 mph SW19.3 kmh SW 18.0 mph29.0 kmh 29.98 in1015.2 mb 0.00 in0.0 mm 0.00 in/hr0.0 mm/hr 0.00 in0.0 mm
12:03 PM 58.9°F14.9°C 38.7°F3.7°C 47% 20.0 mph SW32.2 kmh SW 21.0 mph33.8 kmh 29.97 in1014.9 mb 0.00 in0.0 mm 0.00 in/hr0.0 mm/hr 0.00 in0.0 mm
12:04 PM 58.9°F14.9°C 37.1°F2.8°C 44% 15.0 mph SW24.1 kmh SW 22.0 mph35.4 kmh 29.97 in1014.9 mb 0.00 in0.0 mm 0.00 in/hr0.0 mm/hr 0.00 in0.0 mm
12:05 PM 58.9°F14.9°C 38.2°F3.4°C 46% 13.0 mph SW20.9 kmh SW 22.0 mph35.4 kmh 29.97 in1014.9 mb 0.00 in0.0 mm 0.00 in/hr0.0 mm/hr 0.00 in0.0 mm
12:06 PM 58.9°F14.9°C 38.2°F3.4°C 46% 17.0 mph SW27.4 kmh SW 22.0 mph35.4 kmh 29.98 in1015.2 mb 0.00 in0.0 mm 0.00 in/hr0.0 mm/hr 0.00 in0.0 mm
12:07 PM 58.9°F14.9°C 37.6°F3.1°C 45% 20.0 mph SW32.2 kmh SW 23.0 mph37.0 kmh 29.97 in1014.9 mb 0.00 in0.0 mm 0.00 in/hr0.0 mm/hr 0.00 in0.0 mm
12:08 PM 59.0°F15.0°C 37.7°F3.2°C 45% 18.0 mph SW29.0 kmh SW 23.0 mph37.0 kmh 29.97 in1014.9 mb 0.00 in0.0 mm 0.00 in/hr0.0 mm/hr 0.00 in0.0 mm
12:10 PM 59.0°F15.0°C 37.7°F3.2°C 45% 19.0 mph SSW30.6 kmh SSW 24.0 mph38.6 kmh 29.97 in1014.9 mb 0.00 in0.0 mm 0.00 in/hr0.0 mm/hr 0.00 in0.0 mm
12:11 PM 59.1°F15.1°C 38.4°F3.6°C 46% 23.0 mph SW37.0 kmh SW 24.0 mph38.6 kmh 29.97 in1014.9 mb 0.00 in0.0 mm 0.00 in/hr0.0 mm/hr 0.00 in0.0 mm
12:13 PM 59.1°F15.1°C 37.8°F3.2°C 45% 19.0 mph SSW30.6 kmh SSW 25.0 mph40.2 kmh 29.97 in1014.9 mb 0.00 in0.0 mm 0.00 in/hr0.0 mm/hr 0.00 in0.0 mm
12:15 PM 59.3°F15.2°C 38.5°F3.6°C 46% 24.0 mph SW38.6 kmh SW 25.0 mph40.2 kmh 29.97 in1014.9 mb 0.00 in0.0 mm 0.00 in/hr0.0 mm/hr 0.00 in0.0 mm
12:17 PM 59.4°F15.2°C 38.1°F3.4°C 45% 12.0 mph SW19.3 kmh SW 25.0 mph40.2 kmh 29.97 in1014.9 mb 0.00 in0.0 mm 0.00 in/hr0.0 mm/hr 0.00 in0.0 mm
12:18 PM 59.5°F15.3°C 37.6°F3.1°C 44% 19.0 mph SW30.6 kmh SW 25.0 mph40.2 kmh 29.97 in1014.9 mb 0.00 in0.0 mm 0.00 in/hr0.0 mm/hr 0.00 in0.0 mm
12:20 PM 59.5°F15.3°C 38.2°F3.4°C 45% 13.0 mph SW20.9 kmh SW 25.0 mph40.2 kmh 29.97 in1014.9 mb 0.00 in0.0 mm 0.00 in/hr0.0 mm/hr 0.00 in0.0 mm
12:21 PM 59.5°F15.3°C 38.2°F3.4°C 45% 15.0 mph SSW24.1 kmh SSW 25.0 mph40.2 kmh 29.97 in1014.9 mb 0.00 in0.0 mm 0.00 in/hr0.0 mm/hr 0.00 in0.0 mm
12:22 PM 59.7°F15.4°C 38.4°F3.6°C 45% 19.0 mph SSW30.6 kmh SSW 25.0 mph40.2 kmh 29.97 in1014.9 mb 0.00 in0.0 mm 0.00 in/hr0.0 mm/hr 0.00 in0.0 mm
12:23 PM 59.8°F15.4°C 38.4°F3.6°C 45% 19.0 mph SSW30.6 kmh SSW 25.0 mph40.2 kmh 29.97 in1014.9 mb 0.00 in0.0 mm 0.00 in/hr0.0 mm/hr 0.00 in0.0 mm
12:24 PM 59.9°F15.5°C 37.4°F3.0°C 43% 13.0 mph SW20.9 kmh SW 25.0 mph40.2 kmh 29.97 in1014.9 mb 0.00 in0.0 mm 0.00 in/hr0.0 mm/hr 0.00 in0.0 mm
12:26 PM 59.9°F15.5°C 38.5°F3.6°C 45% 16.0 mph SSW25.7 kmh SSW 25.0 mph40.2 kmh 29.97 in1014.9 mb 0.00 in0.0 mm 0.00 in/hr0.0 mm/hr 0.00 in0.0 mm
12:27 PM 60.0°F15.6°C 38.6°F3.7°C 45% 20.0 mph SW32.2 kmh SW 25.0 mph40.2 kmh 29.97 in1014.9 mb 0.00 in0.0 mm 0.00 in/hr0.0 mm/hr 0.00 in0.0 mm
12:28 PM 60.0°F15.6°C 38.1°F3.4°C 44% 16.0 mph SW25.7 kmh SW 25.0 mph40.2 kmh 29.97 in1014.9 mb 0.00 in0.0 mm 0.00 in/hr0.0 mm/hr 0.00 in0.0 mm
12:30 PM 60.1°F15.6°C 38.7°F3.7°C 45% 15.0 mph SSW24.1 kmh SSW 19.0 mph30.6 kmh 29.97 in1014.9 mb 0.00 in0.0 mm 0.00 in/hr0.0 mm/hr 0.00 in0.0 mm
12:31 PM 60.0°F15.6°C 38.6°F3.7°C 45% 15.0 mph SW24.1 kmh SW 25.0 mph40.2 kmh 29.97 in1014.9 mb 0.00 in0.0 mm 0.00 in/hr0.0 mm/hr 0.00 in0.0 mm
12:32 PM 60.0°F15.6°C 38.1°F3.4°C 44% 15.0 mph WSW24.1 kmh WSW 25.0 mph40.2 kmh 29.97 in1014.9 mb 0.00 in0.0 mm 0.00 in/hr0.0 mm/hr 0.00 in0.0 mm
12:33 PM 60.0°F15.6°C 38.6°F3.7°C 45% 12.0 mph SW19.3 kmh SW 25.0 mph40.2 kmh 29.97 in1014.9 mb 0.00 in0.0 mm 0.00 in/hr0.0 mm/hr 0.00 in0.0 mm
12:34 PM 60.4°F15.8°C 39.6°F4.2°C 46% 18.0 mph SW29.0 kmh SW 25.0 mph40.2 kmh 29.97 in1014.9 mb 0.00 in0.0 mm 0.00 in/hr0.0 mm/hr 0.00 in0.0 mm
12:36 PM 60.4°F15.8°C 38.4°F3.6°C 44% 22.0 mph SW35.4 kmh SW 25.0 mph40.2 kmh 29.97 in1014.9 mb 0.00 in0.0 mm 0.00 in/hr0.0 mm/hr 0.00 in0.0 mm
12:37 PM 60.4°F15.8°C 37.2°F2.9°C 42% 23.0 mph S37.0 kmh S 25.0 mph40.2 kmh 29.97 in1014.9 mb 0.00 in0.0 mm 0.00 in/hr0.0 mm/hr 0.00 in0.0 mm
12:39 PM 60.5°F15.8°C 39.1°F3.9°C 45% 17.0 mph SW27.4 kmh SW 25.0 mph40.2 kmh 29.96 in1014.6 mb 0.00 in0.0 mm 0.00 in/hr0.0 mm/hr 0.00 in0.0 mm
12:40 PM 60.6°F15.9°C 39.2°F4.0°C 45% 12.0 mph SW19.3 kmh SW 25.0 mph40.2 kmh 29.96 in1014.6 mb 0.00 in0.0 mm 0.00 in/hr0.0 mm/hr 0.00 in0.0 mm
12:42 PM 60.7°F15.9°C 38.1°F3.4°C 43% 24.0 mph SW38.6 kmh SW 25.0 mph40.2 kmh 29.96 in1014.6 mb 0.00 in0.0 mm 0.00 in/hr0.0 mm/hr 0.00 in0.0 mm
12:43 PM 60.6°F15.9°C 38.0°F3.3°C 43% 13.0 mph SW20.9 kmh SW 25.0 mph40.2 kmh 29.96 in1014.6 mb 0.00 in0.0 mm 0.00 in/hr0.0 mm/hr 0.00 in0.0 mm
12:44 PM 60.6°F15.9°C 38.6°F3.7°C 44% 12.0 mph SW19.3 kmh SW 25.0 mph40.2 kmh 29.96 in1014.6 mb 0.00 in0.0 mm 0.00 in/hr0.0 mm/hr 0.00 in0.0 mm
12:46 PM 60.8°F16.0°C 38.8°F3.8°C 44% 15.0 mph SSW24.1 kmh SSW 25.0 mph40.2 kmh 29.97 in1014.9 mb 0.00 in0.0 mm 0.00 in/hr0.0 mm/hr 0.00 in0.0 mm
12:47 PM 61.0°F16.1°C 38.4°F3.6°C 43% 15.0 mph SW24.1 kmh SW 25.0 mph40.2 kmh 29.96 in1014.6 mb 0.00 in0.0 mm 0.00 in/hr0.0 mm/hr 0.00 in0.0 mm
12:48 PM 61.1°F16.2°C 38.5°F3.6°C 43% 22.0 mph SW35.4 kmh SW 25.0 mph40.2 kmh 29.96 in1014.6 mb 0.00 in0.0 mm 0.00 in/hr0.0 mm/hr 0.00 in0.0 mm
12:50 PM 61.1°F16.2°C 39.0°F3.9°C 44% 15.0 mph SW24.1 kmh SW 25.0 mph40.2 kmh 29.97 in1014.9 mb 0.00 in0.0 mm 0.00 in/hr0.0 mm/hr 0.00 in0.0 mm
12:51 PM 61.2°F16.2°C 39.1°F3.9°C 44% 14.0 mph SW22.5 kmh SW 25.0 mph40.2 kmh 29.96 in1014.6 mb 0.00 in0.0 mm 0.00 in/hr0.0 mm/hr 0.00 in0.0 mm
12:53 PM 61.4°F16.3°C 39.3°F4.1°C 44% 20.0 mph SSW32.2 kmh SSW 26.0 mph41.8 kmh 29.97 in1014.9 mb 0.00 in0.0 mm 0.00 in/hr0.0 mm/hr 0.00 in0.0 mm
12:54 PM 61.4°F16.3°C 39.3°F4.1°C 44% 14.0 mph SSW22.5 kmh SSW 26.0 mph41.8 kmh 29.96 in1014.6 mb 0.00 in0.0 mm 0.00 in/hr0.0 mm/hr 0.00 in0.0 mm
12:56 PM 61.4°F16.3°C 39.9°F4.4°C 45% 15.0 mph SSW24.1 kmh SSW 26.0 mph41.8 kmh 29.96 in1014.6 mb 0.00 in0.0 mm 0.00 in/hr0.0 mm/hr 0.00 in0.0 mm
12:57 PM 61.4°F16.3°C 38.7°F3.7°C 43% 17.0 mph SSW27.4 kmh SSW 26.0 mph41.8 kmh 29.96 in1014.6 mb 0.00 in0.0 mm 0.00 in/hr0.0 mm/hr 0.00 in0.0 mm
12:59 PM 61.4°F16.3°C 39.3°F4.1°C 44% 16.0 mph SW25.7 kmh SW 26.0 mph41.8 kmh 29.96 in1014.6 mb 0.00 in0.0 mm 0.00 in/hr0.0 mm/hr 0.00 in0.0 mm
01:00 PM 61.4°F16.3°C 39.3°F4.1°C 44% 19.0 mph SW30.6 kmh SW 26.0 mph41.8 kmh 29.96 in1014.6 mb 0.00 in0.0 mm 0.00 in/hr0.0 mm/hr 0.00 in0.0 mm
01:02 PM 61.5°F16.4°C 39.4°F4.1°C 44% 18.0 mph SW29.0 kmh SW 24.0 mph38.6 kmh 29.96 in1014.6 mb 0.00 in0.0 mm 0.00 in/hr0.0 mm/hr 0.00 in0.0 mm
01:03 PM 61.5°F16.4°C 39.4°F4.1°C 44% 19.0 mph SW30.6 kmh SW 24.0 mph38.6 kmh 29.96 in1014.6 mb 0.00 in0.0 mm 0.00 in/hr0.0 mm/hr 0.00 in0.0 mm
01:05 PM 61.5°F16.4°C 38.8°F3.8°C 43% 19.0 mph SW30.6 kmh SW 25.0 mph40.2 kmh 29.96 in1014.6 mb 0.00 in0.0 mm 0.00 in/hr0.0 mm/hr 0.00 in0.0 mm
01:07 PM 61.7°F16.5°C 39.6°F4.2°C 44% 16.0 mph SW25.7 kmh SW 25.0 mph40.2 kmh 29.96 in1014.6 mb 0.00 in0.0 mm 0.00 in/hr0.0 mm/hr 0.00 in0.0 mm
01:09 PM 61.9°F16.6°C 40.4°F4.7°C 45% 13.0 mph SW20.9 kmh SW 25.0 mph40.2 kmh 29.96 in1014.6 mb 0.00 in0.0 mm 0.00 in/hr0.0 mm/hr 0.00 in0.0 mm
01:10 PM 62.0°F16.7°C 40.4°F4.7°C 45% 20.0 mph WSW32.2 kmh WSW 25.0 mph40.2 kmh 29.96 in1014.6 mb 0.00 in0.0 mm 0.00 in/hr0.0 mm/hr 0.00 in0.0 mm
01:11 PM 62.0°F16.7°C 39.3°F4.1°C 43% 18.0 mph SW29.0 kmh SW 25.0 mph40.2 kmh 29.96 in1014.6 mb 0.00 in0.0 mm 0.00 in/hr0.0 mm/hr 0.00 in0.0 mm
01:12 PM 62.1°F16.7°C 38.8°F3.8°C 42% 17.0 mph SW27.4 kmh SW 25.0 mph40.2 kmh 29.96 in1014.6 mb 0.00 in0.0 mm 0.00 in/hr0.0 mm/hr 0.00 in0.0 mm
01:14 PM 62.2°F16.8°C 39.5°F4.2°C 43% 14.0 mph SW22.5 kmh SW 25.0 mph40.2 kmh 29.96 in1014.6 mb 0.00 in0.0 mm 0.00 in/hr0.0 mm/hr 0.00 in0.0 mm
01:15 PM 62.3°F16.8°C 40.1°F4.5°C 44% 17.0 mph SSW27.4 kmh SSW 25.0 mph40.2 kmh 29.96 in1014.6 mb 0.00 in0.0 mm 0.00 in/hr0.0 mm/hr 0.00 in0.0 mm
01:16 PM 62.3°F16.8°C 40.1°F4.5°C 44% 23.0 mph SW37.0 kmh SW 25.0 mph40.2 kmh 29.95 in1014.2 mb 0.00 in0.0 mm 0.00 in/hr0.0 mm/hr 0.00 in0.0 mm
01:17 PM 62.4°F16.9°C 39.0°F3.9°C 42% 19.0 mph SW30.6 kmh SW 25.0 mph40.2 kmh 29.95 in1014.2 mb 0.00 in0.0 mm 0.00 in/hr0.0 mm/hr 0.00 in0.0 mm
01:18 PM 62.4°F16.9°C 39.0°F3.9°C 42% 16.0 mph SW25.7 kmh SW 26.0 mph41.8 kmh 29.95 in1014.2 mb 0.00 in0.0 mm 0.00 in/hr0.0 mm/hr 0.00 in0.0 mm
01:20 PM 62.3°F16.8°C 37.7°F3.2°C 40% 20.0 mph SW32.2 kmh SW 26.0 mph41.8 kmh 29.95 in1014.2 mb 0.00 in0.0 mm 0.00 in/hr0.0 mm/hr 0.00 in0.0 mm
01:21 PM 62.3°F16.8°C 38.9°F3.8°C 42% 16.0 mph SW25.7 kmh SW 26.0 mph41.8 kmh 29.95 in1014.2 mb 0.00 in0.0 mm 0.00 in/hr0.0 mm/hr 0.00 in0.0 mm
01:22 PM 62.3°F16.8°C 38.3°F3.5°C 41% 13.0 mph SW20.9 kmh SW 26.0 mph41.8 kmh 29.95 in1014.2 mb 0.00 in0.0 mm 0.00 in/hr0.0 mm/hr 0.00 in0.0 mm
01:24 PM 62.4°F16.9°C 39.6°F4.2°C 43% 13.0 mph SW20.9 kmh SW 26.0 mph41.8 kmh 29.95 in1014.2 mb 0.00 in0.0 mm 0.00 in/hr0.0 mm/hr 0.00 in0.0 mm
01:25 PM 62.5°F16.9°C 39.7°F4.3°C 43% 14.0 mph SW22.5 kmh SW 26.0 mph41.8 kmh 29.95 in1014.2 mb 0.00 in0.0 mm 0.00 in/hr0.0 mm/hr 0.00 in0.0 mm
01:27 PM 62.7°F17.1°C 39.9°F4.4°C 43% 13.0 mph SW20.9 kmh SW 26.0 mph41.8 kmh 29.95 in1014.2 mb 0.00 in0.0 mm 0.00 in/hr0.0 mm/hr 0.00 in0.0 mm
01:28 PM 62.8°F17.1°C 40.0°F4.4°C 43% 17.0 mph SW27.4 kmh SW 26.0 mph41.8 kmh 29.95 in1014.2 mb 0.00 in0.0 mm 0.00 in/hr0.0 mm/hr 0.00 in0.0 mm
01:30 PM 62.8°F17.1°C 38.1°F3.4°C 40% 23.0 mph SSW37.0 kmh SSW 26.0 mph41.8 kmh 29.95 in1014.2 mb 0.00 in0.0 mm 0.00 in/hr0.0 mm/hr 0.00 in0.0 mm
01:31 PM 62.8°F17.1°C 38.1°F3.4°C 40% 15.0 mph SW24.1 kmh SW 26.0 mph41.8 kmh 29.95 in1014.2 mb 0.00 in0.0 mm 0.00 in/hr0.0 mm/hr 0.00 in0.0 mm
01:32 PM 62.8°F17.1°C 39.4°F4.1°C 42% 15.0 mph SSW24.1 kmh SSW 26.0 mph41.8 kmh 29.95 in1014.2 mb 0.00 in0.0 mm 0.00 in/hr0.0 mm/hr 0.00 in0.0 mm
01:34 PM 62.8°F17.1°C 38.1°F3.4°C 40% 19.0 mph SW30.6 kmh SW 26.0 mph41.8 kmh 29.95 in1014.2 mb 0.00 in0.0 mm 0.00 in/hr0.0 mm/hr 0.00 in0.0 mm
01:35 PM 62.8°F17.1°C 38.8°F3.8°C 41% 21.0 mph SW33.8 kmh SW 26.0 mph41.8 kmh 29.95 in1014.2 mb 0.00 in0.0 mm 0.00 in/hr0.0 mm/hr 0.00 in0.0 mm
01:37 PM 62.9°F17.2°C 36.9°F2.7°C 38% 13.0 mph SW20.9 kmh SW 26.0 mph41.8 kmh 29.94 in1013.9 mb 0.00 in0.0 mm 0.00 in/hr0.0 mm/hr 0.00 in0.0 mm
01:38 PM 62.9°F17.2°C 38.2°F3.4°C 40% 15.0 mph SSW24.1 kmh SSW 26.0 mph41.8 kmh 29.95 in1014.2 mb 0.00 in0.0 mm 0.00 in/hr0.0 mm/hr 0.00 in0.0 mm
01:40 PM 63.0°F17.2°C 38.3°F3.5°C 40% 14.0 mph SW22.5 kmh SW 26.0 mph41.8 kmh 29.94 in1013.9 mb 0.00 in0.0 mm 0.00 in/hr0.0 mm/hr 0.00 in0.0 mm
01:41 PM 63.0°F17.2°C 39.0°F3.9°C 41% 14.0 mph SW22.5 kmh SW 26.0 mph41.8 kmh 29.94 in1013.9 mb 0.00 in0.0 mm 0.00 in/hr0.0 mm/hr 0.00 in0.0 mm
01:42 PM 63.0°F17.2°C 38.3°F3.5°C 40% 17.0 mph SW27.4 kmh SW 26.0 mph41.8 kmh 29.94 in1013.9 mb 0.00 in0.0 mm 0.00 in/hr0.0 mm/hr 0.00 in0.0 mm
01:43 PM 63.0°F17.2°C 38.3°F3.5°C 40% 21.0 mph SW33.8 kmh SW 26.0 mph41.8 kmh 29.94 in1013.9 mb 0.00 in0.0 mm 0.00 in/hr0.0 mm/hr 0.00 in0.0 mm
01:44 PM 63.0°F17.2°C 37.7°F3.2°C 39% 25.0 mph SW40.2 kmh SW 26.0 mph41.8 kmh 29.94 in1013.9 mb 0.00 in0.0 mm 0.00 in/hr0.0 mm/hr 0.00 in0.0 mm
01:45 PM 62.9°F17.2°C 37.6°F3.1°C 39% 21.0 mph SSW33.8 kmh SSW 26.0 mph41.8 kmh 29.94 in1013.9 mb 0.00 in0.0 mm 0.00 in/hr0.0 mm/hr 0.00 in0.0 mm
01:46 PM 62.9°F17.2°C 37.6°F3.1°C 39% 16.0 mph SW25.7 kmh SW 26.0 mph41.8 kmh 29.94 in1013.9 mb 0.00 in0.0 mm 0.00 in/hr0.0 mm/hr 0.00 in0.0 mm
01:47 PM 62.9°F17.2°C 37.6°F3.1°C 39% 18.0 mph SW29.0 kmh SW 26.0 mph41.8 kmh 29.94 in1013.9 mb 0.00 in0.0 mm 0.00 in/hr0.0 mm/hr 0.00 in0.0 mm
01:49 PM 63.0°F17.2°C 37.0°F2.8°C 38% 14.0 mph SW22.5 kmh SW 26.0 mph41.8 kmh 29.94 in1013.9 mb 0.00 in0.0 mm 0.00 in/hr0.0 mm/hr 0.00 in0.0 mm
01:50 PM 63.1°F17.3°C 37.8°F3.2°C 39% 10.0 mph SW16.1 kmh SW 26.0 mph41.8 kmh 29.94 in1013.9 mb 0.00 in0.0 mm 0.00 in/hr0.0 mm/hr 0.00 in0.0 mm
01:51 PM 63.2°F17.3°C 39.8°F4.3°C 42% 11.0 mph SW17.7 kmh SW 26.0 mph41.8 kmh 29.94 in1013.9 mb 0.00 in0.0 mm 0.00 in/hr0.0 mm/hr 0.00 in0.0 mm
01:52 PM 63.4°F17.4°C 39.9°F4.4°C 42% 16.0 mph SW25.7 kmh SW 26.0 mph41.8 kmh 29.94 in1013.9 mb 0.00 in0.0 mm 0.00 in/hr0.0 mm/hr 0.00 in0.0 mm
01:54 PM 63.6°F17.6°C 38.9°F3.8°C 40% 14.0 mph SW22.5 kmh SW 26.0 mph41.8 kmh 29.94 in1013.9 mb 0.00 in0.0 mm 0.00 in/hr0.0 mm/hr 0.00 in0.0 mm
01:55 PM 63.6°F17.6°C 38.9°F3.8°C 40% 17.0 mph SSW27.4 kmh SSW 26.0 mph41.8 kmh 29.94 in1013.9 mb 0.00 in0.0 mm 0.00 in/hr0.0 mm/hr 0.00 in0.0 mm
01:57 PM 63.5°F17.5°C 37.5°F3.1°C 38% 14.0 mph SW22.5 kmh SW 26.0 mph41.8 kmh 29.94 in1013.9 mb 0.00 in0.0 mm 0.00 in/hr0.0 mm/hr 0.00 in0.0 mm
01:58 PM 63.5°F17.5°C 39.4°F4.1°C 41% 23.0 mph SSW37.0 kmh SSW 26.0 mph41.8 kmh 29.94 in1013.9 mb 0.00 in0.0 mm 0.00 in/hr0.0 mm/hr 0.00 in0.0 mm
02:00 PM 63.4°F17.4°C 38.0°F3.3°C 39% 17.0 mph SSW27.4 kmh SSW 27.0 mph43.5 kmh 29.94 in1013.9 mb 0.00 in0.0 mm 0.00 in/hr0.0 mm/hr 0.00 in0.0 mm
02:01 PM 63.3°F17.4°C 37.3°F2.9°C 38% 15.0 mph SSW24.1 kmh SSW 21.0 mph33.8 kmh 29.94 in1013.9 mb 0.00 in0.0 mm 0.00 in/hr0.0 mm/hr 0.00 in0.0 mm
02:02 PM 63.2°F17.3°C 37.2°F2.9°C 38% 21.0 mph S33.8 kmh S 28.0 mph45.1 kmh 29.94 in1013.9 mb 0.00 in0.0 mm 0.00 in/hr0.0 mm/hr 0.00 in0.0 mm
02:04 PM 63.2°F17.3°C 37.9°F3.3°C 39% 18.0 mph SW29.0 kmh SW 28.0 mph45.1 kmh 29.94 in1013.9 mb 0.00 in0.0 mm 0.00 in/hr0.0 mm/hr 0.00 in0.0 mm
02:05 PM 63.2°F17.3°C 39.1°F3.9°C 41% 20.0 mph SW32.2 kmh SW 28.0 mph45.1 kmh 29.94 in1013.9 mb 0.00 in0.0 mm 0.00 in/hr0.0 mm/hr 0.00 in0.0 mm
02:07 PM 63.2°F17.3°C 38.5°F3.6°C 40% 21.0 mph SW33.8 kmh SW 28.0 mph45.1 kmh 29.94 in1013.9 mb 0.00 in0.0 mm 0.00 in/hr0.0 mm/hr 0.00 in0.0 mm
02:09 PM 63.2°F17.3°C 37.9°F3.3°C 39% 17.0 mph SSW27.4 kmh SSW 28.0 mph45.1 kmh 29.94 in1013.9 mb 0.00 in0.0 mm 0.00 in/hr0.0 mm/hr 0.00 in0.0 mm
02:10 PM 63.2°F17.3°C 37.9°F3.3°C 39% 18.0 mph SW29.0 kmh SW 30.0 mph48.3 kmh 29.94 in1013.9 mb 0.00 in0.0 mm 0.00 in/hr0.0 mm/hr 0.00 in0.0 mm
02:12 PM 63.2°F17.3°C 37.9°F3.3°C 39% 12.0 mph SW19.3 kmh SW 30.0 mph48.3 kmh 29.94 in1013.9 mb 0.00 in0.0 mm 0.00 in/hr0.0 mm/hr 0.00 in0.0 mm
02:14 PM 63.3°F17.4°C 38.6°F3.7°C 40% 15.0 mph SW24.1 kmh SW 30.0 mph48.3 kmh 29.94 in1013.9 mb 0.00 in0.0 mm 0.00 in/hr0.0 mm/hr 0.00 in0.0 mm
02:15 PM 63.3°F17.4°C 38.6°F3.7°C 40% 12.0 mph SSW19.3 kmh SSW 30.0 mph48.3 kmh 29.94 in1013.9 mb 0.00 in0.0 mm 0.00 in/hr0.0 mm/hr 0.00 in0.0 mm
02:16 PM 63.3°F17.4°C 38.6°F3.7°C 40% 17.0 mph SW27.4 kmh SW 30.0 mph48.3 kmh 29.94 in1013.9 mb 0.00 in0.0 mm 0.00 in/hr0.0 mm/hr 0.00 in0.0 mm
02:18 PM 63.3°F17.4°C 38.0°F3.3°C 39% 25.0 mph SW40.2 kmh SW 30.0 mph48.3 kmh 29.93 in1013.5 mb 0.00 in0.0 mm 0.00 in/hr0.0 mm/hr 0.00 in0.0 mm
02:19 PM 63.3°F17.4°C 37.3°F2.9°C 38% 23.0 mph SW37.0 kmh SW 30.0 mph48.3 kmh 29.93 in1013.5 mb 0.00 in0.0 mm 0.00 in/hr0.0 mm/hr 0.00 in0.0 mm
02:20 PM 63.2°F17.3°C 37.9°F3.3°C 39% 22.0 mph SW35.4 kmh SW 30.0 mph48.3 kmh 29.93 in1013.5 mb 0.00 in0.0 mm 0.00 in/hr0.0 mm/hr 0.00 in0.0 mm
02:21 PM 63.2°F17.3°C 37.2°F2.9°C 38% 16.0 mph SW25.7 kmh SW 30.0 mph48.3 kmh 29.93 in1013.5 mb 0.00 in0.0 mm 0.00 in/hr0.0 mm/hr 0.00 in0.0 mm
02:22 PM 63.2°F17.3°C 37.2°F2.9°C 38% 22.0 mph SW35.4 kmh SW 30.0 mph48.3 kmh 29.93 in1013.5 mb 0.00 in0.0 mm 0.00 in/hr0.0 mm/hr 0.00 in0.0 mm
02:23 PM 63.2°F17.3°C 37.9°F3.3°C 39% 17.0 mph SSW27.4 kmh SSW 30.0 mph48.3 kmh 29.93 in1013.5 mb 0.00 in0.0 mm 0.00 in/hr0.0 mm/hr 0.00 in0.0 mm
02:25 PM 63.2°F17.3°C 37.9°F3.3°C 39% 19.0 mph SW30.6 kmh SW 30.0 mph48.3 kmh 29.93 in1013.5 mb 0.00 in0.0 mm 0.00 in/hr0.0 mm/hr 0.00 in0.0 mm
02:27 PM 63.3°F17.4°C 38.6°F3.7°C 40% 19.0 mph SSW30.6 kmh SSW 30.0 mph48.3 kmh 29.93 in1013.5 mb 0.00 in0.0 mm 0.00 in/hr0.0 mm/hr 0.00 in0.0 mm
02:28 PM 63.4°F17.4°C 38.7°F3.7°C 40% 15.0 mph SSW24.1 kmh SSW 30.0 mph48.3 kmh 29.93 in1013.5 mb 0.00 in0.0 mm 0.00 in/hr0.0 mm/hr 0.00 in0.0 mm
02:30 PM 63.5°F17.5°C 38.8°F3.8°C 40% 18.0 mph SW29.0 kmh SW 30.0 mph48.3 kmh 29.93 in1013.5 mb 0.00 in0.0 mm 0.00 in/hr0.0 mm/hr 0.00 in0.0 mm
02:31 PM 63.5°F17.5°C 38.1°F3.4°C 39% 13.0 mph SW20.9 kmh SW 18.0 mph29.0 kmh 29.93 in1013.5 mb 0.00 in0.0 mm 0.00 in/hr0.0 mm/hr 0.00 in0.0 mm
02:32 PM 63.6°F17.6°C 38.9°F3.8°C 40% 14.0 mph SW22.5 kmh SW 21.0 mph33.8 kmh 29.93 in1013.5 mb 0.00 in0.0 mm 0.00 in/hr0.0 mm/hr 0.00 in0.0 mm
02:33 PM 63.7°F17.6°C 39.6°F4.2°C 41% 13.0 mph SW20.9 kmh SW 21.0 mph33.8 kmh 29.93 in1013.5 mb 0.00 in0.0 mm 0.00 in/hr0.0 mm/hr 0.00 in0.0 mm
02:34 PM 63.8°F17.7°C 39.0°F3.9°C 40% 15.0 mph SW24.1 kmh SW 22.0 mph35.4 kmh 29.93 in1013.5 mb 0.00 in0.0 mm 0.00 in/hr0.0 mm/hr 0.00 in0.0 mm
02:36 PM 63.9°F17.7°C 40.4°F4.7°C 42% 25.0 mph SW40.2 kmh SW 26.0 mph41.8 kmh 29.93 in1013.5 mb 0.00 in0.0 mm 0.00 in/hr0.0 mm/hr 0.00 in0.0 mm
02:37 PM 63.9°F17.7°C 37.1°F2.8°C 37% 24.0 mph SW38.6 kmh SW 26.0 mph41.8 kmh 29.93 in1013.5 mb 0.00 in0.0 mm 0.00 in/hr0.0 mm/hr 0.00 in0.0 mm
02:39 PM 63.9°F17.7°C 36.5°F2.5°C 36% 15.0 mph SW24.1 kmh SW 27.0 mph43.5 kmh 29.93 in1013.5 mb 0.00 in0.0 mm 0.00 in/hr0.0 mm/hr 0.00 in0.0 mm
02:40 PM 63.9°F17.7°C 39.1°F3.9°C 40% 21.0 mph SW33.8 kmh SW 27.0 mph43.5 kmh 29.93 in1013.5 mb 0.00 in0.0 mm 0.00 in/hr0.0 mm/hr 0.00 in0.0 mm
02:41 PM 63.9°F17.7°C 39.1°F3.9°C 40% 18.0 mph SW29.0 kmh SW 27.0 mph43.5 kmh 29.93 in1013.5 mb 0.00 in0.0 mm 0.00 in/hr0.0 mm/hr 0.00 in0.0 mm
02:42 PM 63.9°F17.7°C 37.8°F3.2°C 38% 22.0 mph SW35.4 kmh SW 27.0 mph43.5 kmh 29.93 in1013.5 mb 0.00 in0.0 mm 0.00 in/hr0.0 mm/hr 0.00 in0.0 mm
02:44 PM 63.9°F17.7°C 38.5°F3.6°C 39% 25.0 mph SW40.2 kmh SW 27.0 mph43.5 kmh 29.93 in1013.5 mb 0.00 in0.0 mm 0.00 in/hr0.0 mm/hr 0.00 in0.0 mm
02:45 PM 63.9°F17.7°C 37.8°F3.2°C 38% 20.0 mph SSW32.2 kmh SSW 27.0 mph43.5 kmh 29.92 in1013.2 mb 0.00 in0.0 mm 0.00 in/hr0.0 mm/hr 0.00 in0.0 mm
02:46 PM 63.9°F17.7°C 37.1°F2.8°C 37% 16.0 mph SW25.7 kmh SW 27.0 mph43.5 kmh 29.92 in1013.2 mb 0.00 in0.0 mm 0.00 in/hr0.0 mm/hr 0.00 in0.0 mm
02:47 PM 64.0°F17.8°C 37.9°F3.3°C 38% 15.0 mph SSW24.1 kmh SSW 27.0 mph43.5 kmh 29.93 in1013.5 mb 0.00 in0.0 mm 0.00 in/hr0.0 mm/hr 0.00 in0.0 mm
02:48 PM 63.9°F17.7°C 39.1°F3.9°C 40% 14.0 mph SW22.5 kmh SW 27.0 mph43.5 kmh 29.93 in1013.5 mb 0.00 in0.0 mm 0.00 in/hr0.0 mm/hr 0.00 in0.0 mm
02:49 PM 63.9°F17.7°C 37.8°F3.2°C 38% 14.0 mph SW22.5 kmh SW 27.0 mph43.5 kmh 29.93 in1013.5 mb 0.00 in0.0 mm 0.00 in/hr0.0 mm/hr 0.00 in0.0 mm
02:50 PM 63.9°F17.7°C 39.8°F4.3°C 41% 14.0 mph SW22.5 kmh SW 27.0 mph43.5 kmh 29.93 in1013.5 mb 0.00 in0.0 mm 0.00 in/hr0.0 mm/hr 0.00 in0.0 mm
02:51 PM 63.9°F17.7°C 40.4°F4.7°C 42% 23.0 mph SSW37.0 kmh SSW 27.0 mph43.5 kmh 29.93 in1013.5 mb 0.00 in0.0 mm 0.00 in/hr0.0 mm/hr 0.00 in0.0 mm
02:52 PM 64.0°F17.8°C 38.6°F3.7°C 39% 21.0 mph SW33.8 kmh SW 27.0 mph43.5 kmh 29.93 in1013.5 mb 0.02 in0.5 mm 1.20 in/hr30.5 mm/hr 0.02 in0.5 mm
02:54 PM 64.0°F17.8°C 36.5°F2.5°C 36% 16.0 mph SW25.7 kmh SW 27.0 mph43.5 kmh 29.93 in1013.5 mb 0.02 in0.5 mm 0.00 in/hr0.0 mm/hr 0.02 in0.5 mm
02:55 PM 63.9°F17.7°C 37.1°F2.8°C 37% 14.0 mph SW22.5 kmh SW 27.0 mph43.5 kmh 29.92 in1013.2 mb 0.02 in0.5 mm 0.00 in/hr0.0 mm/hr 0.02 in0.5 mm
02:56 PM 63.9°F17.7°C 37.1°F2.8°C 37% 20.0 mph SW32.2 kmh SW 27.0 mph43.5 kmh 29.93 in1013.5 mb 0.02 in0.5 mm 0.00 in/hr0.0 mm/hr 0.02 in0.5 mm
02:57 PM 63.8°F17.7°C 37.7°F3.2°C 38% 13.0 mph SW20.9 kmh SW 27.0 mph43.5 kmh 29.93 in1013.5 mb 0.02 in0.5 mm 0.00 in/hr0.0 mm/hr 0.02 in0.5 mm
02:59 PM 63.8°F17.7°C 39.0°F3.9°C 40% 17.0 mph SSW27.4 kmh SSW 27.0 mph43.5 kmh 29.93 in1013.5 mb 0.02 in0.5 mm 0.00 in/hr0.0 mm/hr 0.02 in0.5 mm
03:00 PM 63.8°F17.7°C 38.4°F3.6°C 39% 16.0 mph SW25.7 kmh SW 27.0 mph43.5 kmh 29.93 in1013.5 mb 0.02 in0.5 mm 0.00 in/hr0.0 mm/hr 0.02 in0.5 mm
03:01 PM 63.8°F17.7°C 38.4°F3.6°C 39% 16.0 mph SSW25.7 kmh SSW 17.0 mph27.4 kmh 29.92 in1013.2 mb 0.02 in0.5 mm 0.00 in/hr0.0 mm/hr 0.02 in0.5 mm
03:02 PM 63.9°F17.7°C 38.5°F3.6°C 39% 16.0 mph SW25.7 kmh SW 22.0 mph35.4 kmh 29.92 in1013.2 mb 0.02 in0.5 mm 0.00 in/hr0.0 mm/hr 0.02 in0.5 mm
03:03 PM 63.9°F17.7°C 38.5°F3.6°C 39% 14.0 mph SW22.5 kmh SW 22.0 mph35.4 kmh 29.92 in1013.2 mb 0.02 in0.5 mm 0.00 in/hr0.0 mm/hr 0.02 in0.5 mm
03:04 PM 63.9°F17.7°C 37.8°F3.2°C 38% 16.0 mph S25.7 kmh S 26.0 mph41.8 kmh 29.92 in1013.2 mb 0.02 in0.5 mm 0.00 in/hr0.0 mm/hr 0.02 in0.5 mm
03:06 PM 64.0°F17.8°C 39.2°F4.0°C 40% 18.0 mph SSW29.0 kmh SSW 26.0 mph41.8 kmh 29.92 in1013.2 mb 0.02 in0.5 mm 0.00 in/hr0.0 mm/hr 0.02 in0.5 mm
03:08 PM 64.0°F17.8°C 38.6°F3.7°C 39% 17.0 mph SSW27.4 kmh SSW 26.0 mph41.8 kmh 29.92 in1013.2 mb 0.02 in0.5 mm 0.00 in/hr0.0 mm/hr 0.02 in0.5 mm
03:09 PM 64.0°F17.8°C 39.2°F4.0°C 40% 15.0 mph SW24.1 kmh SW 26.0 mph41.8 kmh 29.92 in1013.2 mb 0.02 in0.5 mm 0.00 in/hr0.0 mm/hr 0.02 in0.5 mm
03:10 PM 64.1°F17.8°C 38.7°F3.7°C 39% 18.0 mph S29.0 kmh S 26.0 mph41.8 kmh 29.92 in1013.2 mb 0.02 in0.5 mm 0.00 in/hr0.0 mm/hr 0.02 in0.5 mm
03:11 PM 64.1°F17.8°C 38.7°F3.7°C 39% 14.0 mph SW22.5 kmh SW 15.0 mph24.1 kmh 29.92 in1013.2 mb 0.02 in0.5 mm 0.00 in/hr0.0 mm/hr 0.02 in0.5 mm
03:12 PM 64.1°F17.8°C 39.9°F4.4°C 41% 16.0 mph SSW25.7 kmh SSW 21.0 mph33.8 kmh 29.92 in1013.2 mb 0.02 in0.5 mm 0.00 in/hr0.0 mm/hr 0.02 in0.5 mm
03:13 PM 64.1°F17.8°C 39.3°F4.1°C 40% 15.0 mph SSW24.1 kmh SSW 21.0 mph33.8 kmh 29.92 in1013.2 mb 0.02 in0.5 mm 0.00 in/hr0.0 mm/hr 0.02 in0.5 mm
03:14 PM 64.1°F17.8°C 38.7°F3.7°C 39% 19.0 mph SW30.6 kmh SW 21.0 mph33.8 kmh 29.92 in1013.2 mb 0.02 in0.5 mm 0.00 in/hr0.0 mm/hr 0.02 in0.5 mm
03:15 PM 64.2°F17.9°C 38.1°F3.4°C 38% 12.0 mph SW19.3 kmh SW 21.0 mph33.8 kmh 29.92 in1013.2 mb 0.02 in0.5 mm 0.00 in/hr0.0 mm/hr 0.02 in0.5 mm
03:16 PM 64.3°F17.9°C 38.2°F3.4°C 38% 17.0 mph SW27.4 kmh SW 21.0 mph33.8 kmh 29.92 in1013.2 mb 0.02 in0.5 mm 0.00 in/hr0.0 mm/hr 0.02 in0.5 mm
03:18 PM 64.3°F17.9°C 38.2°F3.4°C 38% 21.0 mph SW33.8 kmh SW 29.0 mph46.7 kmh 29.92 in1013.2 mb 0.02 in0.5 mm 0.00 in/hr0.0 mm/hr 0.02 in0.5 mm
03:19 PM 64.4°F18.0°C 37.6°F3.1°C 37% 20.0 mph SW32.2 kmh SW 29.0 mph46.7 kmh 29.92 in1013.2 mb 0.02 in0.5 mm 0.00 in/hr0.0 mm/hr 0.02 in0.5 mm
03:20 PM 64.4°F18.0°C 38.3°F3.5°C 38% 13.0 mph SW20.9 kmh SW 29.0 mph46.7 kmh 29.92 in1013.2 mb 0.02 in0.5 mm 0.00 in/hr0.0 mm/hr 0.02 in0.5 mm
03:21 PM 64.4°F18.0°C 38.3°F3.5°C 38% 16.0 mph SSW25.7 kmh SSW 29.0 mph46.7 kmh 29.92 in1013.2 mb 0.02 in0.5 mm 0.00 in/hr0.0 mm/hr 0.02 in0.5 mm
03:22 PM 64.4°F18.0°C 37.6°F3.1°C 37% 16.0 mph SW25.7 kmh SW 29.0 mph46.7 kmh 29.92 in1013.2 mb 0.02 in0.5 mm 0.00 in/hr0.0 mm/hr 0.02 in0.5 mm
03:24 PM 64.4°F18.0°C 37.6°F3.1°C 37% 16.0 mph SSW25.7 kmh SSW 29.0 mph46.7 kmh 29.92 in1013.2 mb 0.02 in0.5 mm 0.00 in/hr0.0 mm/hr 0.02 in0.5 mm
03:26 PM 64.5°F18.1°C 39.7°F4.3°C 40% 15.0 mph SSW24.1 kmh SSW 29.0 mph46.7 kmh 29.92 in1013.2 mb 0.02 in0.5 mm 0.00 in/hr0.0 mm/hr 0.02 in0.5 mm
03:27 PM 64.4°F18.0°C 38.9°F3.8°C 39% 14.0 mph SW22.5 kmh SW 29.0 mph46.7 kmh 29.92 in1013.2 mb 0.02 in0.5 mm 0.00 in/hr0.0 mm/hr 0.02 in0.5 mm
03:28 PM 64.5°F18.1°C 39.0°F3.9°C 39% 13.0 mph S20.9 kmh S 29.0 mph46.7 kmh 29.92 in1013.2 mb 0.02 in0.5 mm 0.00 in/hr0.0 mm/hr 0.02 in0.5 mm
03:29 PM 64.5°F18.1°C 39.0°F3.9°C 39% 18.0 mph SW29.0 kmh SW 29.0 mph46.7 kmh 29.92 in1013.2 mb 0.02 in0.5 mm 0.00 in/hr0.0 mm/hr 0.02 in0.5 mm
03:30 PM 64.5°F18.1°C 39.0°F3.9°C 39% 14.0 mph SW22.5 kmh SW 29.0 mph46.7 kmh 29.92 in1013.2 mb 0.02 in0.5 mm 0.00 in/hr0.0 mm/hr 0.02 in0.5 mm
03:31 PM 64.4°F18.0°C 39.6°F4.2°C 40% 14.0 mph SW22.5 kmh SW 19.0 mph30.6 kmh 29.92 in1013.2 mb 0.02 in0.5 mm 0.00 in/hr0.0 mm/hr 0.02 in0.5 mm
03:32 PM 64.4°F18.0°C 39.6°F4.2°C 40% 18.0 mph SW29.0 kmh SW 20.0 mph32.2 kmh 29.92 in1013.2 mb 0.02 in0.5 mm 0.00 in/hr0.0 mm/hr 0.02 in0.5 mm
03:34 PM 64.3°F17.9°C 38.8°F3.8°C 39% 18.0 mph SW29.0 kmh SW 23.0 mph37.0 kmh 29.92 in1013.2 mb 0.02 in0.5 mm 0.00 in/hr0.0 mm/hr 0.02 in0.5 mm
03:35 PM 64.3°F17.9°C 38.2°F3.4°C 38% 14.0 mph SW22.5 kmh SW 23.0 mph37.0 kmh 29.92 in1013.2 mb 0.02 in0.5 mm 0.00 in/hr0.0 mm/hr 0.02 in0.5 mm
03:37 PM 64.3°F17.9°C 38.2°F3.4°C 38% 12.0 mph SSW19.3 kmh SSW 23.0 mph37.0 kmh 29.92 in1013.2 mb 0.02 in0.5 mm 0.00 in/hr0.0 mm/hr 0.02 in0.5 mm
03:39 PM 64.2°F17.9°C 39.4°F4.1°C 40% 20.0 mph SSW32.2 kmh SSW 23.0 mph37.0 kmh 29.92 in1013.2 mb 0.02 in0.5 mm 0.00 in/hr0.0 mm/hr 0.02 in0.5 mm
03:40 PM 64.2°F17.9°C 39.4°F4.1°C 40% 14.0 mph SSW22.5 kmh SSW 23.0 mph37.0 kmh 29.92 in1013.2 mb 0.02 in0.5 mm 0.00 in/hr0.0 mm/hr 0.02 in0.5 mm
03:42 PM 64.1°F17.8°C 39.3°F4.1°C 40% 15.0 mph SW24.1 kmh SW 23.0 mph37.0 kmh 29.92 in1013.2 mb 0.02 in0.5 mm 0.00 in/hr0.0 mm/hr 0.02 in0.5 mm
03:43 PM 64.1°F17.8°C 39.3°F4.1°C 40% 20.0 mph SW32.2 kmh SW 24.0 mph38.6 kmh 29.92 in1013.2 mb 0.02 in0.5 mm 0.00 in/hr0.0 mm/hr 0.02 in0.5 mm
03:45 PM 64.1°F17.8°C 38.0°F3.3°C 38% 14.0 mph SSW22.5 kmh SSW 24.0 mph38.6 kmh 29.92 in1013.2 mb 0.02 in0.5 mm 0.00 in/hr0.0 mm/hr 0.02 in0.5 mm
03:46 PM 64.1°F17.8°C 38.7°F3.7°C 39% 14.0 mph S22.5 kmh S 24.0 mph38.6 kmh 29.92 in1013.2 mb 0.02 in0.5 mm 0.00 in/hr0.0 mm/hr 0.02 in0.5 mm
03:48 PM 64.0°F17.8°C 39.2°F4.0°C 40% 16.0 mph SW25.7 kmh SW 24.0 mph38.6 kmh 29.92 in1013.2 mb 0.02 in0.5 mm 0.00 in/hr0.0 mm/hr 0.02 in0.5 mm
03:50 PM 64.0°F17.8°C 37.9°F3.3°C 38% 20.0 mph SW32.2 kmh SW 24.0 mph38.6 kmh 29.92 in1013.2 mb 0.02 in0.5 mm 0.00 in/hr0.0 mm/hr 0.02 in0.5 mm
03:51 PM 64.0°F17.8°C 37.9°F3.3°C 38% 16.0 mph SSW25.7 kmh SSW 24.0 mph38.6 kmh 29.92 in1013.2 mb 0.02 in0.5 mm 0.00 in/hr0.0 mm/hr 0.02 in0.5 mm
03:52 PM 64.0°F17.8°C 39.2°F4.0°C 40% 17.0 mph SW27.4 kmh SW 24.0 mph38.6 kmh 29.92 in1013.2 mb 0.02 in0.5 mm 0.00 in/hr0.0 mm/hr 0.02 in0.5 mm
03:53 PM 64.0°F17.8°C 38.6°F3.7°C 39% 17.0 mph SSW27.4 kmh SSW 24.0 mph38.6 kmh 29.92 in1013.2 mb 0.02 in0.5 mm 0.00 in/hr0.0 mm/hr 0.02 in0.5 mm
03:54 PM 64.0°F17.8°C 38.6°F3.7°C 39% 17.0 mph SSW27.4 kmh SSW 25.0 mph40.2 kmh 29.92 in1013.2 mb 0.02 in0.5 mm 0.00 in/hr0.0 mm/hr 0.02 in0.5 mm
03:55 PM 64.0°F17.8°C 38.6°F3.7°C 39% 16.0 mph SW25.7 kmh SW 25.0 mph40.2 kmh 29.92 in1013.2 mb 0.02 in0.5 mm 0.00 in/hr0.0 mm/hr 0.02 in0.5 mm
03:57 PM 64.0°F17.8°C 38.6°F3.7°C 39% 11.0 mph SW17.7 kmh SW 25.0 mph40.2 kmh 29.92 in1013.2 mb 0.02 in0.5 mm 0.00 in/hr0.0 mm/hr 0.02 in0.5 mm
03:58 PM 64.0°F17.8°C 37.9°F3.3°C 38% 16.0 mph SSW25.7 kmh SSW 25.0 mph40.2 kmh 29.92 in1013.2 mb 0.02 in0.5 mm 0.00 in/hr0.0 mm/hr 0.02 in0.5 mm
03:59 PM 64.0°F17.8°C 38.6°F3.7°C 39% 16.0 mph SSW25.7 kmh SSW 25.0 mph40.2 kmh 29.92 in1013.2 mb 0.02 in0.5 mm 0.00 in/hr0.0 mm/hr 0.02 in0.5 mm
04:00 PM 64.0°F17.8°C 38.6°F3.7°C 39% 18.0 mph SW29.0 kmh SW 25.0 mph40.2 kmh 29.92 in1013.2 mb 0.02 in0.5 mm 0.00 in/hr0.0 mm/hr 0.02 in0.5 mm
04:01 PM 64.0°F17.8°C 40.5°F4.7°C 42% 18.0 mph SSW29.0 kmh SSW 18.0 mph29.0 kmh 29.92 in1013.2 mb 0.00 in0.0 mm 0.00 in/hr0.0 mm/hr 0.02 in0.5 mm
04:03 PM 64.0°F17.8°C 37.9°F3.3°C 38% 14.0 mph SW22.5 kmh SW 20.0 mph32.2 kmh 29.92 in1013.2 mb 0.00 in0.0 mm 0.00 in/hr0.0 mm/hr 0.02 in0.5 mm
04:05 PM 64.0°F17.8°C 38.6°F3.7°C 39% 13.0 mph SW20.9 kmh SW 20.0 mph32.2 kmh 29.92 in1013.2 mb 0.00 in0.0 mm 0.00 in/hr0.0 mm/hr 0.02 in0.5 mm
04:06 PM 64.0°F17.8°C 39.2°F4.0°C 40% 12.0 mph SW19.3 kmh SW 20.0 mph32.2 kmh 29.92 in1013.2 mb 0.00 in0.0 mm 0.00 in/hr0.0 mm/hr 0.02 in0.5 mm
04:07 PM 63.9°F17.7°C 40.4°F4.7°C 42% 18.0 mph SW29.0 kmh SW 20.0 mph32.2 kmh 29.92 in1013.2 mb 0.00 in0.0 mm 0.00 in/hr0.0 mm/hr 0.02 in0.5 mm
04:09 PM 63.9°F17.7°C 39.8°F4.3°C 41% 15.0 mph SW24.1 kmh SW 20.0 mph32.2 kmh 29.92 in1013.2 mb 0.00 in0.0 mm 0.00 in/hr0.0 mm/hr 0.02 in0.5 mm
04:10 PM 63.9°F17.7°C 39.8°F4.3°C 41% 13.0 mph SW20.9 kmh SW 20.0 mph32.2 kmh 29.92 in1013.2 mb 0.00 in0.0 mm 0.00 in/hr0.0 mm/hr 0.02 in0.5 mm
04:11 PM 63.9°F17.7°C 40.4°F4.7°C 42% 13.0 mph SW20.9 kmh SW 20.0 mph32.2 kmh 29.92 in1013.2 mb 0.00 in0.0 mm 0.00 in/hr0.0 mm/hr 0.02 in0.5 mm
04:12 PM 63.9°F17.7°C 39.8°F4.3°C 41% 14.0 mph SSW22.5 kmh SSW 20.0 mph32.2 kmh 29.92 in1013.2 mb 0.00 in0.0 mm 0.00 in/hr0.0 mm/hr 0.02 in0.5 mm
04:14 PM 63.8°F17.7°C 39.7°F4.3°C 41% 11.0 mph SW17.7 kmh SW 20.0 mph32.2 kmh 29.92 in1013.2 mb 0.00 in0.0 mm 0.00 in/hr0.0 mm/hr 0.02 in0.5 mm
04:15 PM 63.8°F17.7°C 39.7°F4.3°C 41% 13.0 mph SW20.9 kmh SW 20.0 mph32.2 kmh 29.92 in1013.2 mb 0.00 in0.0 mm 0.00 in/hr0.0 mm/hr 0.02 in0.5 mm
04:16 PM 63.8°F17.7°C 39.0°F3.9°C 40% 15.0 mph SW24.1 kmh SW 20.0 mph32.2 kmh 29.92 in1013.2 mb 0.00 in0.0 mm 0.00 in/hr0.0 mm/hr 0.02 in0.5 mm
04:18 PM 63.9°F17.7°C 39.1°F3.9°C 40% 12.0 mph SW19.3 kmh SW 20.0 mph32.2 kmh 29.92 in1013.2 mb 0.00 in0.0 mm 0.00 in/hr0.0 mm/hr 0.02 in0.5 mm
04:20 PM 63.9°F17.7°C 37.8°F3.2°C 38% 14.0 mph SW22.5 kmh SW 20.0 mph32.2 kmh 29.92 in1013.2 mb 0.00 in0.0 mm 0.00 in/hr0.0 mm/hr 0.02 in0.5 mm
04:21 PM 63.9°F17.7°C 37.8°F3.2°C 38% 15.0 mph SW24.1 kmh SW 20.0 mph32.2 kmh 29.92 in1013.2 mb 0.00 in0.0 mm 0.00 in/hr0.0 mm/hr 0.02 in0.5 mm
04:22 PM 63.9°F17.7°C 38.5°F3.6°C 39% 13.0 mph SW20.9 kmh SW 20.0 mph32.2 kmh 29.92 in1013.2 mb 0.00 in0.0 mm 0.00 in/hr0.0 mm/hr 0.02 in0.5 mm
04:24 PM 63.8°F17.7°C 39.7°F4.3°C 41% 10.0 mph SSW16.1 kmh SSW 20.0 mph32.2 kmh 29.92 in1013.2 mb 0.00 in0.0 mm 0.00 in/hr0.0 mm/hr 0.02 in0.5 mm
04:25 PM 63.7°F17.6°C 39.6°F4.2°C 41% 12.0 mph SW19.3 kmh SW 20.0 mph32.2 kmh 29.92 in1013.2 mb 0.00 in0.0 mm 0.00 in/hr0.0 mm/hr 0.02 in0.5 mm
04:26 PM 63.7°F17.6°C 38.3°F3.5°C 39% 10.0 mph SW16.1 kmh SW 20.0 mph32.2 kmh 29.92 in1013.2 mb 0.00 in0.0 mm 0.00 in/hr0.0 mm/hr 0.02 in0.5 mm
04:27 PM 63.7°F17.6°C 39.0°F3.9°C 40% 18.0 mph SW29.0 kmh SW 20.0 mph32.2 kmh 29.92 in1013.2 mb 0.00 in0.0 mm 0.00 in/hr0.0 mm/hr 0.02 in0.5 mm
04:29 PM 63.6°F17.6°C 40.1°F4.5°C 42% 11.0 mph SSW17.7 kmh SSW 20.0 mph32.2 kmh 29.92 in1013.2 mb 0.00 in0.0 mm 0.00 in/hr0.0 mm/hr 0.02 in0.5 mm
04:30 PM 63.5°F17.5°C 40.0°F4.4°C 42% 12.0 mph S19.3 kmh S 20.0 mph32.2 kmh 29.92 in1013.2 mb 0.00 in0.0 mm 0.00 in/hr0.0 mm/hr 0.02 in0.5 mm
04:31 PM 63.4°F17.4°C 38.7°F3.7°C 40% 13.0 mph SSW20.9 kmh SSW 18.0 mph29.0 kmh 29.92 in1013.2 mb 0.00 in0.0 mm 0.00 in/hr0.0 mm/hr 0.02 in0.5 mm
04:33 PM 63.4°F17.4°C 38.7°F3.7°C 40% 15.0 mph SW24.1 kmh SW 18.0 mph29.0 kmh 29.92 in1013.2 mb 0.00 in0.0 mm 0.00 in/hr0.0 mm/hr 0.02 in0.5 mm
04:34 PM 63.4°F17.4°C 39.9°F4.4°C 42% 12.0 mph SSW19.3 kmh SSW 18.0 mph29.0 kmh 29.92 in1013.2 mb 0.00 in0.0 mm 0.00 in/hr0.0 mm/hr 0.02 in0.5 mm
04:35 PM 63.4°F17.4°C 38.7°F3.7°C 40% 14.0 mph SSW22.5 kmh SSW 18.0 mph29.0 kmh 29.92 in1013.2 mb 0.00 in0.0 mm 0.00 in/hr0.0 mm/hr 0.02 in0.5 mm
04:37 PM 63.2°F17.3°C 40.4°F4.7°C 43% 12.0 mph SSW19.3 kmh SSW 18.0 mph29.0 kmh 29.92 in1013.2 mb 0.00 in0.0 mm 0.00 in/hr0.0 mm/hr 0.02 in0.5 mm
04:38 PM 63.1°F17.3°C 40.3°F4.6°C 43% 13.0 mph SW20.9 kmh SW 18.0 mph29.0 kmh 29.92 in1013.2 mb 0.00 in0.0 mm 0.00 in/hr0.0 mm/hr 0.02 in0.5 mm
04:40 PM 62.9°F17.2°C 40.1°F4.5°C 43% 12.0 mph SW19.3 kmh SW 18.0 mph29.0 kmh 29.92 in1013.2 mb 0.00 in0.0 mm 0.00 in/hr0.0 mm/hr 0.02 in0.5 mm
04:41 PM 62.8°F17.1°C 40.0°F4.4°C 43% 13.0 mph S20.9 kmh S 18.0 mph29.0 kmh 29.92 in1013.2 mb 0.00 in0.0 mm 0.00 in/hr0.0 mm/hr 0.02 in0.5 mm
04:43 PM 62.7°F17.1°C 39.9°F4.4°C 43% 14.0 mph S22.5 kmh S 18.0 mph29.0 kmh 29.92 in1013.2 mb 0.00 in0.0 mm 0.00 in/hr0.0 mm/hr 0.02 in0.5 mm
04:45 PM 62.5°F16.9°C 40.3°F4.6°C 44% 12.0 mph SSW19.3 kmh SSW 18.0 mph29.0 kmh 29.92 in1013.2 mb 0.00 in0.0 mm 0.00 in/hr0.0 mm/hr 0.02 in0.5 mm
04:47 PM 62.5°F16.9°C 40.3°F4.6°C 44% 13.0 mph SSW20.9 kmh SSW 18.0 mph29.0 kmh 29.92 in1013.2 mb 0.00 in0.0 mm 0.00 in/hr0.0 mm/hr 0.02 in0.5 mm
04:49 PM 62.4°F16.9°C 40.2°F4.6°C 44% 11.0 mph SW17.7 kmh SW 18.0 mph29.0 kmh 29.92 in1013.2 mb 0.00 in0.0 mm 0.00 in/hr0.0 mm/hr 0.02 in0.5 mm
04:50 PM 62.3°F16.8°C 40.7°F4.8°C 45% 14.0 mph SW22.5 kmh SW 18.0 mph29.0 kmh 29.92 in1013.2 mb 0.00 in0.0 mm 0.00 in/hr0.0 mm/hr 0.02 in0.5 mm
04:52 PM 62.2°F16.8°C 40.6°F4.8°C 45% 11.0 mph SSW17.7 kmh SSW 18.0 mph29.0 kmh 29.92 in1013.2 mb 0.00 in0.0 mm 0.00 in/hr0.0 mm/hr 0.02 in0.5 mm
04:53 PM 62.1°F16.7°C 40.5°F4.7°C 45% 14.0 mph SW22.5 kmh SW 18.0 mph29.0 kmh 29.92 in1013.2 mb 0.00 in0.0 mm 0.00 in/hr0.0 mm/hr 0.02 in0.5 mm
04:55 PM 62.0°F16.7°C 40.4°F4.7°C 45% 13.0 mph SSW20.9 kmh SSW 18.0 mph29.0 kmh 29.92 in1013.2 mb 0.00 in0.0 mm 0.00 in/hr0.0 mm/hr 0.02 in0.5 mm
04:56 PM 61.9°F16.6°C 40.4°F4.7°C 45% 9.0 mph S14.5 kmh S 18.0 mph29.0 kmh 29.92 in1013.2 mb 0.00 in0.0 mm 0.00 in/hr0.0 mm/hr 0.02 in0.5 mm
04:57 PM 61.8°F16.6°C 40.3°F4.6°C 45% 14.0 mph SW22.5 kmh SW 18.0 mph29.0 kmh 29.92 in1013.2 mb 0.00 in0.0 mm 0.00 in/hr0.0 mm/hr 0.02 in0.5 mm
04:58 PM 61.8°F16.6°C 40.3°F4.6°C 45% 12.0 mph SSW19.3 kmh SSW 18.0 mph29.0 kmh 29.92 in1013.2 mb 0.00 in0.0 mm 0.00 in/hr0.0 mm/hr 0.02 in0.5 mm
05:00 PM 61.6°F16.4°C 39.5°F4.2°C 44% 9.0 mph SSW14.5 kmh SSW 18.0 mph29.0 kmh 29.92 in1013.2 mb 0.00 in0.0 mm 0.00 in/hr0.0 mm/hr 0.02 in0.5 mm
05:01 PM 61.6°F16.4°C 40.1°F4.5°C 45% 14.0 mph SSW22.5 kmh SSW 14.0 mph22.5 kmh 29.92 in1013.2 mb 0.00 in0.0 mm 0.00 in/hr0.0 mm/hr 0.02 in0.5 mm
05:02 PM 61.6°F16.4°C 39.5°F4.2°C 44% 13.0 mph SSW20.9 kmh SSW 16.0 mph25.7 kmh 29.92 in1013.2 mb 0.00 in0.0 mm 0.00 in/hr0.0 mm/hr 0.02 in0.5 mm
05:03 PM 61.5°F16.4°C 39.4°F4.1°C 44% 16.0 mph SW25.7 kmh SW 18.0 mph29.0 kmh 29.92 in1013.2 mb 0.00 in0.0 mm 0.00 in/hr0.0 mm/hr 0.02 in0.5 mm
05:05 PM 61.5°F16.4°C 40.0°F4.4°C 45% 13.0 mph SSW20.9 kmh SSW 18.0 mph29.0 kmh 29.92 in1013.2 mb 0.00 in0.0 mm 0.00 in/hr0.0 mm/hr 0.02 in0.5 mm
05:06 PM 61.4°F16.3°C 39.3°F4.1°C 44% 9.0 mph S14.5 kmh S 18.0 mph29.0 kmh 29.92 in1013.2 mb 0.00 in0.0 mm 0.00 in/hr0.0 mm/hr 0.02 in0.5 mm
05:08 PM 61.3°F16.3°C 38.6°F3.7°C 43% 13.0 mph SW20.9 kmh SW 20.0 mph32.2 kmh 29.92 in1013.2 mb 0.00 in0.0 mm 0.00 in/hr0.0 mm/hr 0.02 in0.5 mm
05:09 PM 61.3°F16.3°C 39.2°F4.0°C 44% 11.0 mph SSW17.7 kmh SSW 20.0 mph32.2 kmh 29.92 in1013.2 mb 0.00 in0.0 mm 0.00 in/hr0.0 mm/hr 0.02 in0.5 mm
05:10 PM 61.1°F16.2°C 39.0°F3.9°C 44% 10.0 mph SSW16.1 kmh SSW 20.0 mph32.2 kmh 29.92 in1013.2 mb 0.00 in0.0 mm 0.00 in/hr0.0 mm/hr 0.02 in0.5 mm
05:12 PM 61.0°F16.1°C 39.0°F3.9°C 44% 13.0 mph SSW20.9 kmh SSW 20.0 mph32.2 kmh 29.92 in1013.2 mb 0.00 in0.0 mm 0.00 in/hr0.0 mm/hr 0.02 in0.5 mm
05:14 PM 60.9°F16.1°C 39.4°F4.1°C 45% 13.0 mph SSW20.9 kmh SSW 20.0 mph32.2 kmh 29.92 in1013.2 mb 0.00 in0.0 mm 0.00 in/hr0.0 mm/hr 0.02 in0.5 mm
05:15 PM 60.8°F16.0°C 39.4°F4.1°C 45% 14.0 mph SSW22.5 kmh SSW 20.0 mph32.2 kmh 29.92 in1013.2 mb 0.00 in0.0 mm 0.00 in/hr0.0 mm/hr 0.02 in0.5 mm
05:17 PM 60.7°F15.9°C 38.7°F3.7°C 44% 12.0 mph S19.3 kmh S 20.0 mph32.2 kmh 29.92 in1013.2 mb 0.00 in0.0 mm 0.00 in/hr0.0 mm/hr 0.02 in0.5 mm
05:18 PM 60.6°F15.9°C 38.6°F3.7°C 44% 12.0 mph SSW19.3 kmh SSW 20.0 mph32.2 kmh 29.92 in1013.2 mb 0.00 in0.0 mm 0.00 in/hr0.0 mm/hr 0.02 in0.5 mm
05:20 PM 60.4°F15.8°C 38.4°F3.6°C 44% 14.0 mph SSW22.5 kmh SSW 20.0 mph32.2 kmh 29.92 in1013.2 mb 0.00 in0.0 mm 0.00 in/hr0.0 mm/hr 0.02 in0.5 mm
05:21 PM 60.4°F15.8°C 38.4°F3.6°C 44% 14.0 mph SSW22.5 kmh SSW 20.0 mph32.2 kmh 29.92 in1013.2 mb 0.00 in0.0 mm 0.00 in/hr0.0 mm/hr 0.02 in0.5 mm
05:23 PM 60.3°F15.7°C 38.3°F3.5°C 44% 15.0 mph SSW24.1 kmh SSW 20.0 mph32.2 kmh 29.92 in1013.2 mb 0.00 in0.0 mm 0.00 in/hr0.0 mm/hr 0.02 in0.5 mm
05:24 PM 60.2°F15.7°C 38.2°F3.4°C 44% 16.0 mph SSW25.7 kmh SSW 20.0 mph32.2 kmh 29.92 in1013.2 mb 0.00 in0.0 mm 0.00 in/hr0.0 mm/hr 0.02 in0.5 mm
05:25 PM 60.2°F15.7°C 37.6°F3.1°C 43% 14.0 mph S22.5 kmh S 20.0 mph32.2 kmh 29.92 in1013.2 mb 0.00 in0.0 mm 0.00 in/hr0.0 mm/hr 0.02 in0.5 mm
05:26 PM 60.2°F15.7°C 37.6°F3.1°C 43% 15.0 mph SW24.1 kmh SW 20.0 mph32.2 kmh 29.92 in1013.2 mb 0.00 in0.0 mm 0.00 in/hr0.0 mm/hr 0.02 in0.5 mm
05:27 PM 60.1°F15.6°C 38.1°F3.4°C 44% 17.0 mph SSW27.4 kmh SSW 20.0 mph32.2 kmh 29.92 in1013.2 mb 0.00 in0.0 mm 0.00 in/hr0.0 mm/hr 0.02 in0.5 mm
05:28 PM 60.0°F15.6°C 37.5°F3.1°C 43% 13.0 mph SSW20.9 kmh SSW 20.0 mph32.2 kmh 29.92 in1013.2 mb 0.00 in0.0 mm 0.00 in/hr0.0 mm/hr 0.02 in0.5 mm
05:30 PM 59.9°F15.5°C 37.4°F3.0°C 43% 13.0 mph SW20.9 kmh SW 20.0 mph32.2 kmh 29.92 in1013.2 mb 0.00 in0.0 mm 0.00 in/hr0.0 mm/hr 0.02 in0.5 mm
05:32 PM 59.8°F15.4°C 37.9°F3.3°C 44% 16.0 mph SSW25.7 kmh SSW 16.0 mph25.7 kmh 29.92 in1013.2 mb 0.00 in0.0 mm 0.00 in/hr0.0 mm/hr 0.02 in0.5 mm
05:33 PM 59.8°F15.4°C 37.9°F3.3°C 44% 15.0 mph SW24.1 kmh SW 16.0 mph25.7 kmh 29.92 in1013.2 mb 0.00 in0.0 mm 0.00 in/hr0.0 mm/hr 0.02 in0.5 mm
05:35 PM 59.6°F15.3°C 37.7°F3.2°C 44% 12.0 mph SSW19.3 kmh SSW 16.0 mph25.7 kmh 29.92 in1013.2 mb 0.00 in0.0 mm 0.00 in/hr0.0 mm/hr 0.02 in0.5 mm
05:36 PM 59.5°F15.3°C 37.6°F3.1°C 44% 13.0 mph SW20.9 kmh SW 16.0 mph25.7 kmh 29.92 in1013.2 mb 0.00 in0.0 mm 0.00 in/hr0.0 mm/hr 0.02 in0.5 mm
05:37 PM 59.5°F15.3°C 37.6°F3.1°C 44% 12.0 mph S19.3 kmh S 16.0 mph25.7 kmh 29.92 in1013.2 mb 0.00 in0.0 mm 0.00 in/hr0.0 mm/hr 0.02 in0.5 mm
05:39 PM 59.2°F15.1°C 37.9°F3.3°C 45% 11.0 mph SSW17.7 kmh SSW 16.0 mph25.7 kmh 29.91 in1012.9 mb 0.00 in0.0 mm 0.00 in/hr0.0 mm/hr 0.02 in0.5 mm
05:40 PM 59.0°F15.0°C 38.3°F3.5°C 46% 11.0 mph S17.7 kmh S 16.0 mph25.7 kmh 29.92 in1013.2 mb 0.00 in0.0 mm 0.00 in/hr0.0 mm/hr 0.02 in0.5 mm
05:41 PM 58.9°F14.9°C 38.2°F3.4°C 46% 11.0 mph SSW17.7 kmh SSW 16.0 mph25.7 kmh 29.92 in1013.2 mb 0.00 in0.0 mm 0.00 in/hr0.0 mm/hr 0.02 in0.5 mm
05:42 PM 58.7°F14.8°C 38.0°F3.3°C 46% 8.0 mph S12.9 kmh S 16.0 mph25.7 kmh 29.92 in1013.2 mb 0.00 in0.0 mm 0.00 in/hr0.0 mm/hr 0.02 in0.5 mm
05:44 PM 58.5°F14.7°C 38.4°F3.6°C 47% 14.0 mph S22.5 kmh S 16.0 mph25.7 kmh 29.91 in1012.9 mb 0.00 in0.0 mm 0.00 in/hr0.0 mm/hr 0.02 in0.5 mm
05:45 PM 58.4°F14.7°C 37.7°F3.2°C 46% 11.0 mph SSW17.7 kmh SSW 16.0 mph25.7 kmh 29.91 in1012.9 mb 0.00 in0.0 mm 0.00 in/hr0.0 mm/hr 0.02 in0.5 mm
05:47 PM 58.2°F14.6°C 38.1°F3.4°C 47% 11.0 mph SSW17.7 kmh SSW 16.0 mph25.7 kmh 29.91 in1012.9 mb 0.00 in0.0 mm 0.00 in/hr0.0 mm/hr 0.02 in0.5 mm
05:48 PM 58.0°F14.4°C 37.9°F3.3°C 47% 13.0 mph SSW20.9 kmh SSW 16.0 mph25.7 kmh 29.91 in1012.9 mb 0.00 in0.0 mm 0.00 in/hr0.0 mm/hr 0.02 in0.5 mm
05:49 PM 57.9°F14.4°C 37.8°F3.2°C 47% 9.0 mph S14.5 kmh S 16.0 mph25.7 kmh 29.92 in1013.2 mb 0.00 in0.0 mm 0.00 in/hr0.0 mm/hr 0.02 in0.5 mm
05:50 PM 57.7°F14.3°C 37.6°F3.1°C 47% 8.0 mph SSW12.9 kmh SSW 16.0 mph25.7 kmh 29.92 in1013.2 mb 0.00 in0.0 mm 0.00 in/hr0.0 mm/hr 0.02 in0.5 mm
05:52 PM 57.5°F14.2°C 38.5°F3.6°C 49% 7.0 mph S11.3 kmh S 16.0 mph25.7 kmh 29.92 in1013.2 mb 0.00 in0.0 mm 0.00 in/hr0.0 mm/hr 0.02 in0.5 mm
05:53 PM 57.1°F13.9°C 38.1°F3.4°C 49% 9.0 mph S14.5 kmh S 16.0 mph25.7 kmh 29.92 in1013.2 mb 0.00 in0.0 mm 0.00 in/hr0.0 mm/hr 0.02 in0.5 mm
05:54 PM 57.0°F13.9°C 38.1°F3.4°C 49% 9.0 mph SSW14.5 kmh SSW 16.0 mph25.7 kmh 29.91 in1012.9 mb 0.00 in0.0 mm 0.00 in/hr0.0 mm/hr 0.02 in0.5 mm
05:56 PM 56.9°F13.8°C 38.0°F3.3°C 49% 8.0 mph SSW12.9 kmh SSW 16.0 mph25.7 kmh 29.91 in1012.9 mb 0.00 in0.0 mm 0.00 in/hr0.0 mm/hr 0.02 in0.5 mm
05:57 PM 56.8°F13.8°C 38.4°F3.6°C 50% 7.0 mph S11.3 kmh S 16.0 mph25.7 kmh 29.92 in1013.2 mb 0.00 in0.0 mm 0.00 in/hr0.0 mm/hr 0.02 in0.5 mm
05:58 PM 56.6°F13.7°C 38.2°F3.4°C 50% 7.0 mph SSW11.3 kmh SSW 16.0 mph25.7 kmh 29.92 in1013.2 mb 0.00 in0.0 mm 0.00 in/hr0.0 mm/hr 0.02 in0.5 mm
05:59 PM 56.5°F13.6°C 38.1°F3.4°C 50% 7.0 mph SSW11.3 kmh SSW 16.0 mph25.7 kmh 29.91 in1012.9 mb 0.00 in0.0 mm 0.00 in/hr0.0 mm/hr 0.02 in0.5 mm
06:00 PM 56.3°F13.5°C 38.4°F3.6°C 51% 8.0 mph S12.9 kmh S 16.0 mph25.7 kmh 29.92 in1013.2 mb 0.00 in0.0 mm 0.00 in/hr0.0 mm/hr 0.02 in0.5 mm
06:01 PM 56.1°F13.4°C 38.2°F3.4°C 51% 7.0 mph SW11.3 kmh SW 8.0 mph12.9 kmh 29.91 in1012.9 mb 0.00 in0.0 mm 0.00 in/hr0.0 mm/hr 0.02 in0.5 mm
06:03 PM 55.9°F13.3°C 38.1°F3.4°C 51% 9.0 mph S14.5 kmh S 10.0 mph16.1 kmh 29.91 in1012.9 mb 0.00 in0.0 mm 0.00 in/hr0.0 mm/hr 0.02 in0.5 mm
06:04 PM 55.9°F13.3°C 38.1°F3.4°C 51% 9.0 mph SSW14.5 kmh SSW 10.0 mph16.1 kmh 29.92 in1013.2 mb 0.00 in0.0 mm 0.00 in/hr0.0 mm/hr 0.02 in0.5 mm
06:06 PM 55.8°F13.2°C 38.0°F3.3°C 51% 9.0 mph SSW14.5 kmh SSW 11.0 mph17.7 kmh 29.91 in1012.9 mb 0.00 in0.0 mm 0.00 in/hr0.0 mm/hr 0.02 in0.5 mm
06:07 PM 55.7°F13.2°C 37.9°F3.3°C 51% 9.0 mph SSW14.5 kmh SSW 11.0 mph17.7 kmh 29.91 in1012.9 mb 0.00 in0.0 mm 0.00 in/hr0.0 mm/hr 0.02 in0.5 mm
06:09 PM 55.6°F13.1°C 38.3°F3.5°C 52% 8.0 mph S12.9 kmh S 12.0 mph19.3 kmh 29.91 in1012.9 mb 0.00 in0.0 mm 0.00 in/hr0.0 mm/hr 0.02 in0.5 mm
06:10 PM 55.6°F13.1°C 38.3°F3.5°C 52% 8.0 mph S12.9 kmh S 12.0 mph19.3 kmh 29.92 in1013.2 mb 0.00 in0.0 mm 0.00 in/hr0.0 mm/hr 0.02 in0.5 mm
06:11 PM 55.5°F13.1°C 38.7°F3.7°C 53% 8.0 mph SSW12.9 kmh SSW 12.0 mph19.3 kmh 29.92 in1013.2 mb 0.00 in0.0 mm 0.00 in/hr0.0 mm/hr 0.02 in0.5 mm
06:12 PM 55.5°F13.1°C 38.7°F3.7°C 53% 7.0 mph S11.3 kmh S 12.0 mph19.3 kmh 29.92 in1013.2 mb 0.00 in0.0 mm 0.00 in/hr0.0 mm/hr 0.02 in0.5 mm
06:13 PM 55.3°F12.9°C 38.0°F3.3°C 52% 7.0 mph SSW11.3 kmh SSW 12.0 mph19.3 kmh 29.92 in1013.2 mb 0.00 in0.0 mm 0.00 in/hr0.0 mm/hr 0.02 in0.5 mm
06:15 PM 55.3°F12.9°C 38.0°F3.3°C 52% 9.0 mph SSW14.5 kmh SSW 12.0 mph19.3 kmh 29.92 in1013.2 mb 0.00 in0.0 mm 0.00 in/hr0.0 mm/hr 0.02 in0.5 mm
06:17 PM 55.2°F12.9°C 37.9°F3.3°C 52% 10.0 mph S16.1 kmh S 12.0 mph19.3 kmh 29.92 in1013.2 mb 0.00 in0.0 mm 0.00 in/hr0.0 mm/hr 0.02 in0.5 mm
06:18 PM 55.2°F12.9°C 37.9°F3.3°C 52% 11.0 mph S17.7 kmh S 12.0 mph19.3 kmh 29.92 in1013.2 mb 0.00 in0.0 mm 0.00 in/hr0.0 mm/hr 0.02 in0.5 mm
06:19 PM 55.2°F12.9°C 37.9°F3.3°C 52% 10.0 mph S16.1 kmh S 12.0 mph19.3 kmh 29.92 in1013.2 mb 0.00 in0.0 mm 0.00 in/hr0.0 mm/hr 0.02 in0.5 mm
06:21 PM 55.2°F12.9°C 37.4°F3.0°C 51% 8.0 mph S12.9 kmh S 12.0 mph19.3 kmh 29.92 in1013.2 mb 0.00 in0.0 mm 0.00 in/hr0.0 mm/hr 0.02 in0.5 mm
06:22 PM 55.2°F12.9°C 37.4°F3.0°C 51% 8.0 mph SSW12.9 kmh SSW 12.0 mph19.3 kmh 29.91 in1012.9 mb 0.00 in0.0 mm 0.00 in/hr0.0 mm/hr 0.02 in0.5 mm
06:23 PM 55.2°F12.9°C 37.4°F3.0°C 51% 8.0 mph S12.9 kmh S 12.0 mph19.3 kmh 29.92 in1013.2 mb 0.00 in0.0 mm 0.00 in/hr0.0 mm/hr 0.02 in0.5 mm
06:25 PM 55.0°F12.8°C 38.2°F3.4°C 53% 8.0 mph S12.9 kmh S 12.0 mph19.3 kmh 29.92 in1013.2 mb 0.00 in0.0 mm 0.00 in/hr0.0 mm/hr 0.02 in0.5 mm
06:26 PM 54.6°F12.6°C 38.3°F3.5°C 54% 9.0 mph S14.5 kmh S 12.0 mph19.3 kmh 29.92 in1013.2 mb 0.00 in0.0 mm 0.00 in/hr0.0 mm/hr 0.02 in0.5 mm
06:27 PM 54.2°F12.3°C 37.9°F3.3°C 54% 8.0 mph S12.9 kmh S 12.0 mph19.3 kmh 29.92 in1013.2 mb 0.00 in0.0 mm 0.00 in/hr0.0 mm/hr 0.02 in0.5 mm
06:29 PM 53.9°F12.2°C 38.1°F3.4°C 55% 10.0 mph S16.1 kmh S 12.0 mph19.3 kmh 29.92 in1013.2 mb 0.00 in0.0 mm 0.00 in/hr0.0 mm/hr 0.02 in0.5 mm
06:30 PM 53.7°F12.1°C 37.9°F3.3°C 55% 11.0 mph S17.7 kmh S 12.0 mph19.3 kmh 29.92 in1013.2 mb 0.00 in0.0 mm 0.00 in/hr0.0 mm/hr 0.02 in0.5 mm
06:32 PM 53.3°F11.8°C 38.0°F3.3°C 56% 9.0 mph S14.5 kmh S 12.0 mph19.3 kmh 29.92 in1013.2 mb 0.00 in0.0 mm 0.00 in/hr0.0 mm/hr 0.02 in0.5 mm
06:33 PM 53.2°F11.8°C 37.9°F3.3°C 56% 10.0 mph S16.1 kmh S 13.0 mph20.9 kmh 29.92 in1013.2 mb 0.00 in0.0 mm 0.00 in/hr0.0 mm/hr 0.02 in0.5 mm
06:34 PM 52.9°F11.6°C 37.7°F3.2°C 56% 10.0 mph S16.1 kmh S 14.0 mph22.5 kmh 29.92 in1013.2 mb 0.00 in0.0 mm 0.00 in/hr0.0 mm/hr 0.02 in0.5 mm
06:36 PM 52.8°F11.6°C 37.6°F3.1°C 56% 11.0 mph S17.7 kmh S 14.0 mph22.5 kmh 29.92 in1013.2 mb 0.00 in0.0 mm 0.00 in/hr0.0 mm/hr 0.02 in0.5 mm
06:37 PM 52.7°F11.5°C 37.5°F3.1°C 56% 8.0 mph S12.9 kmh S 14.0 mph22.5 kmh 29.92 in1013.2 mb 0.00 in0.0 mm 0.00 in/hr0.0 mm/hr 0.02 in0.5 mm
06:38 PM 52.6°F11.4°C 37.4°F3.0°C 56% 9.0 mph S14.5 kmh S 14.0 mph22.5 kmh 29.92 in1013.2 mb 0.00 in0.0 mm 0.00 in/hr0.0 mm/hr 0.02 in0.5 mm
06:40 PM 52.5°F11.4°C 37.7°F3.2°C 57% 8.0 mph S12.9 kmh S 14.0 mph22.5 kmh 29.92 in1013.2 mb 0.00 in0.0 mm 0.00 in/hr0.0 mm/hr 0.02 in0.5 mm
06:41 PM 52.4°F11.3°C 37.6°F3.1°C 57% 7.0 mph S11.3 kmh S 14.0 mph22.5 kmh 29.92 in1013.2 mb 0.00 in0.0 mm 0.00 in/hr0.0 mm/hr 0.02 in0.5 mm
06:42 PM 52.3°F11.3°C 37.5°F3.1°C 57% 7.0 mph S11.3 kmh S 14.0 mph22.5 kmh 29.92 in1013.2 mb 0.00 in0.0 mm 0.00 in/hr0.0 mm/hr 0.02 in0.5 mm
06:44 PM 52.1°F11.2°C 37.4°F3.0°C 57% 7.0 mph S11.3 kmh S 14.0 mph22.5 kmh 29.92 in1013.2 mb 0.00 in0.0 mm 0.00 in/hr0.0 mm/hr 0.02 in0.5 mm
06:45 PM 51.9°F11.1°C 37.6°F3.1°C 58% 7.0 mph S11.3 kmh S 14.0 mph22.5 kmh 29.92 in1013.2 mb 0.00 in0.0 mm 0.00 in/hr0.0 mm/hr 0.02 in0.5 mm
06:46 PM 51.6°F10.9°C 37.8°F3.2°C 59% 7.0 mph S11.3 kmh S 14.0 mph22.5 kmh 29.92 in1013.2 mb 0.00 in0.0 mm 0.00 in/hr0.0 mm/hr 0.02 in0.5 mm
06:48 PM 51.5°F10.8°C 37.7°F3.2°C 59% 7.0 mph S11.3 kmh S 14.0 mph22.5 kmh 29.92 in1013.2 mb 0.00 in0.0 mm 0.00 in/hr0.0 mm/hr 0.02 in0.5 mm
06:50 PM 51.1°F10.6°C 37.7°F3.2°C 60% 8.0 mph S12.9 kmh S 14.0 mph22.5 kmh 29.92 in1013.2 mb 0.00 in0.0 mm 0.00 in/hr0.0 mm/hr 0.02 in0.5 mm
06:51 PM 50.9°F10.5°C 37.5°F3.1°C 60% 8.0 mph S12.9 kmh S 14.0 mph22.5 kmh 29.92 in1013.2 mb 0.00 in0.0 mm 0.00 in/hr0.0 mm/hr 0.02 in0.5 mm
06:53 PM 50.7°F10.4°C 37.8°F3.2°C 61% 8.0 mph S12.9 kmh S 14.0 mph22.5 kmh 29.92 in1013.2 mb 0.00 in0.0 mm 0.00 in/hr0.0 mm/hr 0.02 in0.5 mm
06:55 PM 50.5°F10.3°C 37.6°F3.1°C 61% 8.0 mph S12.9 kmh S 14.0 mph22.5 kmh 29.92 in1013.2 mb 0.00 in0.0 mm 0.00 in/hr0.0 mm/hr 0.02 in0.5 mm
06:56 PM 50.5°F10.3°C 37.6°F3.1°C 61% 8.0 mph S12.9 kmh S 14.0 mph22.5 kmh 29.92 in1013.2 mb 0.00 in0.0 mm 0.00 in/hr0.0 mm/hr 0.02 in0.5 mm
06:58 PM 50.4°F10.2°C 37.9°F3.3°C 62% 8.0 mph S12.9 kmh S 14.0 mph22.5 kmh 29.92 in1013.2 mb 0.00 in0.0 mm 0.00 in/hr0.0 mm/hr 0.02 in0.5 mm
06:59 PM 50.4°F10.2°C 37.9°F3.3°C 62% 8.0 mph S12.9 kmh S 14.0 mph22.5 kmh 29.92 in1013.2 mb 0.00 in0.0 mm 0.00 in/hr0.0 mm/hr 0.02 in0.5 mm
07:00 PM 50.3°F10.2°C 37.8°F3.2°C 62% 9.0 mph S14.5 kmh S 14.0 mph22.5 kmh 29.92 in1013.2 mb 0.00 in0.0 mm 0.00 in/hr0.0 mm/hr 0.02 in0.5 mm
07:01 PM 50.3°F10.2°C 37.8°F3.2°C 62% 8.0 mph S12.9 kmh S 8.0 mph12.9 kmh 29.92 in1013.2 mb 0.00 in0.0 mm 0.00 in/hr0.0 mm/hr 0.02 in0.5 mm
07:02 PM 50.3°F10.2°C 37.8°F3.2°C 62% 7.0 mph S11.3 kmh S 8.0 mph12.9 kmh 29.92 in1013.2 mb 0.00 in0.0 mm 0.00 in/hr0.0 mm/hr 0.02 in0.5 mm
07:04 PM 50.3°F10.2°C 37.8°F3.2°C 62% 6.0 mph S9.7 kmh S 9.0 mph14.5 kmh 29.92 in1013.2 mb 0.00 in0.0 mm 0.00 in/hr0.0 mm/hr 0.02 in0.5 mm
07:06 PM 50.3°F10.2°C 37.8°F3.2°C 62% 7.0 mph S11.3 kmh S 10.0 mph16.1 kmh 29.92 in1013.2 mb 0.00 in0.0 mm 0.00 in/hr0.0 mm/hr 0.02 in0.5 mm
07:08 PM 50.3°F10.2°C 37.8°F3.2°C 62% 9.0 mph S14.5 kmh S 10.0 mph16.1 kmh 29.92 in1013.2 mb 0.00 in0.0 mm 0.00 in/hr0.0 mm/hr 0.02 in0.5 mm
07:10 PM 50.3°F10.2°C 37.8°F3.2°C 62% 8.0 mph S12.9 kmh S 10.0 mph16.1 kmh 29.92 in1013.2 mb 0.00 in0.0 mm 0.00 in/hr0.0 mm/hr 0.02 in0.5 mm
07:11 PM 50.4°F10.2°C 37.5°F3.1°C 61% 8.0 mph S12.9 kmh S 10.0 mph16.1 kmh 29.92 in1013.2 mb 0.00 in0.0 mm 0.00 in/hr0.0 mm/hr 0.02 in0.5 mm
07:13 PM 50.4°F10.2°C 37.5°F3.1°C 61% 7.0 mph S11.3 kmh S 10.0 mph16.1 kmh 29.92 in1013.2 mb 0.00 in0.0 mm 0.00 in/hr0.0 mm/hr 0.02 in0.5 mm
07:14 PM 50.3°F10.2°C 37.4°F3.0°C 61% 6.0 mph S9.7 kmh S 10.0 mph16.1 kmh 29.92 in1013.2 mb 0.00 in0.0 mm 0.00 in/hr0.0 mm/hr 0.02 in0.5 mm
07:16 PM 50.2°F10.1°C 37.3°F2.9°C 61% 6.0 mph SSE9.7 kmh SSE 10.0 mph16.1 kmh 29.92 in1013.2 mb 0.00 in0.0 mm 0.00 in/hr0.0 mm/hr 0.02 in0.5 mm
07:17 PM 50.0°F10.0°C 37.5°F3.1°C 62% 5.0 mph SSE8.0 kmh SSE 10.0 mph16.1 kmh 29.92 in1013.2 mb 0.00 in0.0 mm 0.00 in/hr0.0 mm/hr 0.02 in0.5 mm
07:19 PM 49.6°F9.8°C 37.1°F2.8°C 62% 5.0 mph SSE8.0 kmh SSE 10.0 mph16.1 kmh 29.92 in1013.2 mb 0.00 in0.0 mm 0.00 in/hr0.0 mm/hr 0.02 in0.5 mm
07:20 PM 48.9°F9.4°C 36.9°F2.7°C 63% 4.0 mph SSE6.4 kmh SSE 10.0 mph16.1 kmh 29.92 in1013.2 mb 0.00 in0.0 mm 0.00 in/hr0.0 mm/hr 0.02 in0.5 mm
07:21 PM 48.3°F9.1°C 37.1°F2.8°C 65% 5.0 mph SSE8.0 kmh SSE 10.0 mph16.1 kmh 29.92 in1013.2 mb 0.00 in0.0 mm 0.00 in/hr0.0 mm/hr 0.02 in0.5 mm
07:23 PM 47.9°F8.8°C 36.7°F2.6°C 65% 4.0 mph SSE6.4 kmh SSE 10.0 mph16.1 kmh 29.92 in1013.2 mb 0.00 in0.0 mm 0.00 in/hr0.0 mm/hr 0.02 in0.5 mm
07:24 PM 47.2°F8.4°C 36.4°F2.4°C 66% 4.0 mph SSE6.4 kmh SSE 10.0 mph16.1 kmh 29.92 in1013.2 mb 0.00 in0.0 mm 0.00 in/hr0.0 mm/hr 0.02 in0.5 mm
07:26 PM 46.9°F8.3°C 36.5°F2.5°C 67% 5.0 mph SSE8.0 kmh SSE 10.0 mph16.1 kmh 29.92 in1013.2 mb 0.00 in0.0 mm 0.00 in/hr0.0 mm/hr 0.02 in0.5 mm
07:27 PM 46.6°F8.1°C 36.2°F2.3°C 67% 6.0 mph SSE9.7 kmh SSE 10.0 mph16.1 kmh 29.92 in1013.2 mb 0.00 in0.0 mm 0.00 in/hr0.0 mm/hr 0.02 in0.5 mm
07:28 PM 46.4°F8.0°C 36.4°F2.4°C 68% 5.0 mph SSE8.0 kmh SSE 10.0 mph16.1 kmh 29.92 in1013.2 mb 0.00 in0.0 mm 0.00 in/hr0.0 mm/hr 0.02 in0.5 mm
07:30 PM 46.0°F7.8°C 36.1°F2.3°C 68% 5.0 mph SSE8.0 kmh SSE 10.0 mph16.1 kmh 29.92 in1013.2 mb 0.00 in0.0 mm 0.00 in/hr0.0 mm/hr 0.02 in0.5 mm
07:31 PM 46.0°F7.8°C 36.4°F2.4°C 69% 6.0 mph S9.7 kmh S 6.0 mph9.7 kmh 29.92 in1013.2 mb 0.00 in0.0 mm 0.00 in/hr0.0 mm/hr 0.02 in0.5 mm
07:32 PM 45.9°F7.7°C 36.3°F2.4°C 69% 5.0 mph S8.0 kmh S 6.0 mph9.7 kmh 29.92 in1013.2 mb 0.00 in0.0 mm 0.00 in/hr0.0 mm/hr 0.02 in0.5 mm
07:33 PM 45.8°F7.7°C 36.2°F2.3°C 69% 5.0 mph S8.0 kmh S 6.0 mph9.7 kmh 29.92 in1013.2 mb 0.00 in0.0 mm 0.00 in/hr0.0 mm/hr 0.02 in0.5 mm
07:34 PM 45.8°F7.7°C 36.2°F2.3°C 69% 5.0 mph S8.0 kmh S 7.0 mph11.3 kmh 29.92 in1013.2 mb 0.00 in0.0 mm 0.00 in/hr0.0 mm/hr 0.02 in0.5 mm
07:36 PM 45.7°F7.6°C 36.1°F2.3°C 69% 7.0 mph S11.3 kmh S 7.0 mph11.3 kmh 29.92 in1013.2 mb 0.00 in0.0 mm 0.00 in/hr0.0 mm/hr 0.02 in0.5 mm
07:37 PM 45.8°F7.7°C 36.2°F2.3°C 69% 6.0 mph S9.7 kmh S 7.0 mph11.3 kmh 29.92 in1013.2 mb 0.00 in0.0 mm 0.00 in/hr0.0 mm/hr 0.02 in0.5 mm
07:39 PM 45.8°F7.7°C 36.2°F2.3°C 69% 5.0 mph S8.0 kmh S 7.0 mph11.3 kmh 29.92 in1013.2 mb 0.00 in0.0 mm 0.00 in/hr0.0 mm/hr 0.02 in0.5 mm
07:40 PM 45.8°F7.7°C 36.2°F2.3°C 69% 6.0 mph S9.7 kmh S 7.0 mph11.3 kmh 29.93 in1013.5 mb 0.00 in0.0 mm 0.00 in/hr0.0 mm/hr 0.02 in0.5 mm
07:41 PM 45.9°F7.7°C 36.3°F2.4°C 69% 7.0 mph S11.3 kmh S 7.0 mph11.3 kmh 29.93 in1013.5 mb 0.00 in0.0 mm 0.00 in/hr0.0 mm/hr 0.02 in0.5 mm
07:43 PM 46.0°F7.8°C 36.4°F2.4°C 69% 6.0 mph S9.7 kmh S 7.0 mph11.3 kmh 29.92 in1013.2 mb 0.00 in0.0 mm 0.00 in/hr0.0 mm/hr 0.02 in0.5 mm
07:44 PM 46.0°F7.8°C 36.4°F2.4°C 69% 6.0 mph S9.7 kmh S 7.0 mph11.3 kmh 29.93 in1013.5 mb 0.00 in0.0 mm 0.00 in/hr0.0 mm/hr 0.02 in0.5 mm
07:45 PM 46.1°F7.8°C 36.5°F2.5°C 69% 5.0 mph S8.0 kmh S 7.0 mph11.3 kmh 29.93 in1013.5 mb 0.00 in0.0 mm 0.00 in/hr0.0 mm/hr 0.02 in0.5 mm
07:47 PM 46.2°F7.9°C 36.2°F2.3°C 68% 6.0 mph S9.7 kmh S 7.0 mph11.3 kmh 29.93 in1013.5 mb 0.00 in0.0 mm 0.00 in/hr0.0 mm/hr 0.02 in0.5 mm
07:48 PM 46.3°F7.9°C 36.3°F2.4°C 68% 6.0 mph S9.7 kmh S 8.0 mph12.9 kmh 29.93 in1013.5 mb 0.00 in0.0 mm 0.00 in/hr0.0 mm/hr 0.02 in0.5 mm
07:49 PM 46.3°F7.9°C 36.3°F2.4°C 68% 6.0 mph S9.7 kmh S 8.0 mph12.9 kmh 29.93 in1013.5 mb 0.00 in0.0 mm 0.00 in/hr0.0 mm/hr 0.02 in0.5 mm
07:50 PM 46.4°F8.0°C 36.4°F2.4°C 68% 7.0 mph S11.3 kmh S 8.0 mph12.9 kmh 29.93 in1013.5 mb 0.00 in0.0 mm 0.00 in/hr0.0 mm/hr 0.02 in0.5 mm
07:51 PM 46.5°F8.1°C 36.5°F2.5°C 68% 6.0 mph S9.7 kmh S 8.0 mph12.9 kmh 29.93 in1013.5 mb 0.00 in0.0 mm 0.00 in/hr0.0 mm/hr 0.02 in0.5 mm
07:53 PM 46.7°F8.2°C 36.3°F2.4°C 67% 7.0 mph S11.3 kmh S 9.0 mph14.5 kmh 29.93 in1013.5 mb 0.00 in0.0 mm 0.00 in/hr0.0 mm/hr 0.02 in0.5 mm
07:54 PM 46.8°F8.2°C 36.4°F2.4°C 67% 9.0 mph S14.5 kmh S 9.0 mph14.5 kmh 29.93 in1013.5 mb 0.00 in0.0 mm 0.00 in/hr0.0 mm/hr 0.02 in0.5 mm
07:56 PM 47.2°F8.4°C 36.4°F2.4°C 66% 8.0 mph SSW12.9 kmh SSW 11.0 mph17.7 kmh 29.93 in1013.5 mb 0.00 in0.0 mm 0.00 in/hr0.0 mm/hr 0.02 in0.5 mm
07:57 PM 47.4°F8.6°C 36.2°F2.3°C 65% 9.0 mph S14.5 kmh S 11.0 mph17.7 kmh 29.93 in1013.5 mb 0.00 in0.0 mm 0.00 in/hr0.0 mm/hr 0.02 in0.5 mm
07:58 PM 47.6°F8.7°C 36.0°F2.2°C 64% 10.0 mph S16.1 kmh S 11.0 mph17.7 kmh 29.93 in1013.5 mb 0.00 in0.0 mm 0.00 in/hr0.0 mm/hr 0.02 in0.5 mm
08:00 PM 47.8°F8.8°C 36.2°F2.3°C 64% 10.0 mph S16.1 kmh S 11.0 mph17.7 kmh 29.93 in1013.5 mb 0.00 in0.0 mm 0.00 in/hr0.0 mm/hr 0.02 in0.5 mm
08:01 PM 47.8°F8.8°C 36.2°F2.3°C 64% 9.0 mph S14.5 kmh S 9.0 mph14.5 kmh 29.93 in1013.5 mb 0.00 in0.0 mm 0.00 in/hr0.0 mm/hr 0.02 in0.5 mm
08:02 PM 47.8°F8.8°C 36.2°F2.3°C 64% 11.0 mph S17.7 kmh S 11.0 mph17.7 kmh 29.93 in1013.5 mb 0.00 in0.0 mm 0.00 in/hr0.0 mm/hr 0.02 in0.5 mm
08:04 PM 47.8°F8.8°C 35.8°F2.1°C 63% 9.0 mph S14.5 kmh S 11.0 mph17.7 kmh 29.93 in1013.5 mb 0.00 in0.0 mm 0.00 in/hr0.0 mm/hr 0.02 in0.5 mm
08:05 PM 47.8°F8.8°C 35.8°F2.1°C 63% 11.0 mph S17.7 kmh S 11.0 mph17.7 kmh 29.93 in1013.5 mb 0.00 in0.0 mm 0.00 in/hr0.0 mm/hr 0.02 in0.5 mm
08:06 PM 47.8°F8.8°C 35.8°F2.1°C 63% 11.0 mph S17.7 kmh S 11.0 mph17.7 kmh 29.93 in1013.5 mb 0.00 in0.0 mm 0.00 in/hr0.0 mm/hr 0.02 in0.5 mm
08:07 PM 47.8°F8.8°C 35.8°F2.1°C 63% 9.0 mph S14.5 kmh S 11.0 mph17.7 kmh 29.93 in1013.5 mb 0.00 in0.0 mm 0.00 in/hr0.0 mm/hr 0.02 in0.5 mm
08:09 PM 47.8°F8.8°C 35.8°F2.1°C 63% 10.0 mph S16.1 kmh S 11.0 mph17.7 kmh 29.93 in1013.5 mb 0.00 in0.0 mm 0.00 in/hr0.0 mm/hr 0.02 in0.5 mm
08:10 PM 47.7°F8.7°C 35.7°F2.1°C 63% 10.0 mph S16.1 kmh S 12.0 mph19.3 kmh 29.93 in1013.5 mb 0.00 in0.0 mm 0.00 in/hr0.0 mm/hr 0.02 in0.5 mm
08:11 PM 47.7°F8.7°C 35.7°F2.1°C 63% 10.0 mph S16.1 kmh S 12.0 mph19.3 kmh 29.93 in1013.5 mb 0.00 in0.0 mm 0.00 in/hr0.0 mm/hr 0.02 in0.5 mm
08:12 PM 47.6°F8.7°C 35.6°F2.0°C 63% 10.0 mph S16.1 kmh S 12.0 mph19.3 kmh 29.93 in1013.5 mb 0.00 in0.0 mm 0.00 in/hr0.0 mm/hr 0.02 in0.5 mm
08:14 PM 47.5°F8.6°C 35.6°F2.0°C 63% 10.0 mph S16.1 kmh S 12.0 mph19.3 kmh 29.93 in1013.5 mb 0.00 in0.0 mm 0.00 in/hr0.0 mm/hr 0.02 in0.5 mm
08:15 PM 47.5°F8.6°C 35.6°F2.0°C 63% 10.0 mph S16.1 kmh S 12.0 mph19.3 kmh 29.93 in1013.5 mb 0.00 in0.0 mm 0.00 in/hr0.0 mm/hr 0.02 in0.5 mm
08:17 PM 47.3°F8.5°C 35.4°F1.9°C 63% 10.0 mph S16.1 kmh S 12.0 mph19.3 kmh 29.93 in1013.5 mb 0.00 in0.0 mm 0.00 in/hr0.0 mm/hr 0.02 in0.5 mm
08:18 PM 47.2°F8.4°C 35.3°F1.8°C 63% 10.0 mph S16.1 kmh S 12.0 mph19.3 kmh 29.93 in1013.5 mb 0.00 in0.0 mm 0.00 in/hr0.0 mm/hr 0.02 in0.5 mm
08:20 PM 47.0°F8.3°C 35.1°F1.7°C 63% 9.0 mph S14.5 kmh S 12.0 mph19.3 kmh 29.93 in1013.5 mb 0.00 in0.0 mm 0.00 in/hr0.0 mm/hr 0.02 in0.5 mm
08:22 PM 46.9°F8.3°C 35.4°F1.9°C 64% 9.0 mph S14.5 kmh S 12.0 mph19.3 kmh 29.93 in1013.5 mb 0.00 in0.0 mm 0.00 in/hr0.0 mm/hr 0.02 in0.5 mm
08:23 PM 46.9°F8.3°C 35.4°F1.9°C 64% 11.0 mph S17.7 kmh S 12.0 mph19.3 kmh 29.93 in1013.5 mb 0.00 in0.0 mm 0.00 in/hr0.0 mm/hr 0.02 in0.5 mm
08:25 PM 46.8°F8.2°C 35.3°F1.8°C 64% 9.0 mph S14.5 kmh S 12.0 mph19.3 kmh 29.93 in1013.5 mb 0.00 in0.0 mm 0.00 in/hr0.0 mm/hr 0.02 in0.5 mm
08:26 PM 46.7°F8.2°C 35.2°F1.8°C 64% 9.0 mph S14.5 kmh S 12.0 mph19.3 kmh 29.93 in1013.5 mb 0.00 in0.0 mm 0.00 in/hr0.0 mm/hr 0.02 in0.5 mm
08:27 PM 46.6°F8.1°C 35.1°F1.7°C 64% 9.0 mph S14.5 kmh S 12.0 mph19.3 kmh 29.93 in1013.5 mb 0.00 in0.0 mm 0.00 in/hr0.0 mm/hr 0.02 in0.5 mm
08:29 PM 46.6°F8.1°C 35.1°F1.7°C 64% 9.0 mph S14.5 kmh S 12.0 mph19.3 kmh 29.93 in1013.5 mb 0.00 in0.0 mm 0.00 in/hr0.0 mm/hr 0.02 in0.5 mm
08:30 PM 46.5°F8.1°C 35.0°F1.7°C 64% 9.0 mph S14.5 kmh S 12.0 mph19.3 kmh 29.93 in1013.5 mb 0.00 in0.0 mm 0.00 in/hr0.0 mm/hr 0.02 in0.5 mm
08:31 PM 46.5°F8.1°C 35.0°F1.7°C 64% 8.0 mph S12.9 kmh S 10.0 mph16.1 kmh 29.93 in1013.5 mb 0.00 in0.0 mm 0.00 in/hr0.0 mm/hr 0.02 in0.5 mm
08:32 PM 46.4°F8.0°C 35.3°F1.8°C 65% 9.0 mph S14.5 kmh S 10.0 mph16.1 kmh 29.93 in1013.5 mb 0.00 in0.0 mm 0.00 in/hr0.0 mm/hr 0.02 in0.5 mm
08:33 PM 46.3°F7.9°C 35.2°F1.8°C 65% 9.0 mph S14.5 kmh S 11.0 mph17.7 kmh 29.93 in1013.5 mb 0.00 in0.0 mm 0.00 in/hr0.0 mm/hr 0.02 in0.5 mm
08:35 PM 46.2°F7.9°C 35.1°F1.7°C 65% 9.0 mph S14.5 kmh S 11.0 mph17.7 kmh 29.93 in1013.5 mb 0.00 in0.0 mm 0.00 in/hr0.0 mm/hr 0.02 in0.5 mm
08:36 PM 46.1°F7.8°C 35.0°F1.7°C 65% 10.0 mph S16.1 kmh S 11.0 mph17.7 kmh 29.93 in1013.5 mb 0.00 in0.0 mm 0.00 in/hr0.0 mm/hr 0.02 in0.5 mm
08:38 PM 46.0°F7.8°C 34.9°F1.6°C 65% 9.0 mph SSE14.5 kmh SSE 11.0 mph17.7 kmh 29.93 in1013.5 mb 0.00 in0.0 mm 0.00 in/hr0.0 mm/hr 0.02 in0.5 mm
08:39 PM 46.0°F7.8°C 35.3°F1.8°C 66% 8.0 mph S12.9 kmh S 11.0 mph17.7 kmh 29.93 in1013.5 mb 0.00 in0.0 mm 0.00 in/hr0.0 mm/hr 0.02 in0.5 mm
08:40 PM 45.9°F7.7°C 35.2°F1.8°C 66% 9.0 mph S14.5 kmh S 11.0 mph17.7 kmh 29.93 in1013.5 mb 0.00 in0.0 mm 0.00 in/hr0.0 mm/hr 0.02 in0.5 mm
08:42 PM 45.8°F7.7°C 35.1°F1.7°C 66% 10.0 mph S16.1 kmh S 11.0 mph17.7 kmh 29.93 in1013.5 mb 0.00 in0.0 mm 0.00 in/hr0.0 mm/hr 0.02 in0.5 mm
08:43 PM 45.8°F7.7°C 35.1°F1.7°C 66% 10.0 mph S16.1 kmh S 11.0 mph17.7 kmh 29.93 in1013.5 mb 0.00 in0.0 mm 0.00 in/hr0.0 mm/hr 0.02 in0.5 mm
08:44 PM 45.7°F7.6°C 35.0°F1.7°C 66% 8.0 mph S12.9 kmh S 11.0 mph17.7 kmh 29.94 in1013.9 mb 0.00 in0.0 mm 0.00 in/hr0.0 mm/hr 0.02 in0.5 mm
08:45 PM 45.6°F7.6°C 35.3°F1.8°C 67% 10.0 mph S16.1 kmh S 11.0 mph17.7 kmh 29.94 in1013.9 mb 0.00 in0.0 mm 0.00 in/hr0.0 mm/hr 0.02 in0.5 mm
08:47 PM 45.4°F7.4°C 35.1°F1.7°C 67% 9.0 mph S14.5 kmh S 12.0 mph19.3 kmh 29.94 in1013.9 mb 0.00 in0.0 mm 0.00 in/hr0.0 mm/hr 0.02 in0.5 mm
08:48 PM 45.4°F7.4°C 35.1°F1.7°C 67% 9.0 mph S14.5 kmh S 12.0 mph19.3 kmh 29.94 in1013.9 mb 0.00 in0.0 mm 0.00 in/hr0.0 mm/hr 0.02 in0.5 mm
08:50 PM 45.2°F7.3°C 34.9°F1.6°C 67% 12.0 mph S19.3 kmh S 12.0 mph19.3 kmh 29.94 in1013.9 mb 0.00 in0.0 mm 0.00 in/hr0.0 mm/hr 0.02 in0.5 mm
08:52 PM 45.1°F7.3°C 35.2°F1.8°C 68% 10.0 mph S16.1 kmh S 12.0 mph19.3 kmh 29.94 in1013.9 mb 0.00 in0.0 mm 0.00 in/hr0.0 mm/hr 0.02 in0.5 mm
08:54 PM 45.0°F7.2°C 35.1°F1.7°C 68% 11.0 mph S17.7 kmh S 12.0 mph19.3 kmh 29.94 in1013.9 mb 0.00 in0.0 mm 0.00 in/hr0.0 mm/hr 0.02 in0.5 mm
08:55 PM 44.9°F7.2°C 35.0°F1.7°C 68% 10.0 mph SSW16.1 kmh SSW 13.0 mph20.9 kmh 29.94 in1013.9 mb 0.00 in0.0 mm 0.00 in/hr0.0 mm/hr 0.02 in0.5 mm
08:57 PM 44.9°F7.2°C 35.0°F1.7°C 68% 11.0 mph S17.7 kmh S 13.0 mph20.9 kmh 29.94 in1013.9 mb 0.00 in0.0 mm 0.00 in/hr0.0 mm/hr 0.02 in0.5 mm
08:58 PM 44.8°F7.1°C 34.9°F1.6°C 68% 9.0 mph S14.5 kmh S 13.0 mph20.9 kmh 29.94 in1013.9 mb 0.00 in0.0 mm 0.00 in/hr0.0 mm/hr 0.02 in0.5 mm
09:00 PM 44.7°F7.1°C 34.8°F1.6°C 68% 9.0 mph S14.5 kmh S 13.0 mph20.9 kmh 29.94 in1013.9 mb 0.00 in0.0 mm 0.00 in/hr0.0 mm/hr 0.02 in0.5 mm
09:02 PM 44.7°F7.1°C 34.8°F1.6°C 68% 9.0 mph SSW14.5 kmh SSW 11.0 mph17.7 kmh 29.94 in1013.9 mb 0.00 in0.0 mm 0.00 in/hr0.0 mm/hr 0.02 in0.5 mm
09:03 PM 44.8°F7.1°C 34.9°F1.6°C 68% 8.0 mph S12.9 kmh S 11.0 mph17.7 kmh 29.94 in1013.9 mb 0.00 in0.0 mm 0.00 in/hr0.0 mm/hr 0.02 in0.5 mm
09:04 PM 44.8°F7.1°C 34.9°F1.6°C 68% 9.0 mph S14.5 kmh S 11.0 mph17.7 kmh 29.94 in1013.9 mb 0.00 in0.0 mm 0.00 in/hr0.0 mm/hr 0.02 in0.5 mm
09:06 PM 44.9°F7.2°C 35.0°F1.7°C 68% 9.0 mph S14.5 kmh S 11.0 mph17.7 kmh 29.94 in1013.9 mb 0.00 in0.0 mm 0.00 in/hr0.0 mm/hr 0.02 in0.5 mm
09:07 PM 44.9°F7.2°C 35.0°F1.7°C 68% 11.0 mph S17.7 kmh S 11.0 mph17.7 kmh 29.94 in1013.9 mb 0.00 in0.0 mm 0.00 in/hr0.0 mm/hr 0.02 in0.5 mm
09:09 PM 45.0°F7.2°C 35.1°F1.7°C 68% 8.0 mph S12.9 kmh S 12.0 mph19.3 kmh 29.94 in1013.9 mb 0.00 in0.0 mm 0.00 in/hr0.0 mm/hr 0.02 in0.5 mm
09:10 PM 45.1°F7.3°C 35.2°F1.8°C 68% 8.0 mph S12.9 kmh S 12.0 mph19.3 kmh 29.94 in1013.9 mb 0.00 in0.0 mm 0.00 in/hr0.0 mm/hr 0.02 in0.5 mm
09:12 PM 45.1°F7.3°C 35.2°F1.8°C 68% 9.0 mph S14.5 kmh S 12.0 mph19.3 kmh 29.94 in1013.9 mb 0.00 in0.0 mm 0.00 in/hr0.0 mm/hr 0.02 in0.5 mm
09:14 PM 45.2°F7.3°C 34.9°F1.6°C 67% 8.0 mph SSW12.9 kmh SSW 12.0 mph19.3 kmh 29.95 in1014.2 mb 0.00 in0.0 mm 0.00 in/hr0.0 mm/hr 0.02 in0.5 mm
09:15 PM 45.3°F7.4°C 35.0°F1.7°C 67% 9.0 mph S14.5 kmh S 12.0 mph19.3 kmh 29.94 in1013.9 mb 0.00 in0.0 mm 0.00 in/hr0.0 mm/hr 0.02 in0.5 mm
09:17 PM 45.4°F7.4°C 34.7°F1.5°C 66% 9.0 mph S14.5 kmh S 12.0 mph19.3 kmh 29.95 in1014.2 mb 0.00 in0.0 mm 0.00 in/hr0.0 mm/hr 0.02 in0.5 mm
09:18 PM 45.5°F7.5°C 34.8°F1.6°C 66% 11.0 mph S17.7 kmh S 14.0 mph22.5 kmh 29.94 in1013.9 mb 0.00 in0.0 mm 0.00 in/hr0.0 mm/hr 0.02 in0.5 mm
09:19 PM 45.6°F7.6°C 34.5°F1.4°C 65% 12.0 mph SSW19.3 kmh SSW 14.0 mph22.5 kmh 29.95 in1014.2 mb 0.00 in0.0 mm 0.00 in/hr0.0 mm/hr 0.02 in0.5 mm
09:20 PM 45.8°F7.7°C 34.7°F1.5°C 65% 8.0 mph SSW12.9 kmh SSW 14.0 mph22.5 kmh 29.95 in1014.2 mb 0.00 in0.0 mm 0.00 in/hr0.0 mm/hr 0.02 in0.5 mm
09:21 PM 45.8°F7.7°C 34.7°F1.5°C 65% 13.0 mph S20.9 kmh S 14.0 mph22.5 kmh 29.94 in1013.9 mb 0.00 in0.0 mm 0.00 in/hr0.0 mm/hr 0.02 in0.5 mm
09:22 PM 46.1°F7.8°C 34.6°F1.4°C 64% 10.0 mph SSW16.1 kmh SSW 16.0 mph25.7 kmh 29.95 in1014.2 mb 0.00 in0.0 mm 0.00 in/hr0.0 mm/hr 0.02 in0.5 mm
09:24 PM 46.2°F7.9°C 34.7°F1.5°C 64% 11.0 mph SSW17.7 kmh SSW 16.0 mph25.7 kmh 29.94 in1013.9 mb 0.00 in0.0 mm 0.00 in/hr0.0 mm/hr 0.02 in0.5 mm
09:25 PM 46.4°F8.0°C 34.5°F1.4°C 63% 13.0 mph S20.9 kmh S 16.0 mph25.7 kmh 29.94 in1013.9 mb 0.00 in0.0 mm 0.00 in/hr0.0 mm/hr 0.02 in0.5 mm
09:27 PM 46.6°F8.1°C 34.7°F1.5°C 63% 12.0 mph S19.3 kmh S 16.0 mph25.7 kmh 29.94 in1013.9 mb 0.00 in0.0 mm 0.00 in/hr0.0 mm/hr 0.02 in0.5 mm
09:28 PM 46.7°F8.2°C 34.8°F1.6°C 63% 15.0 mph S24.1 kmh S 16.0 mph25.7 kmh 29.94 in1013.9 mb 0.00 in0.0 mm 0.00 in/hr0.0 mm/hr 0.02 in0.5 mm
09:30 PM 46.8°F8.2°C 34.5°F1.4°C 62% 9.0 mph SSW14.5 kmh SSW 16.0 mph25.7 kmh 29.95 in1014.2 mb 0.00 in0.0 mm 0.00 in/hr0.0 mm/hr 0.02 in0.5 mm
09:31 PM 46.8°F8.2°C 34.5°F1.4°C 62% 11.0 mph SSW17.7 kmh SSW 13.0 mph20.9 kmh 29.94 in1013.9 mb 0.00 in0.0 mm 0.00 in/hr0.0 mm/hr 0.02 in0.5 mm
09:32 PM 46.8°F8.2°C 34.5°F1.4°C 62% 14.0 mph S22.5 kmh S 15.0 mph24.1 kmh 29.94 in1013.9 mb 0.00 in0.0 mm 0.00 in/hr0.0 mm/hr 0.02 in0.5 mm
09:33 PM 46.8°F8.2°C 34.5°F1.4°C 62% 12.0 mph S19.3 kmh S 15.0 mph24.1 kmh 29.94 in1013.9 mb 0.00 in0.0 mm 0.00 in/hr0.0 mm/hr 0.02 in0.5 mm
09:34 PM 46.9°F8.3°C 34.6°F1.4°C 62% 11.0 mph SSW17.7 kmh SSW 15.0 mph24.1 kmh 29.94 in1013.9 mb 0.00 in0.0 mm 0.00 in/hr0.0 mm/hr 0.02 in0.5 mm
09:36 PM 46.8°F8.2°C 34.5°F1.4°C 62% 14.0 mph S22.5 kmh S 15.0 mph24.1 kmh 29.94 in1013.9 mb 0.00 in0.0 mm 0.00 in/hr0.0 mm/hr 0.02 in0.5 mm
09:38 PM 46.8°F8.2°C 34.5°F1.4°C 62% 14.0 mph S22.5 kmh S 16.0 mph25.7 kmh 29.94 in1013.9 mb 0.00 in0.0 mm 0.00 in/hr0.0 mm/hr 0.02 in0.5 mm
09:39 PM 46.8°F8.2°C 34.5°F1.4°C 62% 13.0 mph S20.9 kmh S 16.0 mph25.7 kmh 29.94 in1013.9 mb 0.00 in0.0 mm 0.00 in/hr0.0 mm/hr 0.02 in0.5 mm
09:40 PM 46.8°F8.2°C 34.5°F1.4°C 62% 12.0 mph S19.3 kmh S 16.0 mph25.7 kmh 29.94 in1013.9 mb 0.00 in0.0 mm 0.00 in/hr0.0 mm/hr 0.02 in0.5 mm
09:42 PM 46.8°F8.2°C 34.5°F1.4°C 62% 12.0 mph SSW19.3 kmh SSW 16.0 mph25.7 kmh 29.94 in1013.9 mb 0.00 in0.0 mm 0.00 in/hr0.0 mm/hr 0.02 in0.5 mm
09:43 PM 46.8°F8.2°C 34.5°F1.4°C 62% 11.0 mph S17.7 kmh S 16.0 mph25.7 kmh 29.95 in1014.2 mb 0.00 in0.0 mm 0.00 in/hr0.0 mm/hr 0.02 in0.5 mm
09:44 PM 46.8°F8.2°C 34.5°F1.4°C 62% 13.0 mph S20.9 kmh S 16.0 mph25.7 kmh 29.95 in1014.2 mb 0.00 in0.0 mm 0.00 in/hr0.0 mm/hr 0.02 in0.5 mm
09:45 PM 46.8°F8.2°C 34.5°F1.4°C 62% 11.0 mph SSW17.7 kmh SSW 16.0 mph25.7 kmh 29.95 in1014.2 mb 0.00 in0.0 mm 0.00 in/hr0.0 mm/hr 0.02 in0.5 mm
09:47 PM 46.7°F8.2°C 34.4°F1.3°C 62% 12.0 mph SSW19.3 kmh SSW 16.0 mph25.7 kmh 29.94 in1013.9 mb 0.00 in0.0 mm 0.00 in/hr0.0 mm/hr 0.02 in0.5 mm
09:48 PM 46.8°F8.2°C 34.5°F1.4°C 62% 12.0 mph S19.3 kmh S 16.0 mph25.7 kmh 29.95 in1014.2 mb 0.00 in0.0 mm 0.00 in/hr0.0 mm/hr 0.02 in0.5 mm
09:50 PM 46.7°F8.2°C 34.0°F1.1°C 61% 14.0 mph S22.5 kmh S 16.0 mph25.7 kmh 29.95 in1014.2 mb 0.00 in0.0 mm 0.00 in/hr0.0 mm/hr 0.02 in0.5 mm
09:51 PM 46.7°F8.2°C 34.0°F1.1°C 61% 12.0 mph S19.3 kmh S 16.0 mph25.7 kmh 29.94 in1013.9 mb 0.00 in0.0 mm 0.00 in/hr0.0 mm/hr 0.02 in0.5 mm
09:52 PM 46.7°F8.2°C 34.0°F1.1°C 61% 11.0 mph S17.7 kmh S 16.0 mph25.7 kmh 29.95 in1014.2 mb 0.00 in0.0 mm 0.00 in/hr0.0 mm/hr 0.02 in0.5 mm
09:53 PM 46.7°F8.2°C 34.0°F1.1°C 61% 12.0 mph S19.3 kmh S 16.0 mph25.7 kmh 29.95 in1014.2 mb 0.00 in0.0 mm 0.00 in/hr0.0 mm/hr 0.02 in0.5 mm
09:55 PM 46.7°F8.2°C 34.4°F1.3°C 62% 12.0 mph S19.3 kmh S 16.0 mph25.7 kmh 29.94 in1013.9 mb 0.00 in0.0 mm 0.00 in/hr0.0 mm/hr 0.02 in0.5 mm
09:56 PM 46.6°F8.1°C 33.9°F1.1°C 61% 13.0 mph SSW20.9 kmh SSW 16.0 mph25.7 kmh 29.94 in1013.9 mb 0.00 in0.0 mm 0.00 in/hr0.0 mm/hr 0.02 in0.5 mm
09:57 PM 46.6°F8.1°C 33.9°F1.1°C 61% 12.0 mph S19.3 kmh S 16.0 mph25.7 kmh 29.94 in1013.9 mb 0.00 in0.0 mm 0.00 in/hr0.0 mm/hr 0.02 in0.5 mm
09:59 PM 46.5°F8.1°C 34.2°F1.2°C 62% 10.0 mph S16.1 kmh S 16.0 mph25.7 kmh 29.95 in1014.2 mb 0.00 in0.0 mm 0.00 in/hr0.0 mm/hr 0.02 in0.5 mm
10:00 PM 46.4°F8.0°C 34.1°F1.2°C 62% 9.0 mph SSW14.5 kmh SSW 16.0 mph25.7 kmh 29.95 in1014.2 mb 0.00 in0.0 mm 0.00 in/hr0.0 mm/hr 0.02 in0.5 mm
10:02 PM 46.3°F7.9°C 34.0°F1.1°C 62% 13.0 mph S20.9 kmh S 16.0 mph25.7 kmh 29.95 in1014.2 mb 0.00 in0.0 mm 0.00 in/hr0.0 mm/hr 0.02 in0.5 mm
10:03 PM 46.2°F7.9°C 33.9°F1.1°C 62% 12.0 mph SSW19.3 kmh SSW 16.0 mph25.7 kmh 29.94 in1013.9 mb 0.00 in0.0 mm 0.00 in/hr0.0 mm/hr 0.02 in0.5 mm
10:05 PM 46.0°F7.8°C 33.7°F0.9°C 62% 9.0 mph S14.5 kmh S 16.0 mph25.7 kmh 29.94 in1013.9 mb 0.00 in0.0 mm 0.00 in/hr0.0 mm/hr 0.02 in0.5 mm
10:06 PM 46.0°F7.8°C 34.1°F1.2°C 63% 12.0 mph S19.3 kmh S 16.0 mph25.7 kmh 29.94 in1013.9 mb 0.00 in0.0 mm 0.00 in/hr0.0 mm/hr 0.02 in0.5 mm
10:08 PM 45.8°F7.7°C 33.9°F1.1°C 63% 12.0 mph S19.3 kmh S 16.0 mph25.7 kmh 29.94 in1013.9 mb 0.00 in0.0 mm 0.00 in/hr0.0 mm/hr 0.02 in0.5 mm
10:10 PM 45.6°F7.6°C 33.8°F1.0°C 63% 13.0 mph S20.9 kmh S 16.0 mph25.7 kmh 29.94 in1013.9 mb 0.00 in0.0 mm 0.00 in/hr0.0 mm/hr 0.02 in0.5 mm
10:11 PM 45.6°F7.6°C 33.8°F1.0°C 63% 13.0 mph S20.9 kmh S 16.0 mph25.7 kmh 29.94 in1013.9 mb 0.00 in0.0 mm 0.00 in/hr0.0 mm/hr 0.02 in0.5 mm
10:12 PM 45.5°F7.5°C 34.1°F1.2°C 64% 10.0 mph SSW16.1 kmh SSW 16.0 mph25.7 kmh 29.94 in1013.9 mb 0.00 in0.0 mm 0.00 in/hr0.0 mm/hr 0.02 in0.5 mm
10:13 PM 45.5°F7.5°C 34.1°F1.2°C 64% 11.0 mph SSW17.7 kmh SSW 16.0 mph25.7 kmh 29.94 in1013.9 mb 0.00 in0.0 mm 0.00 in/hr0.0 mm/hr 0.02 in0.5 mm
10:15 PM 45.3°F7.4°C 33.9°F1.1°C 64% 12.0 mph SSW19.3 kmh SSW 16.0 mph25.7 kmh 29.94 in1013.9 mb 0.00 in0.0 mm 0.00 in/hr0.0 mm/hr 0.02 in0.5 mm
10:17 PM 45.2°F7.3°C 33.8°F1.0°C 64% 14.0 mph SSW22.5 kmh SSW 16.0 mph25.7 kmh 29.94 in1013.9 mb 0.00 in0.0 mm 0.00 in/hr0.0 mm/hr 0.02 in0.5 mm
10:18 PM 45.1°F7.3°C 33.7°F0.9°C 64% 15.0 mph S24.1 kmh S 16.0 mph25.7 kmh 29.95 in1014.2 mb 0.00 in0.0 mm 0.00 in/hr0.0 mm/hr 0.02 in0.5 mm
10:20 PM 45.0°F7.2°C 33.6°F0.9°C 64% 14.0 mph S22.5 kmh S 16.0 mph25.7 kmh 29.94 in1013.9 mb 0.00 in0.0 mm 0.00 in/hr0.0 mm/hr 0.02 in0.5 mm
10:21 PM 45.0°F7.2°C 33.6°F0.9°C 64% 12.0 mph S19.3 kmh S 16.0 mph25.7 kmh 29.94 in1013.9 mb 0.00 in0.0 mm 0.00 in/hr0.0 mm/hr 0.02 in0.5 mm
10:22 PM 45.0°F7.2°C 33.6°F0.9°C 64% 11.0 mph S17.7 kmh S 16.0 mph25.7 kmh 29.94 in1013.9 mb 0.00 in0.0 mm 0.00 in/hr0.0 mm/hr 0.02 in0.5 mm
10:24 PM 45.0°F7.2°C 33.6°F0.9°C 64% 11.0 mph S17.7 kmh S 16.0 mph25.7 kmh 29.95 in1014.2 mb 0.00 in0.0 mm 0.00 in/hr0.0 mm/hr 0.02 in0.5 mm
10:25 PM 45.0°F7.2°C 33.6°F0.9°C 64% 10.0 mph S16.1 kmh S 16.0 mph25.7 kmh 29.95 in1014.2 mb 0.00 in0.0 mm 0.00 in/hr0.0 mm/hr 0.02 in0.5 mm
10:26 PM 44.9°F7.2°C 33.5°F0.8°C 64% 14.0 mph S22.5 kmh S 16.0 mph25.7 kmh 29.94 in1013.9 mb 0.00 in0.0 mm 0.00 in/hr0.0 mm/hr 0.02 in0.5 mm
10:27 PM 44.9°F7.2°C 33.5°F0.8°C 64% 15.0 mph S24.1 kmh S 16.0 mph25.7 kmh 29.94 in1013.9 mb 0.00 in0.0 mm 0.00 in/hr0.0 mm/hr 0.02 in0.5 mm
10:29 PM 44.9°F7.2°C 33.5°F0.8°C 64% 10.0 mph SSW16.1 kmh SSW 16.0 mph25.7 kmh 29.95 in1014.2 mb 0.00 in0.0 mm 0.00 in/hr0.0 mm/hr 0.02 in0.5 mm
10:30 PM 44.9°F7.2°C 33.5°F0.8°C 64% 11.0 mph S17.7 kmh S 16.0 mph25.7 kmh 29.95 in1014.2 mb 0.00 in0.0 mm 0.00 in/hr0.0 mm/hr 0.02 in0.5 mm
10:32 PM 44.9°F7.2°C 33.5°F0.8°C 64% 13.0 mph S20.9 kmh S 15.0 mph24.1 kmh 29.95 in1014.2 mb 0.00 in0.0 mm 0.00 in/hr0.0 mm/hr 0.02 in0.5 mm
10:33 PM 44.9°F7.2°C 33.5°F0.8°C 64% 12.0 mph S19.3 kmh S 16.0 mph25.7 kmh 29.95 in1014.2 mb 0.00 in0.0 mm 0.00 in/hr0.0 mm/hr 0.02 in0.5 mm
10:34 PM 44.9°F7.2°C 33.5°F0.8°C 64% 13.0 mph S20.9 kmh S 16.0 mph25.7 kmh 29.95 in1014.2 mb 0.00 in0.0 mm 0.00 in/hr0.0 mm/hr 0.02 in0.5 mm
10:36 PM 44.9°F7.2°C 33.5°F0.8°C 64% 12.0 mph S19.3 kmh S 16.0 mph25.7 kmh 29.95 in1014.2 mb 0.00 in0.0 mm 0.00 in/hr0.0 mm/hr 0.02 in0.5 mm
10:37 PM 44.9°F7.2°C 33.5°F0.8°C 64% 12.0 mph S19.3 kmh S 16.0 mph25.7 kmh 29.95 in1014.2 mb 0.00 in0.0 mm 0.00 in/hr0.0 mm/hr 0.02 in0.5 mm
10:39 PM 44.9°F7.2°C 33.5°F0.8°C 64% 13.0 mph SSW20.9 kmh SSW 16.0 mph25.7 kmh 29.95 in1014.2 mb 0.00 in0.0 mm 0.00 in/hr0.0 mm/hr 0.02 in0.5 mm
10:40 PM 44.9°F7.2°C 33.5°F0.8°C 64% 15.0 mph S24.1 kmh S 16.0 mph25.7 kmh 29.95 in1014.2 mb 0.00 in0.0 mm 0.00 in/hr0.0 mm/hr 0.02 in0.5 mm
10:41 PM 44.9°F7.2°C 33.5°F0.8°C 64% 13.0 mph S20.9 kmh S 16.0 mph25.7 kmh 29.95 in1014.2 mb 0.00 in0.0 mm 0.00 in/hr0.0 mm/hr 0.02 in0.5 mm
10:43 PM 44.9°F7.2°C 33.5°F0.8°C 64% 10.0 mph S16.1 kmh S 16.0 mph25.7 kmh 29.95 in1014.2 mb 0.00 in0.0 mm 0.00 in/hr0.0 mm/hr 0.02 in0.5 mm
10:44 PM 44.9°F7.2°C 33.5°F0.8°C 64% 11.0 mph S17.7 kmh S 16.0 mph25.7 kmh 29.95 in1014.2 mb 0.00 in0.0 mm 0.00 in/hr0.0 mm/hr 0.02 in0.5 mm
10:46 PM 44.9°F7.2°C 33.5°F0.8°C 64% 14.0 mph S22.5 kmh S 16.0 mph25.7 kmh 29.95 in1014.2 mb 0.00 in0.0 mm 0.00 in/hr0.0 mm/hr 0.02 in0.5 mm
10:47 PM 44.9°F7.2°C 33.5°F0.8°C 64% 10.0 mph S16.1 kmh S 16.0 mph25.7 kmh 29.95 in1014.2 mb 0.00 in0.0 mm 0.00 in/hr0.0 mm/hr 0.02 in0.5 mm
10:48 PM 44.9°F7.2°C 33.5°F0.8°C 64% 10.0 mph S16.1 kmh S 16.0 mph25.7 kmh 29.95 in1014.2 mb 0.00 in0.0 mm 0.00 in/hr0.0 mm/hr 0.02 in0.5 mm
10:50 PM 44.9°F7.2°C 33.5°F0.8°C 64% 13.0 mph S20.9 kmh S 16.0 mph25.7 kmh 29.95 in1014.2 mb 0.00 in0.0 mm 0.00 in/hr0.0 mm/hr 0.02 in0.5 mm
10:51 PM 44.9°F7.2°C 33.5°F0.8°C 64% 9.0 mph S14.5 kmh S 16.0 mph25.7 kmh 29.95 in1014.2 mb 0.00 in0.0 mm 0.00 in/hr0.0 mm/hr 0.02 in0.5 mm
10:52 PM 44.9°F7.2°C 33.5°F0.8°C 64% 15.0 mph S24.1 kmh S 16.0 mph25.7 kmh 29.95 in1014.2 mb 0.00 in0.0 mm 0.00 in/hr0.0 mm/hr 0.02 in0.5 mm
10:54 PM 44.9°F7.2°C 33.5°F0.8°C 64% 8.0 mph S12.9 kmh S 16.0 mph25.7 kmh 29.95 in1014.2 mb 0.00 in0.0 mm 0.00 in/hr0.0 mm/hr 0.02 in0.5 mm
10:55 PM 44.8°F7.1°C 33.4°F0.8°C 64% 12.0 mph S19.3 kmh S 16.0 mph25.7 kmh 29.95 in1014.2 mb 0.00 in0.0 mm 0.00 in/hr0.0 mm/hr 0.02 in0.5 mm
10:56 PM 44.8°F7.1°C 33.4°F0.8°C 64% 10.0 mph S16.1 kmh S 16.0 mph25.7 kmh 29.95 in1014.2 mb 0.00 in0.0 mm 0.00 in/hr0.0 mm/hr 0.02 in0.5 mm
10:58 PM 44.7°F7.1°C 33.3°F0.7°C 64% 8.0 mph SSW12.9 kmh SSW 16.0 mph25.7 kmh 29.95 in1014.2 mb 0.00 in0.0 mm 0.00 in/hr0.0 mm/hr 0.02 in0.5 mm
10:59 PM 44.7°F7.1°C 33.3°F0.7°C 64% 7.0 mph SSW11.3 kmh SSW 16.0 mph25.7 kmh 29.95 in1014.2 mb 0.00 in0.0 mm 0.00 in/hr0.0 mm/hr 0.02 in0.5 mm
11:00 PM 44.6°F7.0°C 33.2°F0.7°C 64% 11.0 mph S17.7 kmh S 16.0 mph25.7 kmh 29.95 in1014.2 mb 0.00 in0.0 mm 0.00 in/hr0.0 mm/hr 0.02 in0.5 mm
11:01 PM 44.5°F6.9°C 33.1°F0.6°C 64% 8.0 mph S12.9 kmh S 9.0 mph14.5 kmh 29.95 in1014.2 mb 0.00 in0.0 mm 0.00 in/hr0.0 mm/hr 0.02 in0.5 mm
11:02 PM 44.4°F6.9°C 33.0°F0.6°C 64% 8.0 mph S12.9 kmh S 9.0 mph14.5 kmh 29.95 in1014.2 mb 0.00 in0.0 mm 0.00 in/hr0.0 mm/hr 0.02 in0.5 mm
11:04 PM 44.1°F6.7°C 33.1°F0.6°C 65% 9.0 mph S14.5 kmh S 11.0 mph17.7 kmh 29.95 in1014.2 mb 0.00 in0.0 mm 0.00 in/hr0.0 mm/hr 0.02 in0.5 mm
11:06 PM 43.8°F6.6°C 32.8°F0.4°C 65% 9.0 mph S14.5 kmh S 11.0 mph17.7 kmh 29.95 in1014.2 mb 0.00 in0.0 mm 0.00 in/hr0.0 mm/hr 0.02 in0.5 mm
11:07 PM 43.6°F6.4°C 33.0°F0.6°C 66% 7.0 mph S11.3 kmh S 11.0 mph17.7 kmh 29.95 in1014.2 mb 0.00 in0.0 mm 0.00 in/hr0.0 mm/hr 0.02 in0.5 mm
11:08 PM 43.3°F6.3°C 32.7°F0.4°C 66% 10.0 mph S16.1 kmh S 11.0 mph17.7 kmh 29.95 in1014.2 mb 0.00 in0.0 mm 0.00 in/hr0.0 mm/hr 0.02 in0.5 mm
11:10 PM 43.1°F6.2°C 32.9°F0.5°C 67% 9.0 mph SSW14.5 kmh SSW 11.0 mph17.7 kmh 29.95 in1014.2 mb 0.00 in0.0 mm 0.00 in/hr0.0 mm/hr 0.02 in0.5 mm
11:12 PM 43.0°F6.1°C 32.8°F0.4°C 67% 8.0 mph S12.9 kmh S 11.0 mph17.7 kmh 29.95 in1014.2 mb 0.00 in0.0 mm 0.00 in/hr0.0 mm/hr 0.02 in0.5 mm
11:14 PM 42.9°F6.1°C 32.7°F0.4°C 67% 8.0 mph S12.9 kmh S 11.0 mph17.7 kmh 29.95 in1014.2 mb 0.00 in0.0 mm 0.00 in/hr0.0 mm/hr 0.02 in0.5 mm
11:16 PM 42.8°F6.0°C 32.6°F0.3°C 67% 12.0 mph S19.3 kmh S 12.0 mph19.3 kmh 29.95 in1014.2 mb 0.00 in0.0 mm 0.00 in/hr0.0 mm/hr 0.02 in0.5 mm
11:18 PM 42.9°F6.1°C 32.7°F0.4°C 67% 10.0 mph S16.1 kmh S 13.0 mph20.9 kmh 29.95 in1014.2 mb 0.00 in0.0 mm 0.00 in/hr0.0 mm/hr 0.02 in0.5 mm
11:19 PM 42.9°F6.1°C 32.7°F0.4°C 67% 10.0 mph SSW16.1 kmh SSW 13.0 mph20.9 kmh 29.96 in1014.6 mb 0.00 in0.0 mm 0.00 in/hr0.0 mm/hr 0.02 in0.5 mm
11:20 PM 42.9°F6.1°C 32.7°F0.4°C 67% 9.0 mph S14.5 kmh S 13.0 mph20.9 kmh 29.96 in1014.6 mb 0.00 in0.0 mm 0.00 in/hr0.0 mm/hr 0.02 in0.5 mm
11:21 PM 42.9°F6.1°C 32.7°F0.4°C 67% 11.0 mph S17.7 kmh S 13.0 mph20.9 kmh 29.96 in1014.6 mb 0.00 in0.0 mm 0.00 in/hr0.0 mm/hr 0.02 in0.5 mm
11:22 PM 43.0°F6.1°C 32.8°F0.4°C 67% 12.0 mph S19.3 kmh S 13.0 mph20.9 kmh 29.96 in1014.6 mb 0.00 in0.0 mm 0.00 in/hr0.0 mm/hr 0.02 in0.5 mm
11:24 PM 43.1°F6.2°C 32.9°F0.5°C 67% 9.0 mph S14.5 kmh S 13.0 mph20.9 kmh 29.96 in1014.6 mb 0.00 in0.0 mm 0.00 in/hr0.0 mm/hr 0.02 in0.5 mm
11:25 PM 43.1°F6.2°C 32.9°F0.5°C 67% 10.0 mph S16.1 kmh S 13.0 mph20.9 kmh 29.96 in1014.6 mb 0.00 in0.0 mm 0.00 in/hr0.0 mm/hr 0.02 in0.5 mm
11:26 PM 43.1°F6.2°C 32.9°F0.5°C 67% 11.0 mph S17.7 kmh S 13.0 mph20.9 kmh 29.96 in1014.6 mb 0.00 in0.0 mm 0.00 in/hr0.0 mm/hr 0.02 in0.5 mm
11:27 PM 43.1°F6.2°C 32.9°F0.5°C 67% 10.0 mph S16.1 kmh S 13.0 mph20.9 kmh 29.96 in1014.6 mb 0.00 in0.0 mm 0.00 in/hr0.0 mm/hr 0.02 in0.5 mm
11:29 PM 43.1°F6.2°C 32.9°F0.5°C 67% 9.0 mph SSW14.5 kmh SSW 13.0 mph20.9 kmh 29.96 in1014.6 mb 0.00 in0.0 mm 0.00 in/hr0.0 mm/hr 0.02 in0.5 mm
11:30 PM 43.1°F6.2°C 32.9°F0.5°C 67% 9.0 mph S14.5 kmh S 13.0 mph20.9 kmh 29.96 in1014.6 mb 0.00 in0.0 mm 0.00 in/hr0.0 mm/hr 0.02 in0.5 mm
11:31 PM 43.1°F6.2°C 32.9°F0.5°C 67% 10.0 mph S16.1 kmh S 13.0 mph20.9 kmh 29.96 in1014.6 mb 0.00 in0.0 mm 0.00 in/hr0.0 mm/hr 0.02 in0.5 mm
11:33 PM 43.1°F6.2°C 32.9°F0.5°C 67% 10.0 mph S16.1 kmh S 13.0 mph20.9 kmh 29.96 in1014.6 mb 0.00 in0.0 mm 0.00 in/hr0.0 mm/hr 0.02 in0.5 mm
11:34 PM 43.1°F6.2°C 32.9°F0.5°C 67% 11.0 mph S17.7 kmh S 13.0 mph20.9 kmh 29.96 in1014.6 mb 0.00 in0.0 mm 0.00 in/hr0.0 mm/hr 0.02 in0.5 mm
11:35 PM 43.1°F6.2°C 32.9°F0.5°C 67% 8.0 mph S12.9 kmh S 13.0 mph20.9 kmh 29.96 in1014.6 mb 0.00 in0.0 mm 0.00 in/hr0.0 mm/hr 0.02 in0.5 mm
11:36 PM 43.1°F6.2°C 32.9°F0.5°C 67% 12.0 mph S19.3 kmh S 13.0 mph20.9 kmh 29.96 in1014.6 mb 0.00 in0.0 mm 0.00 in/hr0.0 mm/hr 0.02 in0.5 mm
11:37 PM 43.1°F6.2°C 32.9°F0.5°C 67% 11.0 mph SSW17.7 kmh SSW 13.0 mph20.9 kmh 29.96 in1014.6 mb 0.00 in0.0 mm 0.00 in/hr0.0 mm/hr 0.02 in0.5 mm
11:38 PM 43.1°F6.2°C 32.9°F0.5°C 67% 12.0 mph S19.3 kmh S 14.0 mph22.5 kmh 29.95 in1014.2 mb 0.00 in0.0 mm 0.00 in/hr0.0 mm/hr 0.02 in0.5 mm
11:40 PM 43.1°F6.2°C 32.9°F0.5°C 67% 10.0 mph SSW16.1 kmh SSW 14.0 mph22.5 kmh 29.96 in1014.6 mb 0.00 in0.0 mm 0.00 in/hr0.0 mm/hr 0.02 in0.5 mm
11:41 PM 43.2°F6.2°C 33.0°F0.6°C 67% 11.0 mph S17.7 kmh S 14.0 mph22.5 kmh 29.96 in1014.6 mb 0.00 in0.0 mm 0.00 in/hr0.0 mm/hr 0.02 in0.5 mm
11:42 PM 43.2°F6.2°C 33.0°F0.6°C 67% 12.0 mph S19.3 kmh S 14.0 mph22.5 kmh 29.96 in1014.6 mb 0.00 in0.0 mm 0.00 in/hr0.0 mm/hr 0.02 in0.5 mm
11:44 PM 43.2°F6.2°C 33.0°F0.6°C 67% 13.0 mph S20.9 kmh S 16.0 mph25.7 kmh 29.96 in1014.6 mb 0.00 in0.0 mm 0.00 in/hr0.0 mm/hr 0.02 in0.5 mm
11:45 PM 43.2°F6.2°C 33.0°F0.6°C 67% 10.0 mph SSW16.1 kmh SSW 16.0 mph25.7 kmh 29.96 in1014.6 mb 0.00 in0.0 mm 0.00 in/hr0.0 mm/hr 0.02 in0.5 mm
11:46 PM 43.2°F6.2°C 33.0°F0.6°C 67% 13.0 mph S20.9 kmh S 17.0 mph27.4 kmh 29.96 in1014.6 mb 0.00 in0.0 mm 0.00 in/hr0.0 mm/hr 0.02 in0.5 mm
11:48 PM 43.2°F6.2°C 33.0°F0.6°C 67% 14.0 mph S22.5 kmh S 17.0 mph27.4 kmh 29.96 in1014.6 mb 0.00 in0.0 mm 0.00 in/hr0.0 mm/hr 0.02 in0.5 mm
11:49 PM 43.1°F6.2°C 32.9°F0.5°C 67% 13.0 mph S20.9 kmh S 17.0 mph27.4 kmh 29.96 in1014.6 mb 0.00 in0.0 mm 0.00 in/hr0.0 mm/hr 0.02 in0.5 mm
11:50 PM 43.1°F6.2°C 33.3°F0.7°C 68% 14.0 mph S22.5 kmh S 17.0 mph27.4 kmh 29.96 in1014.6 mb 0.00 in0.0 mm 0.00 in/hr0.0 mm/hr 0.02 in0.5 mm
11:52 PM 43.0°F6.1°C 33.2°F0.7°C 68% 14.0 mph S22.5 kmh S 17.0 mph27.4 kmh 29.96 in1014.6 mb 0.00 in0.0 mm 0.00 in/hr0.0 mm/hr 0.02 in0.5 mm
11:53 PM 42.9°F6.1°C 33.1°F0.6°C 68% 12.0 mph S19.3 kmh S 17.0 mph27.4 kmh 29.96 in1014.6 mb 0.00 in0.0 mm 0.00 in/hr0.0 mm/hr 0.02 in0.5 mm
11:54 PM 42.9°F6.1°C 33.1°F0.6°C 68% 13.0 mph S20.9 kmh S 17.0 mph27.4 kmh 29.96 in1014.6 mb 0.00 in0.0 mm 0.00 in/hr0.0 mm/hr 0.02 in0.5 mm
11:56 PM 42.8°F6.0°C 33.0°F0.6°C 68% 14.0 mph SSW22.5 kmh SSW 17.0 mph27.4 kmh 29.96 in1014.6 mb 0.00 in0.0 mm 0.00 in/hr0.0 mm/hr 0.02 in0.5 mm
11:57 PM 42.7°F5.9°C 33.3°F0.7°C 69% 14.0 mph SSW22.5 kmh SSW 17.0 mph27.4 kmh 29.96 in1014.6 mb 0.00 in0.0 mm 0.00 in/hr0.0 mm/hr 0.02 in0.5 mm
11:59 PM 42.6°F5.9°C 33.2°F0.7°C 69% 11.0 mph SSW17.7 kmh SSW 17.0 mph27.4 kmh 29.96 in1014.6 mb 0.00 in0.0 mm 0.00 in/hr0.0 mm/hr 0.02 in0.5 mm